Darstellungsparameter: Aktuell verwendete Einstellungen:
Skalierung der Graphiken ... ?
xyx+y,   Skalierungsfaktor:      Skalierung: Modus: x, Faktor: 1
Darstellungszeitraum ... ?
Vom - - bis: - -   Zeitraum: 01.01.2019 - 30.03.2019
Min/Max/Avg-Anzeige ... ?
Zeige MMA aktuell
Zeige MMA Monat
Zeige MMA alles
Zeige --A aktuell
Zeige --A Monat
Zeige --A alles
Keine MMA-Anzeige
MMA:
Average (ber die Originaldaten)
MMA-Basis: 01.01.2019 - 30.03.2019
Quicknavigation für Darstellung... ?
Tage:      1T, 2T, 3T, 5T -1T -2T -3T -5T +1T +2T +3T +5T
Wochen: 1W, 2W, 3W -1W -2W -3W +1W +2W +3W
Monate: 1M, 3M, 6M -1M -3M -6M +1M +3M +6M
Jahre:    1J, 3J, 5J, 10J -1J -3J -5J -10J +1J +3J +5J +10J
Nutze für die Darstellung ... ?
Originaldaten oder ...
Mittelwerte Minima Maxima auf...
Stundenbasis Tagesbasis Wochenbasis
Monatsbasis Jahresbasis      Datenbasis: Mittelwerte auf Stundenbasis
Darstellen als:
Statistik (Auto) Statistik J:M      Darstellung:
Zur Graphik,    zurück zur Übersicht aller Sensoren.
 
Tabellarische Datenbersicht: ?
 
Sensor: Nr:Datum:Temp:Abs-Feuchte:Windchill:Wind:
Aussen-T/F 1 01-01-2019 00:00:00 7.4 C 7.71 g/m*3 7.4 C 0.4 km/h
2 01-01-2019 01:00:00 7.25 C 7.64 g/m*3 7.25 C 1.73333 km/h
3 01-01-2019 02:00:00 7.325 C 7.68 g/m*3 7.33 C 3.2 km/h
4 01-01-2019 03:00:00 7.34167 C 7.68 g/m*3 7.34 C 1.33333 km/h
5 01-01-2019 04:00:00 7.23333 C 7.61 g/m*3 7.23 C 1.2 km/h
6 01-01-2019 05:00:00 7.29167 C 7.53 g/m*3 7.29 C 3.06667 km/h
7 01-01-2019 06:00:00 7.3 C 7.49 g/m*3 7.3 C 4.26667 km/h
8 01-01-2019 07:00:00 7.35833 C 7.41 g/m*3 7.36 C 4.275 km/h
9 01-01-2019 08:00:00 7.33333 C 7.31 g/m*3 7.33 C 3.2 km/h
10 01-01-2019 09:00:00 7.20833 C 7.19 g/m*3 6.29 C 5.90833 km/h
11 01-01-2019 10:00:00 7.26667 C 6.98 g/m*3 5.22 C 10.75833 km/h
12 01-01-2019 11:00:00 7.58333 C 7.11 g/m*3 5.83 C 9.55 km/h
13 01-01-2019 12:00:00 7.55 C 7.31 g/m*3 6.18 C 7.79167 km/h
14 01-01-2019 13:00:00 7.49167 C 7.5 g/m*3 5.89 C 8.74167 km/h
15 01-01-2019 14:00:00 7.725 C 7.63 g/m*3 6.03 C 9.41667 km/h
16 01-01-2019 15:00:00 7.65833 C 7.68 g/m*3 5.67 C 10.9 km/h
17 01-01-2019 16:00:00 7.61667 C 7.73 g/m*3 5.69 C 10.49167 km/h
18 01-01-2019 17:00:00 7.55833 C 7.48 g/m*3 5.03 C 14.09167 km/h
19 01-01-2019 18:00:00 7.45833 C 6.97 g/m*3 4.65 C 15.96667 km/h
20 01-01-2019 19:00:00 7.15 C 6.78 g/m*3 4.41 C 14.9 km/h
21 01-01-2019 20:00:00 6.46667 C 6.37 g/m*3 3.53 C 15.16667 km/h
22 01-01-2019 21:00:00 5.78333 C 6.09 g/m*3 2.63 C 15.56667 km/h
23 01-01-2019 22:00:00 5.375 C 5.95 g/m*3 2.27 C 14.625 km/h
24 01-01-2019 23:00:00 4.5 C 5.82 g/m*3 1.68 C 11.825 km/h
25 02-01-2019 00:00:00 5 C 5.83 g/m*3 1.89 C 14.1 km/h
Sensor: Nr:Datum:Temp:Abs-Feuchte:Windchill:Wind:
Aussen-T/F 26 02-01-2019 01:00:00 5.21667 C 5.64 g/m*3 1.72 C 17.03333 km/h
27 02-01-2019 02:00:00 4.85833 C 5.34 g/m*3 2.09 C 11.95 km/h
28 02-01-2019 03:00:00 4.60833 C 5.22 g/m*3 2.11 C 10.36667 km/h
29 02-01-2019 04:00:00 4.20833 C 5.05 g/m*3 1.84 C 9.425 km/h
30 02-01-2019 05:00:00 4.24167 C 5.12 g/m*3 1.68 C 10.35 km/h
31 02-01-2019 06:00:00 4.35 C 5.27 g/m*3 2.08 C 9.13333 km/h
32 02-01-2019 07:00:00 4.75 C 5.37 g/m*3 1.56 C 14.23333 km/h
33 02-01-2019 08:00:00 4.725 C 5.39 g/m*3 2.31 C 10.08333 km/h
34 02-01-2019 09:00:00 4.69167 C 5.44 g/m*3 2.39 C 9.54167 km/h
35 02-01-2019 10:00:00 4.55833 C 5.57 g/m*3 1.78 C 11.68333 km/h
36 02-01-2019 11:00:00 4.95833 C 5.69 g/m*3 2.54 C 10.34167 km/h
37 02-01-2019 12:00:00 5.24167 C 5.72 g/m*3 2.46 C 12.49167 km/h
38 02-01-2019 13:00:00 4.25833 C 5.63 g/m*3 1.73 C 10.20833 km/h
39 02-01-2019 14:00:00 5.425 C 5.29 g/m*3 2.71 C 12.36667 km/h
40 02-01-2019 15:00:00 5.375 C 5.22 g/m*3 3.17 C 9.69167 km/h
41 02-01-2019 16:00:00 4.575 C 5.15 g/m*3 2.89 C 7.1 km/h
42 02-01-2019 17:00:00 3.34167 C 4.85 g/m*3 3.34 C 4.275 km/h
43 02-01-2019 18:00:00 1.75833 C 4.66 g/m*3 1.76 C 3.86667 km/h
44 02-01-2019 19:00:00 0.94167 C 4.56 g/m*3 0.94 C 2.13333 km/h
45 02-01-2019 20:00:00 0.64167 C 4.56 g/m*3 0.64 C 2.4 km/h
46 02-01-2019 21:00:00 0.6 C 4.56 g/m*3 0.6 C 3.46667 km/h
47 02-01-2019 22:00:00 0.675 C 4.55 g/m*3 0.68 C 3.46667 km/h
48 02-01-2019 23:00:00 -0.175 C 4.3 g/m*3 -0.18 C 1.33333 km/h
49 03-01-2019 00:00:00 -1.175 C 4.11 g/m*3 -1.18 C 0 km/h
50 03-01-2019 01:00:00 -1.56667 C 4.05 g/m*3 -1.57 C 0.66667 km/h
Sensor: Nr:Datum:Temp:Abs-Feuchte:Windchill:Wind:
Aussen-T/F 51 03-01-2019 02:00:00 -1.525 C 4.11 g/m*3 -1.53 C 1.2 km/h
52 03-01-2019 03:00:00 -0.64167 C 4.4 g/m*3 -0.64 C 3.73333 km/h
53 03-01-2019 04:00:00 -0.24167 C 4.49 g/m*3 -0.24 C 4.13333 km/h
54 03-01-2019 05:00:00 0.175 C 4.61 g/m*3 0.18 C 1.46667 km/h
55 03-01-2019 06:00:00 0.58333 C 4.69 g/m*3 0.58 C 0.53333 km/h
56 03-01-2019 07:00:00 0.80833 C 4.77 g/m*3 0.81 C 1.73333 km/h
57 03-01-2019 08:00:00 0.825 C 4.81 g/m*3 0.83 C 0.4 km/h
58 03-01-2019 09:00:00 1.025 C 4.93 g/m*3 1.02 C 1.2 km/h
59 03-01-2019 10:00:00 1.4 C 5.07 g/m*3 1.4 C 0.66667 km/h
60 03-01-2019 11:00:00 1.85833 C 5.23 g/m*3 1.86 C 0.4 km/h
61 03-01-2019 12:00:00 2.66667 C 5.56 g/m*3 2.67 C 0.93333 km/h
62 03-01-2019 13:00:00 3.45 C 5.78 g/m*3 3.45 C 3.46667 km/h
63 03-01-2019 14:00:00 3.95 C 5.89 g/m*3 3.95 C 2.93333 km/h
64 03-01-2019 15:00:00 4.4 C 5.93 g/m*3 2.72 C 6.975 km/h
65 03-01-2019 16:00:00 4.31667 C 5.83 g/m*3 4.32 C 2.26667 km/h
66 03-01-2019 17:00:00 4.13333 C 5.82 g/m*3 4.13 C 2.26667 km/h
67 03-01-2019 18:00:00 3.96667 C 5.77 g/m*3 3.97 C 2.26667 km/h
68 03-01-2019 19:00:00 4.075 C 5.84 g/m*3 4.08 C 1.86667 km/h
69 03-01-2019 20:00:00 4.16667 C 5.89 g/m*3 4.17 C 3.48333 km/h
70 03-01-2019 21:00:00 4.15 C 5.91 g/m*3 4.15 C 2 km/h
71 03-01-2019 22:00:00 4.15 C 5.91 g/m*3 4.15 C 1.6 km/h
72 03-01-2019 23:00:00 3.94167 C 5.86 g/m*3 3.94 C 0.53333 km/h
73 04-01-2019 00:00:00 3.29167 C 5.59 g/m*3 3.29 C 0.4 km/h
74 04-01-2019 01:00:00 2.075 C 5.2 g/m*3 2.08 C 2 km/h
75 04-01-2019 02:00:00 2.06667 C 5.29 g/m*3 2.07 C 0 km/h
Sensor: Nr:Datum:Temp:Abs-Feuchte:Windchill:Wind:
Aussen-T/F 76 04-01-2019 03:00:00 1.9 C 5.22 g/m*3 1.9 C 0 km/h
77 04-01-2019 04:00:00 1.94167 C 5.26 g/m*3 1.94 C 0 km/h
78 04-01-2019 05:00:00 1.85833 C 5.23 g/m*3 1.86 C 0 km/h
79 04-01-2019 06:00:00 1.80833 C 5.23 g/m*3 1.81 C 0 km/h
80 04-01-2019 07:00:00 1.68333 C 5.19 g/m*3 1.68 C 0 km/h
81 04-01-2019 08:00:00 1.5 C 5.13 g/m*3 1.5 C 0.53333 km/h
82 04-01-2019 09:00:00 1.55 C 5.17 g/m*3 1.55 C 1.46667 km/h
83 04-01-2019 10:00:00 2.09167 C 5.36 g/m*3 0.68 C 5.24167 km/h
84 04-01-2019 11:00:00 2.275 C 5.36 g/m*3 0.39 C 6.55 km/h
85 04-01-2019 12:00:00 3.05 C 5.54 g/m*3 1.38 C 6.29167 km/h
86 04-01-2019 13:00:00 3.68333 C 5.74 g/m*3 3.68 C 4.80833 km/h
87 04-01-2019 14:00:00 4.71667 C 5.87 g/m*3 2.65 C 8.58333 km/h
88 04-01-2019 15:00:00 4.69167 C 5.8 g/m*3 2.58 C 8.74167 km/h
89 04-01-2019 16:00:00 4.7 C 5.75 g/m*3 2.53 C 9.01667 km/h
90 04-01-2019 17:00:00 4.46667 C 5.68 g/m*3 1.59 C 12.08333 km/h
91 04-01-2019 18:00:00 4.35 C 5.71 g/m*3 2.43 C 7.78333 km/h
92 04-01-2019 19:00:00 4.35833 C 5.73 g/m*3 1.73 C 10.75 km/h
93 04-01-2019 20:00:00 4.34167 C 5.75 g/m*3 3.2 C 5.35 km/h
94 04-01-2019 21:00:00 4.325 C 5.79 g/m*3 2.59 C 7.125 km/h
95 04-01-2019 22:00:00 4.23333 C 5.89 g/m*3 2.97 C 5.625 km/h
96 04-01-2019 23:00:00 4.35 C 5.99 g/m*3 2.38 C 7.95 km/h
97 05-01-2019 00:00:00 4.45833 C 6.07 g/m*3 4.46 C 4.675 km/h
98 05-01-2019 01:00:00 4.26667 C 6.09 g/m*3 4.27 C 3.6 km/h
99 05-01-2019 02:00:00 4.225 C 6.13 g/m*3 2.97 C 5.625 km/h
100 05-01-2019 03:00:00 4.36667 C 6.25 g/m*3 4.37 C 4 km/h
Sensor: Nr:Datum:Temp:Abs-Feuchte:Windchill:Wind:
Aussen-T/F 101 05-01-2019 04:00:00 4.48333 C 6.3 g/m*3 3.41 C 5.21667 km/h
102 05-01-2019 05:00:00 4.475 C 6.3 g/m*3 2.97 C 6.44167 km/h
103 05-01-2019 06:00:00 4.41667 C 6.26 g/m*3 3.13 C 5.76667 km/h
104 05-01-2019 07:00:00 4.86667 C 6.47 g/m*3 4.87 C 4.28333 km/h
105 05-01-2019 08:00:00 5.96667 C 6.95 g/m*3 3.8 C 10.075 km/h
106 05-01-2019 09:00:00 6.71667 C 7.14 g/m*3 3.88 C 14.9 km/h
107 05-01-2019 10:00:00 6.79167 C 7.18 g/m*3 4.53 C 11.425 km/h
108 05-01-2019 11:00:00 6.9 C 7.2 g/m*3 4.47 C 12.54444 km/h
109 05-01-2019 12:00:00 6.95 C 7.18 g/m*3 4.28 C 14.1 km/h
110 05-01-2019 13:00:00 7.01667 C 7.21 g/m*3 4.41 C 13.83333 km/h
111 05-01-2019 14:00:00 7.06667 C 7.24 g/m*3 4.75 C 12.08333 km/h
112 05-01-2019 15:00:00 7 C 7.19 g/m*3 4.21 C 15.03333 km/h
113 05-01-2019 16:00:00 6.9 C 7.04 g/m*3 4.26 C 13.83333 km/h
114 05-01-2019 17:00:00 6.775 C 6.94 g/m*3 4.34 C 12.36667 km/h
115 05-01-2019 18:00:00 6.61667 C 6.91 g/m*3 4.27 C 11.68333 km/h
116 05-01-2019 19:00:00 6.58333 C 6.88 g/m*3 3.92 C 13.56667 km/h
117 05-01-2019 20:00:00 6.55 C 6.86 g/m*3 3.92 C 13.3 km/h
118 05-01-2019 21:00:00 6.4 C 6.79 g/m*3 3.67 C 13.7 km/h
119 05-01-2019 22:00:00 6.38333 C 6.8 g/m*3 3.82 C 12.63333 km/h
120 05-01-2019 23:00:00 6.3 C 6.82 g/m*3 3.72 C 12.63333 km/h
121 06-01-2019 00:00:00 6.125 C 6.82 g/m*3 3.85 C 10.76667 km/h
122 06-01-2019 01:00:00 5.9 C 6.78 g/m*3 3.48 C 11.3 km/h
123 06-01-2019 02:00:00 5.71667 C 6.67 g/m*3 3.56 C 9.80833 km/h
124 06-01-2019 03:00:00 5.7 C 6.62 g/m*3 3.71 C 9.01667 km/h
125 06-01-2019 04:00:00 5.725 C 6.63 g/m*3 3.42 C 10.5 km/h
Sensor: Nr:Datum:Temp:Abs-Feuchte:Windchill:Wind:
Aussen-T/F 126 06-01-2019 05:00:00 5.74167 C 6.64 g/m*3 3.16 C 11.95833 km/h
127 06-01-2019 06:00:00 5.7 C 6.62 g/m*3 3.29 C 11.025 km/h
128 06-01-2019 07:00:00 5.7 C 6.62 g/m*3 3.87 C 8.33333 km/h
129 06-01-2019 08:00:00 5.69167 C 6.6 g/m*3 3.36 C 10.61667 km/h
130 06-01-2019 09:00:00 5.7 C 6.55 g/m*3 3.75 C 8.85833 km/h
131 06-01-2019 10:00:00 5.79167 C 6.59 g/m*3 3.98 C 8.34167 km/h
132 06-01-2019 11:00:00 5.975 C 6.61 g/m*3 4.37 C 7.65 km/h
133 06-01-2019 12:00:00 6.275 C 6.67 g/m*3 4.34 C 9.275 km/h
134 06-01-2019 13:00:00 6.325 C 6.67 g/m*3 4.58 C 8.475 km/h
135 06-01-2019 14:00:00 6.23333 C 6.69 g/m*3 4.71 C 7.51667 km/h
136 06-01-2019 15:00:00 6.125 C 6.6 g/m*3 4.84 C 6.56667 km/h
137 06-01-2019 16:00:00 6.025 C 6.56 g/m*3 6.03 C 4.95 km/h
138 06-01-2019 17:00:00 5.81667 C 6.51 g/m*3 5.82 C 1.2 km/h
139 06-01-2019 18:00:00 5.56667 C 6.42 g/m*3 5.57 C 0.26667 km/h
140 06-01-2019 19:00:00 5.29167 C 6.31 g/m*3 5.29 C 0 km/h
141 06-01-2019 20:00:00 5.25 C 6.3 g/m*3 5.25 C 0.93333 km/h
142 06-01-2019 21:00:00 5.35833 C 6.33 g/m*3 5.36 C 0.26667 km/h
143 06-01-2019 22:00:00 5.38333 C 6.34 g/m*3 5.38 C 0.93333 km/h
144 06-01-2019 23:00:00 5.35 C 6.33 g/m*3 5.35 C 3.2 km/h
145 07-01-2019 00:00:00 5.38333 C 6.34 g/m*3 5.38 C 4.01667 km/h
146 07-01-2019 01:00:00 5.25833 C 6.29 g/m*3 5.26 C 2.13333 km/h
147 07-01-2019 02:00:00 5.2 C 6.27 g/m*3 4.13 C 5.48333 km/h
148 07-01-2019 03:00:00 5.2 C 6.29 g/m*3 5.2 C 1.86667 km/h
149 07-01-2019 04:00:00 5.10833 C 6.26 g/m*3 5.11 C 0.93333 km/h
150 07-01-2019 05:00:00 4.96667 C 6.18 g/m*3 4.97 C 0 km/h
Sensor: Nr:Datum:Temp:Abs-Feuchte:Windchill:Wind:
Aussen-T/F 151 07-01-2019 06:00:00 4.825 C 6.18 g/m*3 4.83 C 0.4 km/h
152 07-01-2019 07:00:00 4.64167 C 6.08 g/m*3 4.64 C 0.4 km/h
153 07-01-2019 08:00:00 4.38333 C 6.03 g/m*3 4.38 C 0 km/h
154 07-01-2019 09:00:00 4.39167 C 6.07 g/m*3 4.39 C 0.8 km/h
155 07-01-2019 10:00:00 4.55833 C 6.14 g/m*3 4.56 C 1.86667 km/h
156 07-01-2019 11:00:00 4.99167 C 6.21 g/m*3 4.99 C 3.33333 km/h
157 07-01-2019 12:00:00 5.975 C 6.27 g/m*3 4.33 C 7.8 km/h
158 07-01-2019 13:00:00 6.70833 C 6.34 g/m*3 5.64 C 6.15833 km/h
159 07-01-2019 14:00:00 6.95 C 6.38 g/m*3 6.13 C 5.48333 km/h
160 07-01-2019 15:00:00 6.85 C 6.38 g/m*3 6.85 C 3.875 km/h
161 07-01-2019 16:00:00 6.25833 C 6.37 g/m*3 3.93 C 11.16667 km/h
162 07-01-2019 17:00:00 5.75 C 6.29 g/m*3 3.15 C 12.1 km/h
163 07-01-2019 18:00:00 5.48333 C 6.23 g/m*3 3.11 C 10.625 km/h
164 07-01-2019 19:00:00 5.55833 C 6.27 g/m*3 3.99 C 7.26667 km/h
165 07-01-2019 20:00:00 5.94167 C 6.49 g/m*3 3.22 C 13.01667 km/h
166 07-01-2019 21:00:00 5.86667 C 6.63 g/m*3 2.98 C 13.96667 km/h
167 07-01-2019 22:00:00 5.83333 C 6.7 g/m*3 2.42 C 17.56667 km/h
168 07-01-2019 23:00:00 6.01667 C 6.79 g/m*3 2.66 C 17.44167 km/h
169 08-01-2019 00:00:00 6.28333 C 6.88 g/m*3 2.86 C 18.5 km/h
170 08-01-2019 01:00:00 6.61667 C 7 g/m*3 3.64 C 15.7 km/h
171 08-01-2019 02:00:00 6.73333 C 7.16 g/m*3 4.43 C 11.56667 km/h
172 08-01-2019 03:00:00 6.875 C 7.3 g/m*3 4.51 C 12.08333 km/h
173 08-01-2019 04:00:00 7 C 7.17 g/m*3 4.85 C 11.01667 km/h
174 08-01-2019 05:00:00 7.1 C 6.83 g/m*3 4.43 C 14.36667 km/h
175 08-01-2019 06:00:00 7.3 C 6.59 g/m*3 4.73 C 13.96667 km/h
Sensor: Nr:Datum:Temp:Abs-Feuchte:Windchill:Wind:
Aussen-T/F 176 08-01-2019 07:00:00 7.2 C 6.46 g/m*3 4.8 C 12.76667 km/h
177 08-01-2019 08:00:00 6.86667 C 6.23 g/m*3 4.24 C 13.7 km/h
178 08-01-2019 09:00:00 6.78333 C 6.24 g/m*3 4.59 C 11.03333 km/h
179 08-01-2019 10:00:00 6.25833 C 6.53 g/m*3 4.09 C 10.34167 km/h
180 08-01-2019 11:00:00 6.85 C 6.51 g/m*3 3.84 C 16.36667 km/h
181 08-01-2019 12:00:00 6.99167 C 6.57 g/m*3 3.72 C 18.76667 km/h
182 08-01-2019 13:00:00 7.475 C 6.53 g/m*3 4.22 C 19.70833 km/h
183 08-01-2019 14:00:00 7.45833 C 6.46 g/m*3 3.86 C 23.05833 km/h
184 08-01-2019 15:00:00 7.075 C 6.57 g/m*3 3.78 C 19.175 km/h
185 08-01-2019 16:00:00 5.88333 C 6.46 g/m*3 3.02 C 13.81667 km/h
186 08-01-2019 17:00:00 6.03333 C 6.44 g/m*3 2.39 C 19.85 km/h
187 08-01-2019 18:00:00 6.16667 C 6.3 g/m*3 2.54 C 19.98333 km/h
188 08-01-2019 19:00:00 6.33333 C 6.11 g/m*3 2.8 C 19.56667 km/h
189 08-01-2019 20:00:00 6.28333 C 5.95 g/m*3 2.67 C 20.11667 km/h
190 08-01-2019 21:00:00 5.775 C 5.98 g/m*3 2.34 C 17.58333 km/h
191 08-01-2019 22:00:00 6.08333 C 5.89 g/m*3 1.73 C 26.95 km/h
192 08-01-2019 23:00:00 5.50833 C 5.87 g/m*3 1.47 C 22.11667 km/h
193 09-01-2019 00:00:00 5.11667 C 5.94 g/m*3 1.33 C 19.03333 km/h
194 09-01-2019 01:00:00 4.9 C 5.96 g/m*3 1.01 C 19.44167 km/h
195 09-01-2019 02:00:00 4.33333 C 5.89 g/m*3 0.96 C 14.76667 km/h
196 09-01-2019 03:00:00 3.75 C 5.8 g/m*3 1.03 C 10.61667 km/h
197 09-01-2019 04:00:00 4.05833 C 5.84 g/m*3 0.61 C 14.89167 km/h
198 09-01-2019 05:00:00 3.4 C 5.59 g/m*3 0.46 C 11.28333 km/h
199 09-01-2019 06:00:00 3.10833 C 5.63 g/m*3 0.86 C 8.19167 km/h
200 09-01-2019 07:00:00 3.05833 C 5.55 g/m*3 0.32 C 10.08333 km/h
Sensor: Nr:Datum:Temp:Abs-Feuchte:Windchill:Wind:
Aussen-T/F 201 09-01-2019 08:00:00 2.68333 C 5.44 g/m*3 0.64 C 7.25 km/h
202 09-01-2019 09:00:00 2.375 C 5.35 g/m*3 -0.12 C 8.59167 km/h
203 09-01-2019 10:00:00 3.09167 C 5.59 g/m*3 0.59 C 9.125 km/h
204 09-01-2019 11:00:00 4 C 5.58 g/m*3 -0.02 C 18.63333 km/h
205 09-01-2019 12:00:00 4.4 C 5.48 g/m*3 0.84 C 16.1 km/h
206 09-01-2019 13:00:00 4.64167 C 5.33 g/m*3 0.51 C 20.90833 km/h
207 09-01-2019 14:00:00 4.775 C 5.16 g/m*3 0.99 C 18.36667 km/h
208 09-01-2019 15:00:00 4.8 C 4.98 g/m*3 0.99 C 18.63333 km/h
209 09-01-2019 16:00:00 4.55833 C 4.88 g/m*3 0.75 C 18.1 km/h
210 09-01-2019 17:00:00 4.3 C 4.84 g/m*3 1.06 C 13.96667 km/h
211 09-01-2019 18:00:00 4.275 C 4.75 g/m*3 0.85 C 15.03333 km/h
212 09-01-2019 19:00:00 4.15 C 4.81 g/m*3 1.56 C 10.35833 km/h
213 09-01-2019 20:00:00 3.93333 C 4.81 g/m*3 0.47 C 14.76667 km/h
214 09-01-2019 21:00:00 3.64167 C 4.59 g/m*3 0.11 C 14.76667 km/h
215 09-01-2019 22:00:00 3.26667 C 4.61 g/m*3 0.19 C 11.83333 km/h
216 09-01-2019 23:00:00 3.1 C 4.58 g/m*3 0.1 C 11.29167 km/h
217 10-01-2019 00:00:00 3.00833 C 4.57 g/m*3 -0.17 C 12.09167 km/h
218 10-01-2019 01:00:00 2.775 C 4.54 g/m*3 0.54 C 7.925 km/h
219 10-01-2019 02:00:00 2.65 C 4.53 g/m*3 -0.07 C 9.69167 km/h
220 10-01-2019 03:00:00 2.475 C 4.56 g/m*3 0.66 C 6.44167 km/h
221 10-01-2019 04:00:00 2.325 C 4.54 g/m*3 0.96 C 5.21667 km/h
222 10-01-2019 05:00:00 2.15833 C 4.54 g/m*3 2.16 C 3.86667 km/h
223 10-01-2019 06:00:00 2.04167 C 4.59 g/m*3 0.02 C 6.84167 km/h
224 10-01-2019 07:00:00 1.75 C 4.59 g/m*3 1.75 C 3.33333 km/h
225 10-01-2019 08:00:00 1.59167 C 4.63 g/m*3 1.59 C 3.6 km/h
Sensor: Nr:Datum:Temp:Abs-Feuchte:Windchill:Wind:
Aussen-T/F 226 10-01-2019 09:00:00 1.80833 C 4.68 g/m*3 1.81 C 3.20833 km/h
227 10-01-2019 10:00:00 1.99167 C 4.79 g/m*3 1.99 C 4.66667 km/h
228 10-01-2019 11:00:00 2.18333 C 4.83 g/m*3 0.23 C 6.70833 km/h
229 10-01-2019 12:00:00 2.20833 C 4.83 g/m*3 0.21 C 6.85 km/h
230 10-01-2019 13:00:00 2.525 C 4.62 g/m*3 -0.29 C 9.96667 km/h
231 10-01-2019 14:00:00 2.875 C 4.61 g/m*3 0.29 C 9.28333 km/h
232 10-01-2019 15:00:00 2.875 C 4.63 g/m*3 0.19 C 9.69167 km/h
233 10-01-2019 16:00:00 2.59167 C 4.64 g/m*3 2.59 C 4.00833 km/h
234 10-01-2019 17:00:00 2.15833 C 4.69 g/m*3 2.16 C 1.2 km/h
235 10-01-2019 18:00:00 1.85833 C 4.74 g/m*3 1.86 C 3.20833 km/h
236 10-01-2019 19:00:00 1.29167 C 4.7 g/m*3 1.29 C 2.53333 km/h
237 10-01-2019 20:00:00 1.03333 C 4.73 g/m*3 1.03 C 0.8 km/h
238 10-01-2019 21:00:00 1.04167 C 4.77 g/m*3 1.04 C 0.26667 km/h
239 10-01-2019 22:00:00 1.1 C 4.81 g/m*3 1.1 C 0 km/h
240 10-01-2019 23:00:00 1.05 C 4.83 g/m*3 1.05 C 0 km/h
241 11-01-2019 00:00:00 1.1 C 4.86 g/m*3 1.1 C 0.66667 km/h
242 11-01-2019 01:00:00 1.23333 C 4.83 g/m*3 1.23 C 2.53333 km/h
243 11-01-2019 02:00:00 1.14167 C 4.8 g/m*3 1.14 C 0.4 km/h
244 11-01-2019 03:00:00 0.85 C 4.75 g/m*3 0.85 C 0.93333 km/h
245 11-01-2019 04:00:00 0.85833 C 4.81 g/m*3 0.86 C 2.26667 km/h
246 11-01-2019 05:00:00 0.9 C 4.85 g/m*3 0.9 C 2 km/h
247 11-01-2019 06:00:00 0.93333 C 4.89 g/m*3 0.93 C 1.86667 km/h
248 11-01-2019 07:00:00 1.21667 C 5 g/m*3 -0.3 C 5.20833 km/h
249 11-01-2019 08:00:00 1.4 C 5.03 g/m*3 -0.04 C 5.09167 km/h
250 11-01-2019 09:00:00 1.70833 C 5.12 g/m*3 -0.75 C 8.075 km/h
Sensor: Nr:Datum:Temp:Abs-Feuchte:Windchill:Wind:
Aussen-T/F 251 11-01-2019 10:00:00 1.93333 C 5.19 g/m*3 0 C 6.55833 km/h
252 11-01-2019 11:00:00 2.20833 C 5.3 g/m*3 -0.08 C 7.78333 km/h
253 11-01-2019 12:00:00 2.45 C 5.41 g/m*3 0.45 C 6.98333 km/h
254 11-01-2019 13:00:00 2.675 C 5.53 g/m*3 1.04 C 6.025 km/h
255 11-01-2019 14:00:00 3.075 C 5.74 g/m*3 1.1 C 7.23333 km/h
256 11-01-2019 15:00:00 3.35 C 5.84 g/m*3 1.26 C 7.79167 km/h
257 11-01-2019 16:00:00 3.61667 C 5.95 g/m*3 1.77 C 7.1 km/h
258 11-01-2019 17:00:00 3.81667 C 6.03 g/m*3 2.26 C 6.29167 km/h
259 11-01-2019 18:00:00 4.18333 C 6.21 g/m*3 3.07 C 5.20833 km/h
260 11-01-2019 19:00:00 4.575 C 6.4 g/m*3 3.57 C 5.075 km/h
261 11-01-2019 20:00:00 5.225 C 6.69 g/m*3 5.23 C 2.8 km/h
262 11-01-2019 21:00:00 6.28333 C 7.17 g/m*3 5.15 C 6.15 km/h
263 11-01-2019 22:00:00 6.48333 C 7.23 g/m*3 5.42 C 6.025 km/h
264 11-01-2019 23:00:00 6.66667 C 7.28 g/m*3 5.25 C 7.38333 km/h
265 12-01-2019 00:00:00 6.60833 C 7.25 g/m*3 4.56 C 10.08333 km/h
266 12-01-2019 01:00:00 6.56364 C 7.23 g/m*3 5.11 C 7.45455 km/h
267 12-01-2019 07:00:00 5.1 C 6.43 g/m*3 2.84 C 9.7 km/h
268 12-01-2019 08:00:00 4.98333 C 6.42 g/m*3 3.93 C 5.34167 km/h
269 12-01-2019 09:00:00 4.9 C 6.41 g/m*3 3.65 C 5.88333 km/h
270 12-01-2019 11:00:00 5.9 C 6.42 g/m*3 3.33 C 12.1 km/h
271 12-01-2019 12:00:00 5.875 C 6.34 g/m*3 3.03 C 13.7 km/h
272 12-01-2019 13:00:00 5.9 C 6.32 g/m*3 3.1 C 13.425 km/h
273 12-01-2019 14:00:00 6.06667 C 6.44 g/m*3 3.31 C 13.43333 km/h
274 12-01-2019 15:00:00 6.20833 C 6.6 g/m*3 3.35 C 14.23333 km/h
275 12-01-2019 16:00:00 6.05833 C 6.64 g/m*3 3.11 C 14.63333 km/h
Sensor: Nr:Datum:Temp:Abs-Feuchte:Windchill:Wind:
Aussen-T/F 276 12-01-2019 17:00:00 5.89167 C 6.65 g/m*3 2.86 C 14.9 km/h
277 12-01-2019 18:00:00 5.88333 C 6.7 g/m*3 3.41 C 11.55833 km/h
278 12-01-2019 19:00:00 5.90833 C 6.82 g/m*3 4.44 C 7.1 km/h
279 12-01-2019 20:00:00 5.9 C 6.89 g/m*3 5.9 C 3.86667 km/h
280 12-01-2019 21:00:00 5.94167 C 6.94 g/m*3 5.07 C 5.21667 km/h
281 12-01-2019 22:00:00 6.18333 C 7.02 g/m*3 5.35 C 5.21667 km/h
282 12-01-2019 23:00:00 6.2 C 7.05 g/m*3 6.2 C 2.53333 km/h
283 13-01-2019 00:00:00 6.16667 C 7.04 g/m*3 6.17 C 0.8 km/h
284 13-01-2019 01:00:00 6.13333 C 7.03 g/m*3 5.29 C 5.21667 km/h
285 13-01-2019 02:00:00 6.05833 C 6.99 g/m*3 6.06 C 3.06667 km/h
286 13-01-2019 03:00:00 6.06667 C 7 g/m*3 6.07 C 3.74167 km/h
287 13-01-2019 04:00:00 6.225 C 7.07 g/m*3 6.23 C 2.93333 km/h
288 13-01-2019 05:00:00 6.49167 C 7.23 g/m*3 4.71 C 8.73333 km/h
289 13-01-2019 06:00:00 6.8 C 7.34 g/m*3 4.69 C 10.625 km/h
290 13-01-2019 07:00:00 7.14167 C 7.42 g/m*3 4.52 C 14.1 km/h
291 13-01-2019 08:00:00 7.325 C 7.49 g/m*3 5.95 C 7.64167 km/h
292 13-01-2019 09:00:00 7.38333 C 7.63 g/m*3 5.41 C 10.5 km/h
293 13-01-2019 10:00:00 7.675 C 7.77 g/m*3 6 C 9.28333 km/h
294 13-01-2019 11:00:00 8.13333 C 8.01 g/m*3 6.8 C 8.06667 km/h
295 13-01-2019 12:00:00 8.59167 C 8.27 g/m*3 7.06 C 9.425 km/h
296 13-01-2019 13:00:00 8.85833 C 8.38 g/m*3 7.03 C 11.40833 km/h
297 13-01-2019 14:00:00 8.89167 C 8.41 g/m*3 7.2 C 10.625 km/h
298 13-01-2019 15:00:00 8.85 C 8.38 g/m*3 7.45 C 9.00833 km/h
299 13-01-2019 16:00:00 8.86667 C 8.39 g/m*3 7.55 C 8.6 km/h
300 13-01-2019 17:00:00 8.99167 C 8.41 g/m*3 7.39 C 10.21667 km/h
Sensor: Nr:Datum:Temp:Abs-Feuchte:Windchill:Wind:
Aussen-T/F 301 13-01-2019 18:00:00 9.25833 C 8.34 g/m*3 7.26 C 13.03333 km/h
302 13-01-2019 19:00:00 9.50833 C 7.96 g/m*3 7.02 C 17.43333 km/h
303 13-01-2019 20:00:00 9.30833 C 7.68 g/m*3 6.6 C 19.04167 km/h
304 13-01-2019 21:00:00 9.06667 C 7.51 g/m*3 6.58 C 16.5 km/h
305 13-01-2019 22:00:00 7.19167 C 7.1 g/m*3 4.38 C 15.55 km/h
306 13-01-2019 23:00:00 6.70833 C 7.04 g/m*3 4.23 C 12.59167 km/h
307 14-01-2019 00:00:00 7.325 C 6.94 g/m*3 5.06 C 12.1 km/h
308 14-01-2019 01:00:00 7.06667 C 6.82 g/m*3 5.04 C 10.475 km/h
309 14-01-2019 02:00:00 7.425 C 6.7 g/m*3 5.03 C 13.025 km/h
310 14-01-2019 03:00:00 6.59167 C 6.55 g/m*3 4.29 C 11.425 km/h
311 14-01-2019 04:00:00 6.71667 C 6.61 g/m*3 3.77 C 15.7 km/h
312 14-01-2019 05:00:00 7.1 C 6.65 g/m*3 4.07 C 17.03333 km/h
313 14-01-2019 06:00:00 6.725 C 6.63 g/m*3 3.95 C 14.5 km/h
314 14-01-2019 07:00:00 6.33333 C 6.57 g/m*3 3.55 C 13.95833 km/h
315 14-01-2019 08:00:00 6.23333 C 6.6 g/m*3 3.83 C 11.56667 km/h
316 14-01-2019 09:00:00 6.425 C 6.64 g/m*3 4.43 C 9.675 km/h
317 14-01-2019 10:00:00 6.4 C 6.63 g/m*3 3.67 C 13.7 km/h
318 14-01-2019 11:00:00 4.40833 C 6.01 g/m*3 2.12 C 9.26667 km/h
319 14-01-2019 12:00:00 4.70833 C 6.13 g/m*3 2.44 C 9.40833 km/h
320 14-01-2019 13:00:00 5.36667 C 6.21 g/m*3 3.16 C 9.7 km/h
321 14-01-2019 14:00:00 4.33333 C 5.76 g/m*3 1.38 C 12.35833 km/h
322 14-01-2019 15:00:00 4.05 C 5.76 g/m*3 2.53 C 6.29167 km/h
323 14-01-2019 16:00:00 3.76667 C 5.66 g/m*3 0.99 C 10.875 km/h
324 14-01-2019 17:00:00 2.725 C 5.38 g/m*3 2.73 C 3.6 km/h
325 14-01-2019 18:00:00 2.75833 C 5.46 g/m*3 0.68 C 7.38333 km/h
Sensor: Nr:Datum:Temp:Abs-Feuchte:Windchill:Wind:
Aussen-T/F 326 14-01-2019 19:00:00 2.74167 C 5.43 g/m*3 2.74 C 3.73333 km/h
327 14-01-2019 20:00:00 2.39167 C 5.36 g/m*3 2.39 C 3.86667 km/h
328 14-01-2019 21:00:00 3.01667 C 5.54 g/m*3 1.2 C 6.70833 km/h
329 14-01-2019 22:00:00 3.59167 C 5.56 g/m*3 3.59 C 4 km/h
330 14-01-2019 23:00:00 3.5 C 5.54 g/m*3 3.5 C 1.60833 km/h
331 15-01-2019 00:00:00 3.3 C 5.52 g/m*3 3.3 C 2.13333 km/h
332 15-01-2019 01:00:00 3.25 C 5.46 g/m*3 3.25 C 2.4 km/h
333 15-01-2019 02:00:00 2.94167 C 5.35 g/m*3 2.94 C 2.26667 km/h
334 15-01-2019 03:00:00 2.95 C 5.39 g/m*3 2.95 C 3.48333 km/h
335 15-01-2019 04:00:00 2.625 C 5.33 g/m*3 2.63 C 4.00833 km/h
336 15-01-2019 05:00:00 2.825 C 5.43 g/m*3 1.2 C 6.05 km/h
337 15-01-2019 06:00:00 2.81667 C 5.43 g/m*3 0.97 C 6.7 km/h
338 15-01-2019 07:00:00 2.89167 C 5.49 g/m*3 0.8 C 7.525 km/h
339 15-01-2019 08:00:00 3.49167 C 5.63 g/m*3 0.87 C 9.95833 km/h
340 15-01-2019 09:00:00 3.98333 C 5.78 g/m*3 1.11 C 11.56667 km/h
341 15-01-2019 10:00:00 4.75 C 5.98 g/m*3 1.91 C 12.23333 km/h
342 15-01-2019 11:00:00 5.35 C 6.17 g/m*3 2.52 C 12.9 km/h
343 15-01-2019 12:00:00 6.04167 C 6.33 g/m*3 3.55 C 11.83333 km/h
344 15-01-2019 13:00:00 6.65833 C 6.41 g/m*3 3.79 C 15.03333 km/h
345 15-01-2019 14:00:00 6.79167 C 6.41 g/m*3 4.89 C 9.56667 km/h
346 15-01-2019 15:00:00 6.68333 C 6.38 g/m*3 4.76 C 9.54167 km/h
347 15-01-2019 16:00:00 6.475 C 6.36 g/m*3 5.17 C 6.85833 km/h
348 15-01-2019 17:00:00 6.38333 C 6.33 g/m*3 4.62 C 8.6 km/h
349 15-01-2019 18:00:00 6.65 C 6.31 g/m*3 4.61 C 10.08333 km/h
350 15-01-2019 19:00:00 6.24167 C 6.38 g/m*3 4.79 C 7.24167 km/h
Sensor: Nr:Datum:Temp:Abs-Feuchte:Windchill:Wind:
Aussen-T/F 351 15-01-2019 20:00:00 5.675 C 6.45 g/m*3 3.51 C 9.8 km/h
352 15-01-2019 21:00:00 5.35833 C 6.39 g/m*3 3.16 C 9.675 km/h
353 15-01-2019 22:00:00 5.33333 C 6.38 g/m*3 3.51 C 8.06667 km/h
354 15-01-2019 23:00:00 5.45833 C 6.43 g/m*3 4.24 C 6.01667 km/h
355 16-01-2019 00:00:00 5.23333 C 6.42 g/m*3 5.23 C 2.66667 km/h
356 16-01-2019 01:00:00 5.2 C 6.52 g/m*3 5.2 C 3.73333 km/h
357 16-01-2019 02:00:00 5.275 C 6.53 g/m*3 4.27 C 5.34167 km/h
358 16-01-2019 03:00:00 5.44167 C 6.39 g/m*3 3.28 C 9.55 km/h
359 16-01-2019 04:00:00 5.5 C 6.2 g/m*3 3.1 C 10.75 km/h
360 16-01-2019 05:00:00 5.575 C 6.12 g/m*3 3.94 C 7.51667 km/h
361 16-01-2019 06:00:00 5.66667 C 6.06 g/m*3 3.77 C 8.58333 km/h
362 16-01-2019 07:00:00 5.51667 C 5.95 g/m*3 3.8 C 7.775 km/h
363 16-01-2019 08:00:00 5.31667 C 5.79 g/m*3 3.46 C 8.18333 km/h
364 16-01-2019 09:00:00 5.2 C 5.71 g/m*3 2.82 C 10.35833 km/h
365 16-01-2019 10:00:00 5.2 C 5.72 g/m*3 2.94 C 9.81667 km/h
366 16-01-2019 11:00:00 5.225 C 5.69 g/m*3 3.12 C 9.15 km/h
367 16-01-2019 12:00:00 5.50833 C 5.73 g/m*3 3.65 C 8.325 km/h
368 16-01-2019 13:00:00 5.9 C 5.8 g/m*3 4.11 C 8.34167 km/h
369 16-01-2019 14:00:00 6.35833 C 5.88 g/m*3 5.49 C 5.36667 km/h
370 16-01-2019 15:00:00 6.18333 C 5.87 g/m*3 6.18 C 2.54167 km/h
371 16-01-2019 16:00:00 5 C 5.83 g/m*3 5 C 0 km/h
372 16-01-2019 17:00:00 3.75 C 5.65 g/m*3 3.75 C 1.86667 km/h
373 16-01-2019 18:00:00 3.475 C 5.59 g/m*3 3.48 C 2.15 km/h
374 16-01-2019 19:00:00 4.29167 C 5.65 g/m*3 2.68 C 6.69167 km/h
375 16-01-2019 20:00:00 4.88333 C 5.66 g/m*3 1.62 C 14.89167 km/h
Sensor: Nr:Datum:Temp:Abs-Feuchte:Windchill:Wind:
Aussen-T/F 376 16-01-2019 21:00:00 5.55833 C 5.72 g/m*3 1.86 C 19.3 km/h
377 16-01-2019 22:00:00 5.64167 C 5.72 g/m*3 2.29 C 16.76667 km/h
378 16-01-2019 23:00:00 5.625 C 5.68 g/m*3 3.33 C 10.34167 km/h
379 17-01-2019 00:00:00 5.54167 C 5.76 g/m*3 2.87 C 12.23333 km/h
380 17-01-2019 01:00:00 5.84167 C 5.82 g/m*3 1.95 C 21.575 km/h
381 17-01-2019 02:00:00 5.94167 C 6.04 g/m*3 2.34 C 19.30833 km/h
382 17-01-2019 03:00:00 5.91667 C 6.26 g/m*3 2.82 C 15.43333 km/h
383 17-01-2019 04:00:00 6.09167 C 6.47 g/m*3 2.99 C 15.7 km/h
384 17-01-2019 05:00:00 6.025 C 6.57 g/m*3 3.26 C 13.43333 km/h
385 17-01-2019 06:00:00 5.85833 C 6.59 g/m*3 4.17 C 7.90833 km/h
386 17-01-2019 07:00:00 5.68333 C 6.54 g/m*3 4.46 C 6.15833 km/h
387 17-01-2019 08:00:00 5.61667 C 6.51 g/m*3 4.22 C 6.7 km/h
388 17-01-2019 09:00:00 5.7 C 6.47 g/m*3 4.08 C 7.53333 km/h
389 17-01-2019 10:00:00 6.3 C 6.41 g/m*3 3.79 C 12.23333 km/h
390 17-01-2019 11:00:00 6.68333 C 6.35 g/m*3 3.55 C 17.03333 km/h
391 17-01-2019 12:00:00 7.13333 C 6.46 g/m*3 3.88 C 18.90833 km/h
392 17-01-2019 13:00:00 7.225 C 6.42 g/m*3 3.79 C 20.78333 km/h
393 17-01-2019 14:00:00 6.24167 C 6.28 g/m*3 2.68 C 19.575 km/h
394 17-01-2019 15:00:00 4.88333 C 6.07 g/m*3 2.48 C 10.2 km/h
395 17-01-2019 16:00:00 4.80833 C 5.84 g/m*3 2.03 C 11.95 km/h
396 17-01-2019 17:00:00 2.9 C 5.44 g/m*3 1.35 C 5.9 km/h
397 17-01-2019 18:00:00 2.71667 C 5.4 g/m*3 1.41 C 5.20833 km/h
398 17-01-2019 19:00:00 2.36667 C 5.13 g/m*3 0.1 C 7.8 km/h
399 17-01-2019 20:00:00 2.375 C 5.03 g/m*3 -0.53 C 10.20833 km/h
400 17-01-2019 21:00:00 2.69167 C 5.02 g/m*3 -0.19 C 10.36667 km/h
Sensor: Nr:Datum:Temp:Abs-Feuchte:Windchill:Wind:
Aussen-T/F 401 17-01-2019 22:00:00 2.7 C 5.11 g/m*3 -0.01 C 9.68333 km/h
402 17-01-2019 23:00:00 2.91667 C 5.04 g/m*3 1.31 C 6.05 km/h
403 18-01-2019 00:00:00 2.49167 C 5.04 g/m*3 2.49 C 1.73333 km/h
404 18-01-2019 01:00:00 2.125 C 4.95 g/m*3 2.13 C 4.53333 km/h
405 18-01-2019 02:00:00 2.21667 C 4.95 g/m*3 2.22 C 4.26667 km/h
406 18-01-2019 03:00:00 1.95833 C 5.01 g/m*3 1.96 C 2.26667 km/h
407 18-01-2019 04:00:00 1.725 C 5.07 g/m*3 1.73 C 2.8 km/h
408 18-01-2019 05:00:00 1.95833 C 5.08 g/m*3 1.96 C 4 km/h
409 18-01-2019 06:00:00 1.56667 C 5.02 g/m*3 1.57 C 0.93333 km/h
410 18-01-2019 07:00:00 0.94167 C 4.85 g/m*3 0.94 C 1.2 km/h
411 18-01-2019 08:00:00 0.275 C 4.64 g/m*3 0.28 C 2.13333 km/h
412 18-01-2019 09:00:00 0.00833 C 4.6 g/m*3 0.01 C 0.53333 km/h
413 18-01-2019 10:00:00 0.08333 C 4.64 g/m*3 0.08 C 0.4 km/h
414 18-01-2019 11:00:00 0.91667 C 4.95 g/m*3 0.92 C 0.13333 km/h
415 18-01-2019 12:00:00 1.58333 C 5.11 g/m*3 1.58 C 0 km/h
416 18-01-2019 13:00:00 1.85 C 4.98 g/m*3 1.85 C 1.6 km/h
417 18-01-2019 14:00:00 1.94167 C 4.89 g/m*3 1.94 C 0.13333 km/h
418 18-01-2019 15:00:00 1.13333 C 4.73 g/m*3 1.13 C 3.06667 km/h
419 18-01-2019 16:00:00 0.83333 C 4.63 g/m*3 0.83 C 3.73333 km/h
420 18-01-2019 17:00:00 0.225 C 4.43 g/m*3 0.23 C 2.93333 km/h
421 18-01-2019 18:00:00 -0.25 C 4.32 g/m*3 -0.25 C 0 km/h
422 18-01-2019 19:00:00 -0.65833 C 4.26 g/m*3 -0.66 C 0 km/h
423 18-01-2019 20:00:00 -0.85 C 4.24 g/m*3 -0.85 C 0 km/h
424 18-01-2019 21:00:00 -1 C 4.2 g/m*3 -1 C 0.8 km/h
425 18-01-2019 22:00:00 -1.05 C 4.19 g/m*3 -1.05 C 1.6 km/h
Sensor: Nr:Datum:Temp:Abs-Feuchte:Windchill:Wind:
Aussen-T/F 426 18-01-2019 23:00:00 -1.40833 C 4.09 g/m*3 -1.41 C 0 km/h
427 19-01-2019 00:00:00 -2.00833 C 3.92 g/m*3 -2.01 C 0 km/h
428 19-01-2019 01:00:00 -2.58333 C 3.8 g/m*3 -2.58 C 0 km/h
429 19-01-2019 02:00:00 -2.9 C 3.72 g/m*3 -2.9 C 0 km/h
430 19-01-2019 03:00:00 -3.23333 C 3.66 g/m*3 -3.23 C 0 km/h
431 19-01-2019 04:00:00 -3.575 C 3.58 g/m*3 -3.58 C 0 km/h
432 19-01-2019 05:00:00 -3.85 C 3.51 g/m*3 -3.85 C 0 km/h
433 19-01-2019 06:00:00 -4.05833 C 3.46 g/m*3 -4.06 C 0 km/h
434 19-01-2019 07:00:00 -4.50833 C 3.35 g/m*3 -4.51 C 0 km/h
435 19-01-2019 08:00:00 -4.78333 C 3.29 g/m*3 -4.78 C 0 km/h
436 19-01-2019 09:00:00 -4.58333 C 3.33 g/m*3 -4.58 C 0 km/h
437 19-01-2019 10:00:00 -3.86667 C 3.53 g/m*3 -3.87 C 0 km/h
438 19-01-2019 11:00:00 -2.76667 C 3.83 g/m*3 -2.77 C 0.8 km/h
439 19-01-2019 12:00:00 -2.23333 C 3.98 g/m*3 -2.23 C 1.73333 km/h
440 19-01-2019 13:00:00 -1.35833 C 4.23 g/m*3 -1.36 C 2.26667 km/h
441 19-01-2019 14:00:00 -0.20833 C 4.56 g/m*3 -0.21 C 1.6 km/h
442 19-01-2019 15:00:00 0.08333 C 4.58 g/m*3 0.08 C 2 km/h
443 19-01-2019 16:00:00 -0.08333 C 4.44 g/m*3 -0.08 C 3.6 km/h
444 19-01-2019 17:00:00 -1.06667 C 4.02 g/m*3 -2.83 C 5.06667 km/h
445 19-01-2019 18:00:00 -1.75 C 3.82 g/m*3 -1.75 C 3.2 km/h
446 19-01-2019 19:00:00 -2.44167 C 3.64 g/m*3 -2.44 C 3.06667 km/h
447 19-01-2019 20:00:00 -2.69167 C 3.61 g/m*3 -2.69 C 2 km/h
448 19-01-2019 21:00:00 -2.85833 C 3.56 g/m*3 -2.86 C 0.4 km/h
449 19-01-2019 22:00:00 -3.75 C 3.36 g/m*3 -3.75 C 0.13333 km/h
450 19-01-2019 23:00:00 -4.3 C 3.28 g/m*3 -4.3 C 0 km/h
Sensor: Nr:Datum:Temp:Abs-Feuchte:Windchill:Wind:
Aussen-T/F 451 20-01-2019 00:00:00 -4.73333 C 3.2 g/m*3 -4.73 C 0 km/h
452 20-01-2019 01:00:00 -5.29167 C 3.1 g/m*3 -5.29 C 0 km/h
453 20-01-2019 02:00:00 -5.63333 C 3.02 g/m*3 -5.63 C 0 km/h
454 20-01-2019 03:00:00 -5.825 C 2.99 g/m*3 -5.83 C 0 km/h
455 20-01-2019 04:00:00 -6.24167 C 2.89 g/m*3 -6.24 C 0 km/h
456 20-01-2019 05:00:00 -6.625 C 2.82 g/m*3 -6.63 C 0 km/h
457 20-01-2019 06:00:00 -6.8 C 2.79 g/m*3 -6.8 C 0 km/h
458 20-01-2019 07:00:00 -7.05 C 2.74 g/m*3 -7.05 C 0 km/h
459 20-01-2019 08:00:00 -7.33333 C 2.67 g/m*3 -7.33 C 0 km/h
460 20-01-2019 09:00:00 -7.04167 C 2.76 g/m*3 -7.04 C 0 km/h
461 20-01-2019 10:00:00 -6.29167 C 2.91 g/m*3 -6.29 C 0 km/h
462 20-01-2019 11:00:00 -5.36667 C 3.14 g/m*3 -5.37 C 0.26667 km/h
463 20-01-2019 12:00:00 -4.21667 C 3.4 g/m*3 -4.22 C 0.13333 km/h
464 20-01-2019 13:00:00 -3.25833 C 3.63 g/m*3 -3.26 C 0.93333 km/h
465 20-01-2019 14:00:00 -2.55833 C 3.78 g/m*3 -2.56 C 0 km/h
466 20-01-2019 15:00:00 -2.04167 C 3.9 g/m*3 -2.04 C 0 km/h
467 20-01-2019 16:00:00 -1.975 C 3.88 g/m*3 -1.98 C 0 km/h
468 20-01-2019 17:00:00 -2.49167 C 3.7 g/m*3 -2.49 C 0 km/h
469 20-01-2019 18:00:00 -3.31667 C 3.48 g/m*3 -3.32 C 0 km/h
470 20-01-2019 19:00:00 -3.775 C 3.41 g/m*3 -3.78 C 0 km/h
471 20-01-2019 20:00:00 -4.44167 C 3.25 g/m*3 -4.44 C 0 km/h
472 20-01-2019 21:00:00 -5.175 C 3.1 g/m*3 -5.18 C 0 km/h
473 20-01-2019 22:00:00 -5.675 C 3.01 g/m*3 -5.68 C 0 km/h
474 20-01-2019 23:00:00 -6.16667 C 2.91 g/m*3 -6.17 C 0 km/h
475 21-01-2019 00:00:00 -6.45833 C 2.86 g/m*3 -6.46 C 0 km/h
Sensor: Nr:Datum:Temp:Abs-Feuchte:Windchill:Wind:
Aussen-T/F 476 21-01-2019 01:00:00 -6.56667 C 2.85 g/m*3 -6.57 C 0 km/h
477 21-01-2019 02:00:00 -6.90833 C 2.77 g/m*3 -6.91 C 0 km/h
478 21-01-2019 03:00:00 -7.35 C 2.69 g/m*3 -7.35 C 0 km/h
479 21-01-2019 04:00:00 -7.64167 C 2.63 g/m*3 -7.64 C 0 km/h
480 21-01-2019 05:00:00 -7.89167 C 2.57 g/m*3 -7.89 C 0 km/h
481 21-01-2019 06:00:00 -8.09167 C 2.53 g/m*3 -8.09 C 0 km/h
482 21-01-2019 07:00:00 -8.35833 C 2.48 g/m*3 -8.36 C 0 km/h
483 21-01-2019 08:00:00 -8.55 C 2.44 g/m*3 -8.55 C 0 km/h
484 21-01-2019 09:00:00 -8.225 C 2.51 g/m*3 -8.23 C 0 km/h
485 21-01-2019 10:00:00 -7.53333 C 2.66 g/m*3 -7.53 C 0 km/h
486 21-01-2019 11:00:00 -5.70833 C 3.07 g/m*3 -5.71 C 1.73333 km/h
487 21-01-2019 12:00:00 -4.86667 C 3.26 g/m*3 -4.87 C 1.06667 km/h
488 21-01-2019 13:00:00 -4.49167 C 3.35 g/m*3 -4.49 C 0.26667 km/h
489 21-01-2019 14:00:00 -3.775 C 3.53 g/m*3 -3.78 C 0.66667 km/h
490 21-01-2019 15:00:00 -3.275 C 3.66 g/m*3 -3.28 C 0 km/h
491 21-01-2019 16:00:00 -3.26667 C 3.64 g/m*3 -3.27 C 0.4 km/h
492 21-01-2019 17:00:00 -3.83333 C 3.48 g/m*3 -3.83 C 0.93333 km/h
493 21-01-2019 18:00:00 -4.5 C 3.31 g/m*3 -4.5 C 0 km/h
494 21-01-2019 19:00:00 -5.41667 C 3.09 g/m*3 -5.42 C 0 km/h
495 21-01-2019 20:00:00 -6.05 C 2.94 g/m*3 -6.05 C 0 km/h
496 21-01-2019 21:00:00 -6.40833 C 2.88 g/m*3 -6.41 C 0 km/h
497 21-01-2019 22:00:00 -6.75833 C 2.81 g/m*3 -6.76 C 0 km/h
498 21-01-2019 23:00:00 -7.10833 C 2.74 g/m*3 -7.11 C 0 km/h
499 22-01-2019 00:00:00 -7.50833 C 2.64 g/m*3 -7.51 C 0 km/h
500 22-01-2019 01:00:00 -7.80833 C 2.58 g/m*3 -7.81 C 0 km/h
Sensor: Nr:Datum:Temp:Abs-Feuchte:Windchill:Wind:
Aussen-T/F 501 22-01-2019 02:00:00 -8.075 C 2.53 g/m*3 -8.07 C 0 km/h
502 22-01-2019 03:00:00 -8.275 C 2.49 g/m*3 -8.28 C 0 km/h
503 22-01-2019 04:00:00 -8.575 C 2.44 g/m*3 -8.57 C 0 km/h
504 22-01-2019 05:00:00 -8.51667 C 2.45 g/m*3 -8.52 C 0 km/h
505 22-01-2019 06:00:00 -8.74167 C 2.41 g/m*3 -8.74 C 0 km/h
506 22-01-2019 07:00:00 -8.65 C 2.42 g/m*3 -8.65 C 0 km/h
507 22-01-2019 08:00:00 -8.2 C 2.52 g/m*3 -8.2 C 0 km/h
508 22-01-2019 09:00:00 -7.33333 C 2.7 g/m*3 -7.33 C 0 km/h
509 22-01-2019 10:00:00 -6.31667 C 2.92 g/m*3 -6.32 C 0 km/h
510 22-01-2019 11:00:00 -4.99167 C 3.24 g/m*3 -4.99 C 0 km/h
511 22-01-2019 12:00:00 -3.175 C 3.69 g/m*3 -3.18 C 0.53333 km/h
512 22-01-2019 13:00:00 -1.45833 C 4.02 g/m*3 -1.46 C 3.73333 km/h
513 22-01-2019 14:00:00 -0.89167 C 4.03 g/m*3 -0.89 C 4.53333 km/h
514 22-01-2019 15:00:00 -0.99167 C 3.96 g/m*3 -0.99 C 3.6 km/h
515 22-01-2019 16:00:00 -1.225 C 3.88 g/m*3 -1.23 C 2.93333 km/h
516 22-01-2019 17:00:00 -2.225 C 3.66 g/m*3 -2.23 C 0.4 km/h
517 22-01-2019 18:00:00 -2.86667 C 3.6 g/m*3 -2.87 C 0 km/h
518 22-01-2019 19:00:00 -3.10833 C 3.55 g/m*3 -3.11 C 0.4 km/h
519 22-01-2019 20:00:00 -3.125 C 3.59 g/m*3 -3.13 C 0.4 km/h
520 22-01-2019 21:00:00 -2.69167 C 3.72 g/m*3 -2.69 C 0 km/h
521 22-01-2019 22:00:00 -2.375 C 3.8 g/m*3 -2.38 C 0.13333 km/h
522 22-01-2019 23:00:00 -2.075 C 3.85 g/m*3 -2.08 C 2.15 km/h
523 23-01-2019 00:00:00 -1.65833 C 3.84 g/m*3 -1.66 C 4.55 km/h
524 23-01-2019 01:00:00 -1.63333 C 3.88 g/m*3 -1.63 C 0 km/h
525 23-01-2019 02:00:00 -1.7 C 3.92 g/m*3 -1.7 C 0 km/h
Sensor: Nr:Datum:Temp:Abs-Feuchte:Windchill:Wind:
Aussen-T/F 526 23-01-2019 03:00:00 -1.775 C 3.95 g/m*3 -1.78 C 0 km/h
527 23-01-2019 04:00:00 -1.81667 C 3.97 g/m*3 -1.82 C 0 km/h
528 23-01-2019 05:00:00 -2.025 C 3.92 g/m*3 -2.03 C 0.13333 km/h
529 23-01-2019 06:00:00 -2.18333 C 3.91 g/m*3 -2.18 C 0.13333 km/h
530 23-01-2019 07:00:00 -2.3 C 3.88 g/m*3 -2.3 C 0 km/h
531 23-01-2019 08:00:00 -2.4 C 3.85 g/m*3 -2.4 C 0 km/h
532 23-01-2019 09:00:00 -2.275 C 3.91 g/m*3 -2.28 C 0.4 km/h
533 23-01-2019 10:00:00 -1.75833 C 4.03 g/m*3 -1.76 C 3.6 km/h
534 23-01-2019 11:00:00 -1.25 C 4.09 g/m*3 -3.42 C 5.9 km/h
535 23-01-2019 12:00:00 -0.75833 C 4.02 g/m*3 -0.76 C 3.875 km/h
536 23-01-2019 13:00:00 -0.7 C 3.92 g/m*3 -0.7 C 4.69167 km/h
537 23-01-2019 14:00:00 -0.71667 C 3.85 g/m*3 -0.72 C 4.425 km/h
538 23-01-2019 15:00:00 -0.8 C 3.8 g/m*3 -0.8 C 1.33333 km/h
539 23-01-2019 16:00:00 -0.83333 C 3.83 g/m*3 -0.83 C 1.86667 km/h
540 23-01-2019 17:00:00 -1.13333 C 3.82 g/m*3 -1.13 C 0.93333 km/h
541 23-01-2019 18:00:00 -1.375 C 3.83 g/m*3 -1.38 C 0.4 km/h
542 23-01-2019 19:00:00 -1.49167 C 3.77 g/m*3 -1.49 C 1.60833 km/h
543 23-01-2019 20:00:00 -1.7 C 3.78 g/m*3 -1.7 C 0.13333 km/h
544 23-01-2019 21:00:00 -1.81667 C 3.77 g/m*3 -1.82 C 0 km/h
545 23-01-2019 22:00:00 -1.875 C 3.76 g/m*3 -1.88 C 0 km/h
546 23-01-2019 23:00:00 -1.88333 C 3.78 g/m*3 -1.88 C 0 km/h
547 24-01-2019 00:00:00 -1.83333 C 3.75 g/m*3 -1.83 C 1.46667 km/h
548 24-01-2019 01:00:00 -1.64167 C 3.6 g/m*3 -3.62 C 5.35 km/h
549 24-01-2019 02:00:00 -1.65833 C 3.55 g/m*3 -1.66 C 4.81667 km/h
550 24-01-2019 03:00:00 -1.725 C 3.55 g/m*3 -1.73 C 4.13333 km/h
Sensor: Nr:Datum:Temp:Abs-Feuchte:Windchill:Wind:
Aussen-T/F 551 24-01-2019 04:00:00 -1.83333 C 3.53 g/m*3 -1.83 C 3.46667 km/h
552 24-01-2019 05:00:00 -1.9 C 3.51 g/m*3 -1.9 C 2.93333 km/h
553 24-01-2019 06:00:00 -2.01667 C 3.51 g/m*3 -2.02 C 3.2 km/h
554 24-01-2019 07:00:00 -2.1 C 3.48 g/m*3 -2.1 C 3.46667 km/h
555 24-01-2019 08:00:00 -2.16667 C 3.49 g/m*3 -2.17 C 2.26667 km/h
556 24-01-2019 09:00:00 -2.14167 C 3.48 g/m*3 -2.14 C 0.53333 km/h
557 24-01-2019 10:00:00 -1.90833 C 3.55 g/m*3 -1.91 C 3.6 km/h
558 24-01-2019 11:00:00 -2.05833 C 3.71 g/m*3 -2.06 C 1.33333 km/h
559 24-01-2019 12:00:00 -1.86667 C 3.77 g/m*3 -1.87 C 1.2 km/h
560 24-01-2019 13:00:00 -1.34167 C 3.76 g/m*3 -1.34 C 4.15833 km/h
561 24-01-2019 14:00:00 -1.21667 C 3.67 g/m*3 -1.22 C 4.01667 km/h
562 24-01-2019 15:00:00 -1.325 C 3.53 g/m*3 -1.33 C 3.6 km/h
563 24-01-2019 16:00:00 -1.475 C 3.52 g/m*3 -1.48 C 2.4 km/h
564 24-01-2019 17:00:00 -1.75833 C 3.49 g/m*3 -1.76 C 3.46667 km/h
565 24-01-2019 18:00:00 -1.91667 C 3.44 g/m*3 -1.92 C 1.86667 km/h
566 24-01-2019 19:00:00 -2.08333 C 3.47 g/m*3 -2.08 C 0 km/h
567 24-01-2019 20:00:00 -2.48333 C 3.44 g/m*3 -2.48 C 0.26667 km/h
568 24-01-2019 21:00:00 -2.63333 C 3.48 g/m*3 -2.63 C 0 km/h
569 24-01-2019 22:00:00 -2.53333 C 3.51 g/m*3 -2.53 C 0 km/h
570 24-01-2019 23:00:00 -2.4 C 3.57 g/m*3 -2.4 C 0 km/h
571 25-01-2019 00:00:00 -2.375 C 3.55 g/m*3 -2.38 C 0.13333 km/h
572 25-01-2019 01:00:00 -2.13333 C 3.59 g/m*3 -2.13 C 2 km/h
573 25-01-2019 02:00:00 -1.80833 C 3.7 g/m*3 -1.81 C 2.4 km/h
574 25-01-2019 03:00:00 -1.7 C 3.77 g/m*3 -1.7 C 0.8 km/h
575 25-01-2019 04:00:00 -1.56667 C 3.84 g/m*3 -1.57 C 1.46667 km/h
Sensor: Nr:Datum:Temp:Abs-Feuchte:Windchill:Wind:
Aussen-T/F 576 25-01-2019 05:00:00 -1.4 C 3.92 g/m*3 -1.4 C 1.86667 km/h
577 25-01-2019 06:00:00 -1.3 C 3.98 g/m*3 -1.3 C 0.8 km/h
578 25-01-2019 07:00:00 -1.24167 C 4.01 g/m*3 -1.24 C 0.26667 km/h
579 25-01-2019 08:00:00 -1.1 C 4.09 g/m*3 -1.1 C 0.66667 km/h
580 25-01-2019 09:00:00 -0.75 C 4.19 g/m*3 -0.75 C 1.33333 km/h
581 25-01-2019 10:00:00 -0.2 C 4.35 g/m*3 -2.72 C 7.24167 km/h
582 25-01-2019 11:00:00 0.63333 C 4.56 g/m*3 -1.89 C 7.675 km/h
583 25-01-2019 12:00:00 1.63333 C 4.69 g/m*3 -0.8 C 7.94167 km/h
584 25-01-2019 13:00:00 2.45833 C 4.66 g/m*3 -1 C 12.89167 km/h
585 25-01-2019 14:00:00 2.24167 C 4.58 g/m*3 -1.02 C 11.7 km/h
586 25-01-2019 15:00:00 1.96667 C 4.58 g/m*3 -1.76 C 13.7 km/h
587 25-01-2019 16:00:00 1.725 C 4.64 g/m*3 -1.9 C 12.9 km/h
588 25-01-2019 17:00:00 1.7 C 4.73 g/m*3 -1.76 C 12.08333 km/h
589 25-01-2019 18:00:00 1.76667 C 4.76 g/m*3 -1.47 C 11.14167 km/h
590 25-01-2019 19:00:00 1.51667 C 4.83 g/m*3 -1.9 C 11.69167 km/h
591 25-01-2019 20:00:00 1.5 C 4.9 g/m*3 -2.09 C 12.5 km/h
592 25-01-2019 21:00:00 1.66667 C 4.94 g/m*3 -2.66 C 16.76667 km/h
593 25-01-2019 22:00:00 1.78333 C 5.01 g/m*3 -2.38 C 15.96667 km/h
594 25-01-2019 23:00:00 1.8 C 5.12 g/m*3 -2.16 C 14.76667 km/h
595 26-01-2019 00:00:00 1.85 C 5.18 g/m*3 -2.7 C 18.50833 km/h
596 26-01-2019 01:00:00 2.04167 C 5.28 g/m*3 -2.11 C 16.23333 km/h
597 26-01-2019 02:00:00 2.325 C 5.34 g/m*3 -2 C 17.83333 km/h
598 26-01-2019 03:00:00 2.625 C 5.42 g/m*3 -1.53 C 17.16667 km/h
599 26-01-2019 04:00:00 2.975 C 5.51 g/m*3 -1.13 C 17.43333 km/h
600 26-01-2019 05:00:00 3.35833 C 5.6 g/m*3 -0.43 C 15.96667 km/h
Sensor: Nr:Datum:Temp:Abs-Feuchte:Windchill:Wind:
Aussen-T/F 601 26-01-2019 06:00:00 3.24167 C 5.59 g/m*3 -0.33 C 14.5 km/h
602 26-01-2019 07:00:00 3.25833 C 5.66 g/m*3 -0.27 C 14.23333 km/h
603 26-01-2019 08:00:00 3.75833 C 5.88 g/m*3 0.02 C 16.23333 km/h
604 26-01-2019 09:00:00 4.325 C 6.04 g/m*3 0.41 C 18.50833 km/h
605 26-01-2019 10:00:00 4.83333 C 6.18 g/m*3 1.67 C 14.23333 km/h
606 26-01-2019 11:00:00 5.16667 C 6.32 g/m*3 1.87 C 15.56667 km/h
607 26-01-2019 12:00:00 5.80833 C 6.5 g/m*3 2.7 C 15.3 km/h
608 26-01-2019 13:00:00 5.95 C 6.51 g/m*3 2.96 C 14.76667 km/h
609 26-01-2019 14:00:00 5.95833 C 6.56 g/m*3 3.4 C 12.09167 km/h
610 26-01-2019 15:00:00 6.21667 C 6.57 g/m*3 3.99 C 10.625 km/h
611 26-01-2019 16:00:00 5.95833 C 6.51 g/m*3 4.61 C 6.7 km/h
612 26-01-2019 17:00:00 5.56667 C 6.34 g/m*3 5.57 C 4.15 km/h
613 26-01-2019 18:00:00 4.89167 C 6.23 g/m*3 4.89 C 1.46667 km/h
614 26-01-2019 19:00:00 5.00833 C 6.37 g/m*3 5.01 C 1.2 km/h
615 26-01-2019 20:00:00 5.31667 C 6.53 g/m*3 5.32 C 4.95833 km/h
616 26-01-2019 21:00:00 5.63333 C 6.58 g/m*3 5.63 C 4.825 km/h
617 26-01-2019 22:00:00 5.975 C 6.61 g/m*3 5.98 C 2.675 km/h
618 26-01-2019 23:00:00 5.53333 C 6.54 g/m*3 5.53 C 2 km/h
619 27-01-2019 00:00:00 5.8 C 6.64 g/m*3 4.68 C 5.9 km/h
620 27-01-2019 01:00:00 5.7 C 6.62 g/m*3 5.7 C 3.88333 km/h
621 27-01-2019 02:00:00 5.975 C 6.68 g/m*3 4.88 C 5.88333 km/h
622 27-01-2019 03:00:00 6.41667 C 6.76 g/m*3 5.43 C 5.75833 km/h
623 27-01-2019 04:00:00 6.18333 C 6.7 g/m*3 6.18 C 4.425 km/h
624 27-01-2019 05:00:00 5.9 C 6.6 g/m*3 5.02 C 5.21667 km/h
625 27-01-2019 06:00:00 6.13333 C 6.62 g/m*3 4.81 C 6.70833 km/h
Sensor: Nr:Datum:Temp:Abs-Feuchte:Windchill:Wind:
Aussen-T/F 626 27-01-2019 07:00:00 6.51667 C 6.82 g/m*3 6.52 C 4.95 km/h
627 27-01-2019 08:00:00 6.5 C 6.81 g/m*3 5.44 C 6.03333 km/h
628 27-01-2019 09:00:00 5.99167 C 6.75 g/m*3 5.03 C 5.48333 km/h
629 27-01-2019 10:00:00 5.74167 C 6.76 g/m*3 5.74 C 4.28333 km/h
630 27-01-2019 11:00:00 7.025 C 7.12 g/m*3 5.03 C 10.21667 km/h
631 27-01-2019 12:00:00 7.69167 C 7.08 g/m*3 6.19 C 8.46667 km/h
632 27-01-2019 13:00:00 7.75833 C 7.05 g/m*3 5.88 C 10.36667 km/h
633 27-01-2019 14:00:00 8.175 C 7.09 g/m*3 6.49 C 9.80833 km/h
634 27-01-2019 15:00:00 7.73333 C 7.13 g/m*3 7.11 C 5.225 km/h
635 27-01-2019 16:00:00 7.06667 C 6.93 g/m*3 5.22 C 9.54167 km/h
636 27-01-2019 17:00:00 6.6 C 6.62 g/m*3 3.74 C 14.89167 km/h
637 27-01-2019 18:00:00 5.5 C 6.29 g/m*3 3.07 C 10.89167 km/h
638 27-01-2019 19:00:00 4.53333 C 5.96 g/m*3 3.04 C 6.43333 km/h
639 27-01-2019 20:00:00 3.89167 C 5.62 g/m*3 1.74 C 8.33333 km/h
640 27-01-2019 21:00:00 3.45833 C 5.45 g/m*3 3.46 C 4.7 km/h
641 27-01-2019 22:00:00 3.25833 C 5.43 g/m*3 1.36 C 7.09167 km/h
642 27-01-2019 23:00:00 3.15 C 5.31 g/m*3 0.79 C 8.60833 km/h
643 28-01-2019 00:00:00 3.06667 C 5.36 g/m*3 -0.05 C 11.83333 km/h
644 28-01-2019 01:00:00 3.40833 C 5.4 g/m*3 0.26 C 12.35833 km/h
645 28-01-2019 02:00:00 3.21667 C 5.39 g/m*3 0.57 C 9.80833 km/h
646 28-01-2019 03:00:00 3.24167 C 5.43 g/m*3 -0.05 C 12.9 km/h
647 28-01-2019 04:00:00 3.23333 C 5.47 g/m*3 0.04 C 12.36667 km/h
648 28-01-2019 05:00:00 3.26667 C 5.42 g/m*3 -0.54 C 15.96667 km/h
649 28-01-2019 06:00:00 3.16667 C 5.4 g/m*3 -1.14 C 19.16667 km/h
650 28-01-2019 07:00:00 2.71667 C 5.41 g/m*3 -1.41 C 17.175 km/h
Sensor: Nr:Datum:Temp:Abs-Feuchte:Windchill:Wind:
Aussen-T/F 651 28-01-2019 08:00:00 2.5 C 5.38 g/m*3 -1.49 C 15.96667 km/h
652 28-01-2019 09:00:00 2.24167 C 5.33 g/m*3 -0.99 C 11.56667 km/h
653 28-01-2019 10:00:00 2.40833 C 5.43 g/m*3 -1.17 C 13.43333 km/h
654 28-01-2019 11:00:00 2.925 C 5.62 g/m*3 -0.56 C 13.56667 km/h
655 28-01-2019 12:00:00 3.3 C 5.74 g/m*3 0.26 C 11.7 km/h
656 28-01-2019 13:00:00 3.55 C 5.82 g/m*3 0.73 C 10.88333 km/h
657 28-01-2019 14:00:00 4.03333 C 5.87 g/m*3 0.99 C 12.5 km/h
658 28-01-2019 15:00:00 4.01667 C 5.77 g/m*3 0.66 C 14.23333 km/h
659 28-01-2019 16:00:00 3.44167 C 5.61 g/m*3 0.03 C 13.81667 km/h
660 28-01-2019 17:00:00 2.975 C 5.5 g/m*3 0.77 C 7.93333 km/h
661 28-01-2019 18:00:00 2.80833 C 5.44 g/m*3 1.19 C 6.05 km/h
662 28-01-2019 19:00:00 3 C 5.28 g/m*3 0.41 C 9.4 km/h
663 28-01-2019 20:00:00 3.46667 C 5.27 g/m*3 0.66 C 10.75 km/h
664 28-01-2019 21:00:00 3.35833 C 5.28 g/m*3 1.35 C 7.50833 km/h
665 28-01-2019 22:00:00 3.48333 C 5.29 g/m*3 0.95 C 9.54167 km/h
666 28-01-2019 23:00:00 3.28333 C 5.28 g/m*3 1.56 C 6.55833 km/h
667 29-01-2019 00:00:00 2.75 C 5.19 g/m*3 1.39 C 5.34167 km/h
668 29-01-2019 01:00:00 2.38333 C 5.18 g/m*3 1.03 C 5.20833 km/h
669 29-01-2019 02:00:00 1.91667 C 5.12 g/m*3 -0.08 C 6.70833 km/h
670 29-01-2019 03:00:00 1.59167 C 5.07 g/m*3 1.59 C 4.54167 km/h
671 29-01-2019 04:00:00 1.04167 C 4.89 g/m*3 -1.09 C 6.71667 km/h
672 29-01-2019 05:00:00 0.69167 C 4.79 g/m*3 0.69 C 4.55 km/h
673 29-01-2019 06:00:00 0.95 C 4.91 g/m*3 0.95 C 4.68333 km/h
674 29-01-2019 07:00:00 1.15 C 4.93 g/m*3 1.15 C 4.275 km/h
675 29-01-2019 08:00:00 1.18333 C 4.94 g/m*3 1.18 C 3.6 km/h
Sensor: Nr:Datum:Temp:Abs-Feuchte:Windchill:Wind:
Aussen-T/F 676 29-01-2019 09:00:00 1.00833 C 4.88 g/m*3 1.01 C 4.53333 km/h
677 29-01-2019 10:00:00 2.06667 C 5.08 g/m*3 0.55 C 5.48333 km/h
678 29-01-2019 11:00:00 2.91667 C 5.19 g/m*3 1.47 C 5.61667 km/h
679 29-01-2019 12:00:00 3.63333 C 5.29 g/m*3 3.63 C 4.95833 km/h
680 29-01-2019 13:00:00 3.96667 C 5.32 g/m*3 2.58 C 5.875 km/h
681 29-01-2019 14:00:00 3.85 C 5.21 g/m*3 3.85 C 4.275 km/h
682 29-01-2019 15:00:00 3.8 C 5.11 g/m*3 3.8 C 2.4 km/h
683 29-01-2019 16:00:00 3.76667 C 5.11 g/m*3 3.77 C 0.13333 km/h
684 29-01-2019 17:00:00 2.78333 C 4.96 g/m*3 2.78 C 0.13333 km/h
685 29-01-2019 18:00:00 1.3 C 4.62 g/m*3 1.3 C 0.4 km/h
686 29-01-2019 19:00:00 0.25833 C 4.43 g/m*3 0.26 C 0 km/h
687 29-01-2019 20:00:00 -0.25833 C 4.33 g/m*3 -0.26 C 0 km/h
688 29-01-2019 21:00:00 -0.3 C 4.32 g/m*3 -0.3 C 0 km/h
689 29-01-2019 22:00:00 -0.375 C 4.31 g/m*3 -0.38 C 0 km/h
690 29-01-2019 23:00:00 -0.55 C 4.31 g/m*3 -0.55 C 0 km/h
691 30-01-2019 00:00:00 -0.55 C 4.34 g/m*3 -0.55 C 1.73333 km/h
692 30-01-2019 01:00:00 -0.675 C 4.3 g/m*3 -0.68 C 0.8 km/h
693 30-01-2019 02:00:00 -0.68333 C 4.3 g/m*3 -0.68 C 0.8 km/h
694 30-01-2019 03:00:00 -0.8 C 4.24 g/m*3 -0.8 C 0.4 km/h
695 30-01-2019 04:00:00 -0.875 C 4.23 g/m*3 -0.88 C 1.06667 km/h
696 30-01-2019 05:00:00 -0.51667 C 4.3 g/m*3 -0.52 C 0.4 km/h
697 30-01-2019 06:00:00 -0.10833 C 4.36 g/m*3 -0.11 C 0.26667 km/h
698 30-01-2019 07:00:00 0.30833 C 4.38 g/m*3 0.31 C 3.06667 km/h
699 30-01-2019 08:00:00 0.16667 C 4.49 g/m*3 0.17 C 1.2 km/h
700 30-01-2019 09:00:00 0.025 C 4.55 g/m*3 0.03 C 0.4 km/h
Sensor: Nr:Datum:Temp:Abs-Feuchte:Windchill:Wind:
Aussen-T/F 701 30-01-2019 10:00:00 0.3 C 4.65 g/m*3 0.3 C 0.26667 km/h
702 30-01-2019 11:00:00 0.825 C 4.82 g/m*3 0.83 C 0.13333 km/h
703 30-01-2019 12:00:00 1.40833 C 5.02 g/m*3 1.41 C 0.26667 km/h
704 30-01-2019 13:00:00 1.66667 C 5.11 g/m*3 1.67 C 0.26667 km/h
705 30-01-2019 14:00:00 1.70833 C 5.11 g/m*3 1.71 C 0 km/h
706 30-01-2019 15:00:00 1.475 C 5.04 g/m*3 1.48 C 3.61667 km/h
707 30-01-2019 16:00:00 1.15833 C 4.97 g/m*3 1.16 C 4.53333 km/h
708 30-01-2019 17:00:00 1.1 C 4.96 g/m*3 1.1 C 4.68333 km/h
709 30-01-2019 18:00:00 1.075 C 4.96 g/m*3 1.08 C 4.00833 km/h
710 30-01-2019 19:00:00 1.08333 C 5 g/m*3 1.08 C 1.73333 km/h
711 30-01-2019 20:00:00 1.03333 C 4.98 g/m*3 -1.78 C 8.86667 km/h
712 30-01-2019 21:00:00 0.95833 C 4.86 g/m*3 -1.79 C 8.6 km/h
713 30-01-2019 22:00:00 0.71667 C 4.73 g/m*3 -1.96 C 8.19167 km/h
714 30-01-2019 23:00:00 0.23333 C 4.55 g/m*3 -1.82 C 6.15 km/h
715 31-01-2019 00:00:00 -0.4 C 4.38 g/m*3 -0.4 C 4.00833 km/h
716 31-01-2019 01:00:00 -1.24167 C 4.17 g/m*3 -1.24 C 0 km/h
717 31-01-2019 02:00:00 -1.29167 C 4.19 g/m*3 -1.29 C 0 km/h
718 31-01-2019 03:00:00 -1.30833 C 4.2 g/m*3 -1.31 C 0 km/h
719 31-01-2019 04:00:00 -0.8 C 4.38 g/m*3 -0.8 C 0 km/h
720 31-01-2019 05:00:00 -0.61667 C 4.46 g/m*3 -0.62 C 0 km/h
721 31-01-2019 06:00:00 -0.41667 C 4.52 g/m*3 -0.42 C 0 km/h
722 31-01-2019 07:00:00 -0.35833 C 4.54 g/m*3 -0.36 C 0 km/h
723 31-01-2019 08:00:00 -0.29167 C 4.56 g/m*3 -0.29 C 0 km/h
724 31-01-2019 09:00:00 0.15833 C 4.7 g/m*3 0.16 C 0.53333 km/h
725 31-01-2019 10:00:00 0.725 C 4.85 g/m*3 0.73 C 2.275 km/h
Sensor: Nr:Datum:Temp:Abs-Feuchte:Windchill:Wind:
Aussen-T/F 726 31-01-2019 11:00:00 1.39167 C 5.02 g/m*3 1.39 C 0.53333 km/h
727 31-01-2019 12:00:00 1.81667 C 5.15 g/m*3 1.82 C 0.66667 km/h
728 31-01-2019 13:00:00 1.53333 C 5.05 g/m*3 1.53 C 0.26667 km/h
729 31-01-2019 14:00:00 1.83333 C 5.2 g/m*3 1.83 C 0 km/h
730 31-01-2019 15:00:00 2.25 C 5.28 g/m*3 2.25 C 0 km/h
731 31-01-2019 16:00:00 1.56667 C 5.03 g/m*3 1.57 C 0 km/h
732 31-01-2019 17:00:00 0.93333 C 4.86 g/m*3 0.93 C 0 km/h
733 31-01-2019 18:00:00 0.06667 C 4.58 g/m*3 0.07 C 3.33333 km/h
734 31-01-2019 19:00:00 -1.11667 C 4.21 g/m*3 -1.12 C 2.13333 km/h
735 31-01-2019 20:00:00 -1.95833 C 3.98 g/m*3 -1.96 C 0.93333 km/h
736 31-01-2019 21:00:00 -2.00833 C 4 g/m*3 -2.01 C 0 km/h
737 31-01-2019 22:00:00 -1.6 C 4.16 g/m*3 -1.6 C 0 km/h
738 31-01-2019 23:00:00 -1.225 C 4.27 g/m*3 -1.23 C 0 km/h
739 01-02-2019 00:00:00 -0.775 C 4.41 g/m*3 -0.78 C 0 km/h
740 01-02-2019 01:00:00 -0.44167 C 4.51 g/m*3 -0.44 C 0 km/h
741 01-02-2019 02:00:00 -0.125 C 4.61 g/m*3 -0.13 C 0 km/h
742 01-02-2019 03:00:00 0.575 C 4.88 g/m*3 0.57 C 2.53333 km/h
743 01-02-2019 04:00:00 1.08333 C 5.02 g/m*3 -0.52 C 5.35833 km/h
744 01-02-2019 05:00:00 1.18333 C 5.04 g/m*3 1.18 C 2.54167 km/h
745 01-02-2019 06:00:00 1.13333 C 5.02 g/m*3 1.13 C 1.2 km/h
746 01-02-2019 07:00:00 1.2 C 5.05 g/m*3 1.2 C 1.73333 km/h
747 01-02-2019 08:00:00 1.31667 C 5.1 g/m*3 1.32 C 2.66667 km/h
748 01-02-2019 09:00:00 1.54167 C 5.17 g/m*3 1.54 C 1.60833 km/h
749 01-02-2019 10:00:00 2.21667 C 5.41 g/m*3 2.22 C 3.06667 km/h
750 01-02-2019 11:00:00 3.15833 C 5.71 g/m*3 3.16 C 1.46667 km/h
Sensor: Nr:Datum:Temp:Abs-Feuchte:Windchill:Wind:
Aussen-T/F 751 01-02-2019 12:00:00 3.225 C 5.63 g/m*3 3.23 C 1.6 km/h
752 01-02-2019 13:00:00 2.73333 C 5.51 g/m*3 2.73 C 3.06667 km/h
753 01-02-2019 14:00:00 3.49167 C 5.83 g/m*3 3.49 C 3.06667 km/h
754 01-02-2019 15:00:00 3.23333 C 5.67 g/m*3 3.23 C 3.6 km/h
755 01-02-2019 16:00:00 2.86667 C 5.59 g/m*3 2.87 C 4.8 km/h
756 01-02-2019 17:00:00 2.54167 C 5.5 g/m*3 2.54 C 4.66667 km/h
757 01-02-2019 18:00:00 2.46667 C 5.51 g/m*3 2.47 C 4.26667 km/h
758 01-02-2019 19:00:00 2.24167 C 5.42 g/m*3 2.24 C 3.86667 km/h
759 01-02-2019 20:00:00 2.01667 C 5.34 g/m*3 2.02 C 2.93333 km/h
760 01-02-2019 21:00:00 1.80833 C 5.27 g/m*3 1.81 C 0 km/h
761 01-02-2019 22:00:00 1.675 C 5.22 g/m*3 1.68 C 0.13333 km/h
762 01-02-2019 23:00:00 1.59167 C 5.23 g/m*3 1.59 C 0 km/h
763 02-02-2019 00:00:00 1.74167 C 5.3 g/m*3 1.74 C 0 km/h
764 02-02-2019 01:00:00 1.825 C 5.33 g/m*3 1.83 C 0 km/h
765 02-02-2019 02:00:00 1.825 C 5.33 g/m*3 1.83 C 0 km/h
766 02-02-2019 03:00:00 1.75833 C 5.3 g/m*3 1.76 C 0 km/h
767 02-02-2019 04:00:00 1.81667 C 5.32 g/m*3 1.82 C 0 km/h
768 02-02-2019 05:00:00 1.70833 C 5.28 g/m*3 1.71 C 0 km/h
769 02-02-2019 06:00:00 1.725 C 5.29 g/m*3 1.73 C 0 km/h
770 02-02-2019 07:00:00 1.73333 C 5.29 g/m*3 1.73 C 0 km/h
771 02-02-2019 08:00:00 1.8 C 5.32 g/m*3 1.8 C 0 km/h
772 02-02-2019 09:00:00 2.09167 C 5.42 g/m*3 2.09 C 0 km/h
773 02-02-2019 10:00:00 2.71667 C 5.69 g/m*3 2.72 C 0.26667 km/h
774 02-02-2019 11:00:00 3.05 C 5.79 g/m*3 3.05 C 0.26667 km/h
775 02-02-2019 12:00:00 3.31667 C 5.89 g/m*3 3.32 C 0 km/h
Sensor: Nr:Datum:Temp:Abs-Feuchte:Windchill:Wind:
Aussen-T/F 776 02-02-2019 13:00:00 3.675 C 6.03 g/m*3 3.68 C 0.53333 km/h
777 02-02-2019 14:00:00 3.725 C 6.05 g/m*3 3.73 C 0 km/h
778 02-02-2019 15:00:00 3.90833 C 6.13 g/m*3 3.91 C 0 km/h
779 02-02-2019 16:00:00 3.675 C 6.03 g/m*3 3.68 C 0 km/h
780 02-02-2019 17:00:00 3.25 C 5.86 g/m*3 3.25 C 0.53333 km/h
781 02-02-2019 18:00:00 3.15833 C 5.83 g/m*3 1.96 C 5.075 km/h
782 02-02-2019 19:00:00 2.625 C 5.6 g/m*3 2.63 C 3.60833 km/h
783 02-02-2019 20:00:00 2.30833 C 5.46 g/m*3 2.31 C 4.81667 km/h
784 02-02-2019 21:00:00 2.1 C 5.37 g/m*3 2.1 C 0.53333 km/h
785 02-02-2019 22:00:00 1.875 C 5.29 g/m*3 0.07 C 6.15833 km/h
786 02-02-2019 23:00:00 1.8 C 5.28 g/m*3 1.8 C 4.95 km/h
787 03-02-2019 00:00:00 1.875 C 5.32 g/m*3 0.44 C 5.225 km/h
788 03-02-2019 01:00:00 2.06667 C 5.36 g/m*3 -0.24 C 7.76667 km/h
789 03-02-2019 02:00:00 2.15833 C 5.3 g/m*3 -1.21 C 12.09167 km/h
790 03-02-2019 03:00:00 2.18333 C 5.23 g/m*3 -0.89 C 10.76667 km/h
791 03-02-2019 04:00:00 2.1 C 5.23 g/m*3 -0.52 C 8.86667 km/h
792 03-02-2019 05:00:00 2.18333 C 5.24 g/m*3 2.18 C 4 km/h
793 03-02-2019 06:00:00 2.19167 C 5.21 g/m*3 -0.02 C 7.50833 km/h
794 03-02-2019 07:00:00 1.9 C 5.13 g/m*3 -0.28 C 7.25833 km/h
795 03-02-2019 08:00:00 1.875 C 5.12 g/m*3 1.88 C 4.96667 km/h
796 03-02-2019 09:00:00 2.00833 C 5.18 g/m*3 2.01 C 2.54167 km/h
797 03-02-2019 10:00:00 2.46667 C 5.24 g/m*3 -0.01 C 8.59167 km/h
798 03-02-2019 11:00:00 3.10833 C 5.32 g/m*3 1.21 C 6.99167 km/h
799 03-02-2019 12:00:00 3.58333 C 5.3 g/m*3 0.8 C 10.75 km/h
800 03-02-2019 13:00:00 3.96667 C 5.29 g/m*3 0.91 C 12.5 km/h
Sensor: Nr:Datum:Temp:Abs-Feuchte:Windchill:Wind:
Aussen-T/F 801 03-02-2019 14:00:00 4.1 C 5.32 g/m*3 1.12 C 12.23333 km/h
802 03-02-2019 15:00:00 4.50833 C 5.05 g/m*3 1.82 C 11.16667 km/h
803 03-02-2019 16:00:00 4.43333 C 4.98 g/m*3 3.3 C 5.35 km/h
804 03-02-2019 17:00:00 4.26667 C 5.05 g/m*3 4.27 C 4.13333 km/h
805 03-02-2019 18:00:00 3.875 C 5.19 g/m*3 3.88 C 3.34167 km/h
806 03-02-2019 19:00:00 3.58333 C 5.25 g/m*3 3.58 C 2.13333 km/h
807 03-02-2019 20:00:00 3.19167 C 5.25 g/m*3 3.19 C 2.4 km/h
808 03-02-2019 21:00:00 1.925 C 4.92 g/m*3 1.93 C 1.46667 km/h
809 03-02-2019 22:00:00 0.99167 C 4.73 g/m*3 0.99 C 0 km/h
810 03-02-2019 23:00:00 0.25833 C 4.58 g/m*3 0.26 C 0.4 km/h
811 04-02-2019 00:00:00 -0.31667 C 4.44 g/m*3 -0.32 C 1.06667 km/h
812 04-02-2019 01:00:00 -0.05833 C 4.58 g/m*3 -0.06 C 1.73333 km/h
813 04-02-2019 02:00:00 0 C 4.57 g/m*3 0 C 1.73333 km/h
814 04-02-2019 03:00:00 -0.2 C 4.49 g/m*3 -2.81 C 7.50833 km/h
815 04-02-2019 04:00:00 -0.475 C 4.41 g/m*3 -0.48 C 0.4 km/h
816 04-02-2019 05:00:00 -0.03333 C 4.59 g/m*3 -0.03 C 0.4 km/h
817 04-02-2019 06:00:00 0.36667 C 4.72 g/m*3 0.37 C 0 km/h
818 04-02-2019 07:00:00 0.51667 C 4.77 g/m*3 0.52 C 0.26667 km/h
819 04-02-2019 08:00:00 0.7 C 4.8 g/m*3 0.7 C 0.26667 km/h
820 04-02-2019 09:00:00 0.60833 C 4.75 g/m*3 0.61 C 0.13333 km/h
821 04-02-2019 10:00:00 0.9 C 4.85 g/m*3 0.9 C 0 km/h
822 04-02-2019 11:00:00 2.04167 C 5.08 g/m*3 2.04 C 0 km/h
823 04-02-2019 12:00:00 3.75 C 5.12 g/m*3 3.75 C 4.425 km/h
824 04-02-2019 13:00:00 4.78333 C 4.86 g/m*3 2.8 C 8.325 km/h
825 04-02-2019 14:00:00 5.30833 C 4.75 g/m*3 3.94 C 6.43333 km/h
Sensor: Nr:Datum:Temp:Abs-Feuchte:Windchill:Wind:
Aussen-T/F 826 04-02-2019 15:00:00 5.325 C 4.63 g/m*3 5.33 C 4.55833 km/h
827 04-02-2019 16:00:00 5 C 4.88 g/m*3 5 C 1.6 km/h
828 04-02-2019 17:00:00 2.75 C 4.88 g/m*3 2.75 C 0.8 km/h
829 04-02-2019 18:00:00 1.4 C 4.67 g/m*3 1.4 C 3.6 km/h
830 04-02-2019 19:00:00 1.40833 C 4.78 g/m*3 1.41 C 1.6 km/h
831 04-02-2019 20:00:00 2.00833 C 4.87 g/m*3 2.01 C 1.475 km/h
832 04-02-2019 21:00:00 2.625 C 4.79 g/m*3 2.63 C 1.6 km/h
833 04-02-2019 22:00:00 2.85 C 4.88 g/m*3 2.85 C 0.66667 km/h
834 04-02-2019 23:00:00 2.71667 C 4.95 g/m*3 2.72 C 0.26667 km/h
835 05-02-2019 00:00:00 2.99167 C 4.91 g/m*3 2.99 C 1.33333 km/h
836 05-02-2019 01:00:00 3.31667 C 4.91 g/m*3 3.32 C 2.14167 km/h
837 05-02-2019 02:00:00 3.41667 C 4.85 g/m*3 3.42 C 3.46667 km/h
838 05-02-2019 03:00:00 3.6 C 4.82 g/m*3 3.6 C 1.06667 km/h
839 05-02-2019 04:00:00 3.44167 C 4.83 g/m*3 3.44 C 3.75 km/h
840 05-02-2019 05:00:00 3.65 C 4.76 g/m*3 2.36 C 5.49167 km/h
841 05-02-2019 06:00:00 3.39167 C 4.97 g/m*3 3.39 C 0.93333 km/h
842 05-02-2019 07:00:00 2.98333 C 5.04 g/m*3 2.98 C 0.13333 km/h
843 05-02-2019 08:00:00 2.98333 C 5.05 g/m*3 2.98 C 0.53333 km/h
844 05-02-2019 09:00:00 3.58333 C 4.97 g/m*3 2.23 C 5.61667 km/h
845 05-02-2019 10:00:00 4.175 C 5.02 g/m*3 2.68 C 6.28333 km/h
846 05-02-2019 11:00:00 5.00833 C 5.15 g/m*3 3.47 C 6.83333 km/h
847 05-02-2019 12:00:00 5.85833 C 5.37 g/m*3 4.49 C 6.70833 km/h
848 05-02-2019 13:00:00 6.30833 C 5.44 g/m*3 4.94 C 6.975 km/h
849 05-02-2019 14:00:00 6.73333 C 5.55 g/m*3 5.47 C 6.85833 km/h
850 05-02-2019 15:00:00 7.03333 C 5.71 g/m*3 7.03 C 4.8 km/h
Sensor: Nr:Datum:Temp:Abs-Feuchte:Windchill:Wind:
Aussen-T/F 851 05-02-2019 16:00:00 6.83333 C 5.86 g/m*3 6.83 C 2 km/h
852 05-02-2019 17:00:00 6.15833 C 6.08 g/m*3 6.16 C 0.4 km/h
853 05-02-2019 18:00:00 5.15833 C 5.92 g/m*3 5.16 C 0.26667 km/h
854 05-02-2019 19:00:00 4.75 C 5.85 g/m*3 4.75 C 0.53333 km/h
855 05-02-2019 20:00:00 4.35 C 5.74 g/m*3 4.35 C 0.93333 km/h
856 05-02-2019 21:00:00 4.10833 C 5.72 g/m*3 4.11 C 1.46667 km/h
857 05-02-2019 22:00:00 2.69167 C 5.22 g/m*3 2.69 C 4.66667 km/h
858 05-02-2019 23:00:00 1.725 C 5 g/m*3 1.73 C 2.66667 km/h
859 06-02-2019 00:00:00 0.43333 C 4.62 g/m*3 0.43 C 0 km/h
860 06-02-2019 01:00:00 -0.225 C 4.48 g/m*3 -0.23 C 0 km/h
861 06-02-2019 02:00:00 -0.675 C 4.37 g/m*3 -0.68 C 0 km/h
862 06-02-2019 03:00:00 -1.16667 C 4.24 g/m*3 -1.17 C 0 km/h
863 06-02-2019 04:00:00 -1.425 C 4.17 g/m*3 -1.43 C 0 km/h
864 06-02-2019 05:00:00 -1.59167 C 4.12 g/m*3 -1.59 C 0 km/h
865 06-02-2019 06:00:00 -1.76667 C 4.07 g/m*3 -1.77 C 0 km/h
866 06-02-2019 07:00:00 -1.975 C 4.01 g/m*3 -1.98 C 0.13333 km/h
867 06-02-2019 08:00:00 -2.21667 C 3.97 g/m*3 -2.22 C 0.13333 km/h
868 06-02-2019 09:00:00 -1.36667 C 4.23 g/m*3 -1.37 C 0 km/h
869 06-02-2019 10:00:00 0.10833 C 4.69 g/m*3 0.11 C 0.66667 km/h
870 06-02-2019 11:00:00 1.675 C 5.13 g/m*3 1.68 C 1.06667 km/h
871 06-02-2019 12:00:00 2.98333 C 5.41 g/m*3 2.98 C 0.4 km/h
872 06-02-2019 13:00:00 4.15 C 5.6 g/m*3 4.15 C 2.94167 km/h
873 06-02-2019 14:00:00 5.675 C 5.05 g/m*3 3.45 C 10.08333 km/h
874 06-02-2019 15:00:00 5.975 C 5.24 g/m*3 5.98 C 2.26667 km/h
875 06-02-2019 16:00:00 5.13333 C 5.35 g/m*3 5.13 C 1.86667 km/h
Sensor: Nr:Datum:Temp:Abs-Feuchte:Windchill:Wind:
Aussen-T/F 876 06-02-2019 17:00:00 3.79167 C 5.14 g/m*3 2.58 C 5.33333 km/h
877 06-02-2019 18:00:00 2.64167 C 4.99 g/m*3 2.64 C 2.66667 km/h
878 06-02-2019 19:00:00 2.14167 C 5.01 g/m*3 2.14 C 0 km/h
879 06-02-2019 20:00:00 1.91667 C 4.95 g/m*3 1.92 C 0 km/h
880 06-02-2019 21:00:00 1.53333 C 4.9 g/m*3 1.53 C 0 km/h
881 06-02-2019 22:00:00 1.21667 C 4.83 g/m*3 1.22 C 0 km/h
882 06-02-2019 23:00:00 1.26667 C 4.86 g/m*3 1.27 C 0 km/h
883 07-02-2019 00:00:00 0.90833 C 4.73 g/m*3 0.91 C 0 km/h
884 07-02-2019 01:00:00 1.20833 C 4.84 g/m*3 1.21 C 0 km/h
885 07-02-2019 02:00:00 1.44167 C 4.89 g/m*3 1.44 C 0 km/h
886 07-02-2019 03:00:00 1.73333 C 5 g/m*3 1.73 C 0.26667 km/h
887 07-02-2019 04:00:00 2.33333 C 5.14 g/m*3 2.33 C 0.4 km/h
888 07-02-2019 05:00:00 2.65833 C 5.29 g/m*3 2.66 C 4.01667 km/h
889 07-02-2019 06:00:00 3.00833 C 5.26 g/m*3 3.01 C 3.06667 km/h
890 07-02-2019 07:00:00 3.5 C 5.5 g/m*3 3.5 C 0.13333 km/h
891 07-02-2019 08:00:00 3.99167 C 5.87 g/m*3 3.99 C 0.93333 km/h
892 07-02-2019 09:00:00 4.53333 C 6.24 g/m*3 4.53 C 0.66667 km/h
893 07-02-2019 10:00:00 5.175 C 6.54 g/m*3 5.18 C 0 km/h
894 07-02-2019 11:00:00 5.675 C 6.8 g/m*3 5.68 C 3.475 km/h
895 07-02-2019 12:00:00 6.775 C 7.26 g/m*3 4.34 C 12.36667 km/h
896 07-02-2019 13:00:00 7.54167 C 7.3 g/m*3 4.77 C 15.83333 km/h
897 07-02-2019 14:00:00 8.09167 C 7.08 g/m*3 5.49 C 15.56667 km/h
898 07-02-2019 15:00:00 8.53333 C 6.92 g/m*3 5.95 C 16.23333 km/h
899 07-02-2019 16:00:00 8.59167 C 6.81 g/m*3 6.68 C 11.56667 km/h
900 07-02-2019 17:00:00 7.51667 C 6.58 g/m*3 7.52 C 4.41667 km/h
Sensor: Nr:Datum:Temp:Abs-Feuchte:Windchill:Wind:
Aussen-T/F 901 07-02-2019 18:00:00 6.6 C 6.33 g/m*3 5.87 C 5.075 km/h
902 07-02-2019 19:00:00 6.65 C 6.14 g/m*3 5.41 C 6.7 km/h
903 07-02-2019 20:00:00 6.28333 C 6.14 g/m*3 6.28 C 4.275 km/h
904 07-02-2019 21:00:00 6.9 C 6.33 g/m*3 4.86 C 10.35 km/h
905 07-02-2019 22:00:00 6.44167 C 6.14 g/m*3 4.82 C 8.05 km/h
906 07-02-2019 23:00:00 6.2 C 6.21 g/m*3 4.31 C 8.98333 km/h
907 08-02-2019 00:00:00 5.525 C 6.14 g/m*3 3.91 C 7.39167 km/h
908 08-02-2019 01:00:00 5.89167 C 6.23 g/m*3 4.58 C 6.55833 km/h
909 08-02-2019 02:00:00 5.8 C 6.22 g/m*3 3.71 C 9.53333 km/h
910 08-02-2019 03:00:00 5.75 C 6.25 g/m*3 4.62 C 5.9 km/h
911 08-02-2019 04:00:00 6.28333 C 6.38 g/m*3 4.26 C 9.69167 km/h
912 08-02-2019 05:00:00 6.4 C 6.41 g/m*3 5.2 C 6.44167 km/h
913 08-02-2019 06:00:00 6.325 C 6.43 g/m*3 6.33 C 2.95 km/h
914 08-02-2019 07:00:00 6.38333 C 6.46 g/m*3 5.39 C 5.75833 km/h
915 08-02-2019 08:00:00 6.675 C 6.52 g/m*3 5.48 C 6.56667 km/h
916 08-02-2019 09:00:00 7.05 C 6.65 g/m*3 7.05 C 4.41667 km/h
917 08-02-2019 10:00:00 7.425 C 6.78 g/m*3 6 C 7.925 km/h
918 08-02-2019 11:00:00 8.45 C 7.01 g/m*3 7.57 C 6.425 km/h
919 08-02-2019 12:00:00 9.44167 C 7.21 g/m*3 8.07 C 9.425 km/h
920 08-02-2019 13:00:00 9.21667 C 7.11 g/m*3 7.78 C 9.54167 km/h
921 08-02-2019 14:00:00 8.40833 C 6.94 g/m*3 6.98 C 8.75 km/h
922 08-02-2019 15:00:00 8.25 C 6.95 g/m*3 7.16 C 7.10833 km/h
923 08-02-2019 16:00:00 8.28333 C 6.97 g/m*3 7.73 C 5.225 km/h
924 08-02-2019 17:00:00 8.21667 C 6.87 g/m*3 7.66 C 5.225 km/h
925 08-02-2019 18:00:00 8.06667 C 6.84 g/m*3 8.07 C 4.675 km/h
Sensor: Nr:Datum:Temp:Abs-Feuchte:Windchill:Wind:
Aussen-T/F 926 08-02-2019 19:00:00 8.21667 C 6.79 g/m*3 7.7 C 5.1 km/h
927 08-02-2019 20:00:00 8.23333 C 6.74 g/m*3 7.64 C 5.35 km/h
928 08-02-2019 21:00:00 8.075 C 6.65 g/m*3 7.17 C 6.30833 km/h
929 08-02-2019 22:00:00 7.75833 C 6.57 g/m*3 7.76 C 3.34167 km/h
930 08-02-2019 23:00:00 8.1 C 6.59 g/m*3 7.24 C 6.16667 km/h
931 09-02-2019 00:00:00 8.29167 C 6.56 g/m*3 7.62 C 5.61667 km/h
932 09-02-2019 01:00:00 7.79167 C 6.64 g/m*3 7.79 C 3.2 km/h
933 09-02-2019 02:00:00 7.475 C 6.83 g/m*3 5.43 C 10.98333 km/h
934 09-02-2019 03:00:00 8.075 C 7 g/m*3 5.76 C 13.43333 km/h
935 09-02-2019 04:00:00 8.90833 C 7.19 g/m*3 5.58 C 24.525 km/h
936 09-02-2019 05:00:00 8.25833 C 7.03 g/m*3 5.89 C 14.09167 km/h
937 09-02-2019 06:00:00 7.8 C 6.76 g/m*3 5.57 C 12.5 km/h
938 09-02-2019 07:00:00 7.49167 C 6.85 g/m*3 4.8 C 15.16667 km/h
939 09-02-2019 08:00:00 7.225 C 6.79 g/m*3 4.7 C 13.56667 km/h
940 09-02-2019 09:00:00 7.73333 C 6.69 g/m*3 4.71 C 18.23333 km/h
941 09-02-2019 10:00:00 8.85 C 6.93 g/m*3 6.14 C 17.96667 km/h
942 09-02-2019 11:00:00 9.30833 C 6.98 g/m*3 6.89 C 16.36667 km/h
943 09-02-2019 12:00:00 9.975 C 6.93 g/m*3 7.69 C 16.63333 km/h
944 09-02-2019 13:00:00 10.73333 C 6.9 g/m*3 8.34 C 19.56667 km/h
945 09-02-2019 14:00:00 11.125 C 6.83 g/m*3 11.13 C 20.51667 km/h
946 09-02-2019 15:00:00 10.60833 C 6.68 g/m*3 8.6 C 15.56667 km/h
947 09-02-2019 16:00:00 10.06667 C 6.79 g/m*3 7.94 C 15.43333 km/h
948 09-02-2019 17:00:00 9.375 C 6.68 g/m*3 7.06 C 15.7 km/h
949 09-02-2019 18:00:00 8.54167 C 6.69 g/m*3 6.24 C 14.1 km/h
950 09-02-2019 19:00:00 7.86667 C 6.95 g/m*3 5.47 C 13.7 km/h
Sensor: Nr:Datum:Temp:Abs-Feuchte:Windchill:Wind:
Aussen-T/F 951 09-02-2019 20:00:00 7.25 C 6.75 g/m*3 5.47 C 9.4 km/h
952 09-02-2019 21:00:00 7.60833 C 6.93 g/m*3 5.07 C 14.23333 km/h
953 09-02-2019 22:00:00 8.15833 C 6.99 g/m*3 5.84 C 13.56667 km/h
954 09-02-2019 23:00:00 8.625 C 7.06 g/m*3 5.78 C 18.64167 km/h
955 10-02-2019 00:00:00 8.61667 C 7.05 g/m*3 6.89 C 10.48333 km/h
956 10-02-2019 01:00:00 7.85 C 6.87 g/m*3 7.85 C 2 km/h
957 10-02-2019 02:00:00 7.41667 C 6.74 g/m*3 7.42 C 2.26667 km/h
958 10-02-2019 03:00:00 7.60833 C 6.78 g/m*3 7.61 C 3.46667 km/h
959 10-02-2019 04:00:00 6.98333 C 7 g/m*3 6.98 C 3.86667 km/h
960 10-02-2019 05:00:00 6.95833 C 7.24 g/m*3 6.1 C 5.61667 km/h
961 10-02-2019 06:00:00 7.625 C 7.59 g/m*3 6.33 C 7.50833 km/h
962 10-02-2019 07:00:00 8.38333 C 7.91 g/m*3 6.84 C 9.26667 km/h
963 10-02-2019 08:00:00 8.79167 C 7.98 g/m*3 7.13 C 10.34167 km/h
964 10-02-2019 09:00:00 9.49167 C 8.1 g/m*3 7.61 C 12.625 km/h
965 10-02-2019 10:00:00 10.05833 C 8.36 g/m*3 7.74 C 17.175 km/h
966 10-02-2019 11:00:00 9.725 C 8.38 g/m*3 7.34 C 17.03333 km/h
967 10-02-2019 12:00:00 9.65833 C 8.43 g/m*3 7.31 C 16.5 km/h
968 10-02-2019 13:00:00 9.775 C 8.5 g/m*3 7.37 C 17.3 km/h
969 10-02-2019 14:00:00 9.45833 C 8.22 g/m*3 7.05 C 16.63333 km/h
970 10-02-2019 15:00:00 8.78333 C 7.53 g/m*3 5.67 C 21.7 km/h
971 10-02-2019 16:00:00 8.48333 C 7.41 g/m*3 5.54 C 19.3 km/h
972 10-02-2019 17:00:00 7.95 C 7.11 g/m*3 4.48 C 23.05833 km/h
973 10-02-2019 18:00:00 6.475 C 6.75 g/m*3 3.66 C 14.36667 km/h
974 10-02-2019 19:00:00 6.41667 C 6.58 g/m*3 3.32 C 16.23333 km/h
975 10-02-2019 20:00:00 6.68333 C 6.65 g/m*3 3.4 C 18.24167 km/h
Sensor: Nr:Datum:Temp:Abs-Feuchte:Windchill:Wind:
Aussen-T/F 976 10-02-2019 21:00:00 6.14167 C 6.49 g/m*3 2.93 C 16.63333 km/h
977 10-02-2019 22:00:00 6.14167 C 6.14 g/m*3 2.08 C 23.99167 km/h
978 10-02-2019 23:00:00 5.58333 C 6.03 g/m*3 1.58 C 21.975 km/h
979 11-02-2019 00:00:00 4.96667 C 6.03 g/m*3 1.3 C 17.83333 km/h
980 11-02-2019 01:00:00 4.3 C 5.99 g/m*3 1.31 C 12.5 km/h
981 11-02-2019 02:00:00 3.93333 C 5.9 g/m*3 1.31 C 10.34167 km/h
982 11-02-2019 03:00:00 3.8 C 5.86 g/m*3 1.5 C 8.85833 km/h
983 11-02-2019 04:00:00 3.60833 C 5.81 g/m*3 2.02 C 6.29167 km/h
984 11-02-2019 05:00:00 3.85 C 5.92 g/m*3 2.3 C 6.29167 km/h
985 11-02-2019 06:00:00 3.825 C 5.91 g/m*3 2.14 C 6.69167 km/h
986 11-02-2019 07:00:00 4.06667 C 5.92 g/m*3 2.06 C 7.93333 km/h
987 11-02-2019 08:00:00 4.09167 C 5.82 g/m*3 3.02 C 5.075 km/h
988 11-02-2019 09:00:00 4.20833 C 5.8 g/m*3 2.67 C 6.43333 km/h
989 11-02-2019 10:00:00 4.98333 C 5.86 g/m*3 2.71 C 9.675 km/h
990 11-02-2019 11:00:00 5.94167 C 5.93 g/m*3 3.41 C 11.95833 km/h
991 11-02-2019 12:00:00 6.61667 C 5.93 g/m*3 4.15 C 12.36667 km/h
992 11-02-2019 13:00:00 7.29167 C 5.88 g/m*3 4.57 C 15.03333 km/h
993 11-02-2019 14:00:00 7.35833 C 5.78 g/m*3 5.23 C 11.3 km/h
994 11-02-2019 15:00:00 7.35833 C 5.85 g/m*3 5.33 C 10.75833 km/h
995 11-02-2019 16:00:00 6.90833 C 6.08 g/m*3 4.79 C 10.74167 km/h
996 11-02-2019 17:00:00 6.2 C 6.16 g/m*3 4.85 C 6.83333 km/h
997 11-02-2019 18:00:00 5.73333 C 5.66 g/m*3 3.76 C 8.99167 km/h
998 11-02-2019 19:00:00 4.83333 C 5.69 g/m*3 3.61 C 5.75833 km/h
999 11-02-2019 20:00:00 4.15833 C 5.62 g/m*3 4.16 C 3.875 km/h
1000 11-02-2019 21:00:00 3.45 C 5.43 g/m*3 3.45 C 3.6 km/h
Sensor: Nr:Datum:Temp:Abs-Feuchte:Windchill:Wind:
Aussen-T/F 1001 11-02-2019 22:00:00 2.76667 C 5.27 g/m*3 2.77 C 2.26667 km/h
1002 11-02-2019 23:00:00 2.56667 C 5.29 g/m*3 2.57 C 1.46667 km/h
1003 12-02-2019 00:00:00 3.125 C 5.39 g/m*3 3.13 C 2.66667 km/h
1004 12-02-2019 01:00:00 3.05833 C 5.36 g/m*3 3.06 C 0.66667 km/h
1005 12-02-2019 02:00:00 2.8 C 5.33 g/m*3 2.8 C 2.4 km/h
1006 12-02-2019 03:00:00 2.63333 C 5.26 g/m*3 2.63 C 3.33333 km/h
1007 12-02-2019 04:00:00 2.48333 C 5.24 g/m*3 2.48 C 3.06667 km/h
1008 12-02-2019 05:00:00 2.63333 C 5.25 g/m*3 2.63 C 3.20833 km/h
1009 12-02-2019 06:00:00 2.4 C 5.14 g/m*3 0.88 C 5.61667 km/h
1010 12-02-2019 07:00:00 2.41667 C 5.14 g/m*3 0.8 C 5.875 km/h
1011 12-02-2019 08:00:00 2.275 C 5.1 g/m*3 0.84 C 5.35 km/h
1012 12-02-2019 09:00:00 2.98333 C 5.27 g/m*3 1.55 C 5.60833 km/h
1013 12-02-2019 10:00:00 3.95833 C 5.47 g/m*3 1.89 C 8.08333 km/h
1014 12-02-2019 11:00:00 4.65833 C 5.59 g/m*3 2.9 C 7.39167 km/h
1015 12-02-2019 12:00:00 5.44167 C 5.75 g/m*3 3.74 C 7.65 km/h
1016 12-02-2019 13:00:00 6.30833 C 5.88 g/m*3 4.56 C 8.45833 km/h
1017 12-02-2019 14:00:00 6.875 C 5.9 g/m*3 4.68 C 11.16667 km/h
1018 12-02-2019 15:00:00 7.05 C 5.89 g/m*3 5.23 C 9.40833 km/h
1019 12-02-2019 16:00:00 7.425 C 5.96 g/m*3 5.56 C 9.95833 km/h
1020 12-02-2019 17:00:00 6.55833 C 5.82 g/m*3 5.68 C 5.49167 km/h
1021 12-02-2019 18:00:00 4.35833 C 5.51 g/m*3 4.36 C 4.13333 km/h
1022 12-02-2019 19:00:00 3.025 C 5.27 g/m*3 3.03 C 3.2 km/h
1023 12-02-2019 20:00:00 2.33333 C 5.13 g/m*3 2.33 C 3.33333 km/h
1024 12-02-2019 21:00:00 1.59167 C 4.95 g/m*3 1.59 C 3.2 km/h
1025 12-02-2019 22:00:00 1.41667 C 4.96 g/m*3 -0.3 C 5.75833 km/h
Sensor: Nr:Datum:Temp:Abs-Feuchte:Windchill:Wind:
Aussen-T/F 1026 12-02-2019 23:00:00 1.375 C 4.97 g/m*3 1.38 C 4.26667 km/h
1027 13-02-2019 00:00:00 1.25 C 4.91 g/m*3 1.25 C 4.13333 km/h
1028 13-02-2019 01:00:00 0.85833 C 4.79 g/m*3 0.86 C 2.4 km/h
1029 13-02-2019 02:00:00 0.125 C 4.57 g/m*3 0.13 C 2.26667 km/h
1030 13-02-2019 03:00:00 -0.31667 C 4.46 g/m*3 -0.32 C 2 km/h
1031 13-02-2019 04:00:00 -0.33333 C 4.48 g/m*3 -0.33 C 1.6 km/h
1032 13-02-2019 05:00:00 -0.46667 C 4.46 g/m*3 -0.47 C 2 km/h
1033 13-02-2019 06:00:00 -0.45 C 4.47 g/m*3 -0.45 C 1.33333 km/h
1034 13-02-2019 07:00:00 0.26667 C 4.74 g/m*3 0.27 C 0.53333 km/h
1035 13-02-2019 08:00:00 0.66667 C 4.85 g/m*3 0.67 C 0.8 km/h
1036 13-02-2019 09:00:00 1.00833 C 4.94 g/m*3 1.01 C 2 km/h
1037 13-02-2019 10:00:00 1.60833 C 5.07 g/m*3 1.61 C 2.8 km/h
1038 13-02-2019 11:00:00 2.325 C 5.19 g/m*3 2.33 C 0.8 km/h
1039 13-02-2019 12:00:00 3.58333 C 5.52 g/m*3 3.58 C 1.6 km/h
1040 13-02-2019 13:00:00 4.89167 C 5.71 g/m*3 4.89 C 4.13333 km/h
1041 13-02-2019 14:00:00 5.41667 C 5.8 g/m*3 5.42 C 4.4 km/h
1042 13-02-2019 15:00:00 5.6 C 5.88 g/m*3 5.6 C 2.66667 km/h
1043 13-02-2019 16:00:00 5.54167 C 6.04 g/m*3 5.54 C 0 km/h
1044 13-02-2019 17:00:00 4.69167 C 5.89 g/m*3 4.69 C 0.93333 km/h
1045 13-02-2019 18:00:00 3.20833 C 5.46 g/m*3 3.21 C 0.66667 km/h
1046 13-02-2019 19:00:00 1.85 C 5.04 g/m*3 1.85 C 0 km/h
1047 13-02-2019 20:00:00 1.15 C 4.87 g/m*3 1.15 C 0 km/h
1048 13-02-2019 21:00:00 0.55833 C 4.65 g/m*3 0.56 C 0.13333 km/h
1049 13-02-2019 22:00:00 0.125 C 4.55 g/m*3 0.13 C 0.13333 km/h
1050 13-02-2019 23:00:00 -0.45 C 4.37 g/m*3 -0.45 C 0 km/h
Sensor: Nr:Datum:Temp:Abs-Feuchte:Windchill:Wind:
Aussen-T/F 1051 14-02-2019 00:00:00 -0.71667 C 4.3 g/m*3 -0.72 C 0 km/h
1052 14-02-2019 01:00:00 -1.05833 C 4.23 g/m*3 -1.06 C 0 km/h
1053 14-02-2019 02:00:00 -1.1 C 4.23 g/m*3 -1.1 C 0 km/h
1054 14-02-2019 03:00:00 -1.53333 C 4.1 g/m*3 -1.53 C 0.13333 km/h
1055 14-02-2019 04:00:00 -1.775 C 4.06 g/m*3 -1.78 C 0 km/h
1056 14-02-2019 05:00:00 -1.96667 C 4.01 g/m*3 -1.97 C 0 km/h
1057 14-02-2019 06:00:00 -2.45 C 3.88 g/m*3 -2.45 C 0 km/h
1058 14-02-2019 07:00:00 -2.65 C 3.83 g/m*3 -2.65 C 0 km/h
1059 14-02-2019 08:00:00 -2.43333 C 3.91 g/m*3 -2.43 C 0.4 km/h
1060 14-02-2019 09:00:00 -2.08333 C 4.02 g/m*3 -2.08 C 0.53333 km/h
1061 14-02-2019 10:00:00 -1.69167 C 4.14 g/m*3 -1.69 C 0.4 km/h
1062 14-02-2019 11:00:00 -0.9 C 4.39 g/m*3 -0.9 C 0.26667 km/h
1063 14-02-2019 12:00:00 0.675 C 4.92 g/m*3 0.68 C 0.66667 km/h
1064 14-02-2019 13:00:00 2.75833 C 5.67 g/m*3 2.76 C 0.4 km/h
1065 14-02-2019 14:00:00 4.65833 C 6.28 g/m*3 4.66 C 0.53333 km/h
1066 14-02-2019 15:00:00 6.48333 C 6.77 g/m*3 6.48 C 1.2 km/h
1067 14-02-2019 16:00:00 6.08333 C 6.43 g/m*3 6.08 C 0 km/h
1068 14-02-2019 17:00:00 5.625 C 6.22 g/m*3 5.63 C 0 km/h
1069 14-02-2019 18:00:00 4.58333 C 5.72 g/m*3 4.58 C 0 km/h
1070 14-02-2019 19:00:00 3.30833 C 5.17 g/m*3 3.31 C 0 km/h
1071 14-02-2019 20:00:00 2.78333 C 5.09 g/m*3 2.78 C 0 km/h
1072 14-02-2019 21:00:00 1.55 C 4.82 g/m*3 1.55 C 0 km/h
1073 14-02-2019 22:00:00 0.49167 C 4.57 g/m*3 0.49 C 0 km/h
1074 14-02-2019 23:00:00 -0.05833 C 4.48 g/m*3 -0.06 C 0 km/h
1075 15-02-2019 00:00:00 -0.55 C 4.37 g/m*3 -0.55 C 0 km/h
Sensor: Nr:Datum:Temp:Abs-Feuchte:Windchill:Wind:
Aussen-T/F 1076 15-02-2019 01:00:00 -0.93333 C 4.28 g/m*3 -0.93 C 0 km/h
1077 15-02-2019 02:00:00 -1.15 C 4.24 g/m*3 -1.15 C 0 km/h
1078 15-02-2019 03:00:00 -1.40833 C 4.17 g/m*3 -1.41 C 0 km/h
1079 15-02-2019 04:00:00 -1.50833 C 4.14 g/m*3 -1.51 C 0 km/h
1080 15-02-2019 05:00:00 -1.88333 C 4.04 g/m*3 -1.88 C 0 km/h
1081 15-02-2019 06:00:00 -2.075 C 3.99 g/m*3 -2.08 C 0 km/h
1082 15-02-2019 07:00:00 -2.4 C 3.89 g/m*3 -2.4 C 0 km/h
1083 15-02-2019 08:00:00 -2.2 C 3.99 g/m*3 -2.2 C 0 km/h
1084 15-02-2019 09:00:00 -1.69167 C 4.14 g/m*3 -1.69 C 0 km/h
1085 15-02-2019 10:00:00 -0.7 C 4.44 g/m*3 -0.7 C 0 km/h
1086 15-02-2019 11:00:00 1.26667 C 5.13 g/m*3 1.27 C 0 km/h
1087 15-02-2019 12:00:00 3.41667 C 5.91 g/m*3 3.42 C 0 km/h
1088 15-02-2019 13:00:00 5.93333 C 6.62 g/m*3 5.93 C 2.4 km/h
1089 15-02-2019 14:00:00 8.25833 C 6.95 g/m*3 7.71 C 5.2 km/h
1090 15-02-2019 15:00:00 9.58333 C 7.08 g/m*3 9.14 C 5.46667 km/h
1091 15-02-2019 16:00:00 10.65833 C 6.75 g/m*3 10.19 C 6.13333 km/h
1092 15-02-2019 17:00:00 9.35833 C 6.46 g/m*3 8.56 C 6.68333 km/h
1093 15-02-2019 18:00:00 7.275 C 6 g/m*3 6.38 C 5.86667 km/h
1094 15-02-2019 19:00:00 6.16667 C 5.85 g/m*3 6.17 C 4.26667 km/h
1095 15-02-2019 20:00:00 4.46667 C 5.54 g/m*3 4.47 C 0.53333 km/h
1096 15-02-2019 21:00:00 3.15833 C 5.3 g/m*3 3.16 C 0 km/h
1097 15-02-2019 22:00:00 1.85 C 4.97 g/m*3 1.85 C 0 km/h
1098 15-02-2019 23:00:00 1.23333 C 4.86 g/m*3 1.23 C 0 km/h
1099 16-02-2019 00:00:00 0.41667 C 4.63 g/m*3 0.42 C 0 km/h
1100 16-02-2019 01:00:00 -0.15 C 4.5 g/m*3 -0.15 C 0 km/h
Sensor: Nr:Datum:Temp:Abs-Feuchte:Windchill:Wind:
Aussen-T/F 1101 16-02-2019 02:00:00 -0.48333 C 4.42 g/m*3 -0.48 C 0.53333 km/h
1102 16-02-2019 03:00:00 -0.75833 C 4.36 g/m*3 -0.76 C 0.13333 km/h
1103 16-02-2019 04:00:00 -0.925 C 4.32 g/m*3 -0.93 C 0.13333 km/h
1104 16-02-2019 05:00:00 -1.11667 C 4.27 g/m*3 -1.12 C 1.06667 km/h
1105 16-02-2019 06:00:00 -1.20833 C 4.25 g/m*3 -1.21 C 0.8 km/h
1106 16-02-2019 07:00:00 -1.64167 C 4.11 g/m*3 -1.64 C 0.13333 km/h
1107 16-02-2019 08:00:00 -1.78333 C 4.09 g/m*3 -1.78 C 0.13333 km/h
1108 16-02-2019 09:00:00 -1.09167 C 4.31 g/m*3 -1.09 C 0 km/h
1109 16-02-2019 10:00:00 -0.225 C 4.6 g/m*3 -0.23 C 0 km/h
1110 16-02-2019 11:00:00 2.175 C 5.45 g/m*3 2.17 C 0.53333 km/h
1111 16-02-2019 12:00:00 4.96667 C 6.57 g/m*3 4.97 C 1.06667 km/h
1112 16-02-2019 13:00:00 7.85833 C 7.37 g/m*3 7.86 C 2.26667 km/h
1113 16-02-2019 14:00:00 10.66667 C 7.56 g/m*3 10.67 C 0 km/h
1114 16-02-2019 15:00:00 11.75833 C 7.33 g/m*3 11.76 C 4 km/h
1115 16-02-2019 16:00:00 11.88333 C 7.11 g/m*3 11.88 C 2.4 km/h
1116 16-02-2019 17:00:00 10.69167 C 6.87 g/m*3 10.69 C 4 km/h
1117 16-02-2019 18:00:00 8.74167 C 6.63 g/m*3 8.02 C 6 km/h
1118 16-02-2019 19:00:00 7.29167 C 6.4 g/m*3 7.29 C 2 km/h
1119 16-02-2019 20:00:00 5.41667 C 5.88 g/m*3 5.42 C 0 km/h
1120 16-02-2019 21:00:00 3.75833 C 5.54 g/m*3 3.76 C 0 km/h
1121 16-02-2019 22:00:00 2.8 C 5.35 g/m*3 2.8 C 0 km/h
1122 16-02-2019 23:00:00 1.95833 C 5.15 g/m*3 1.96 C 0 km/h
1123 17-02-2019 00:00:00 1.55 C 5.07 g/m*3 1.55 C 0 km/h
1124 17-02-2019 01:00:00 0.86667 C 4.85 g/m*3 0.87 C 0 km/h
1125 17-02-2019 02:00:00 0.34167 C 4.71 g/m*3 0.34 C 0 km/h
Sensor: Nr:Datum:Temp:Abs-Feuchte:Windchill:Wind:
Aussen-T/F 1126 17-02-2019 03:00:00 0.09167 C 4.65 g/m*3 0.09 C 0 km/h
1127 17-02-2019 04:00:00 -0.36667 C 4.5 g/m*3 -0.37 C 0 km/h
1128 17-02-2019 05:00:00 -0.85833 C 4.36 g/m*3 -0.86 C 0 km/h
1129 17-02-2019 06:00:00 -0.975 C 4.35 g/m*3 -0.98 C 0.13333 km/h
1130 17-02-2019 07:00:00 -1.25 C 4.26 g/m*3 -1.25 C 0 km/h
1131 17-02-2019 08:00:00 -1.33333 C 4.24 g/m*3 -1.33 C 0 km/h
1132 17-02-2019 09:00:00 -0.81667 C 4.4 g/m*3 -0.82 C 0 km/h
1133 17-02-2019 10:00:00 -0.16667 C 4.63 g/m*3 -0.17 C 0 km/h
1134 17-02-2019 11:00:00 1.93333 C 5.37 g/m*3 1.93 C 0.13333 km/h
1135 17-02-2019 12:00:00 4.73333 C 6.5 g/m*3 4.73 C 0.13333 km/h
1136 17-02-2019 13:00:00 7.51667 C 7.74 g/m*3 7.52 C 0.53333 km/h
1137 17-02-2019 14:00:00 9.76667 C 7.99 g/m*3 9.77 C 1.33333 km/h
1138 17-02-2019 15:00:00 11.19167 C 7.83 g/m*3 11.19 C 3.06667 km/h
1139 17-02-2019 16:00:00 11.94167 C 7.56 g/m*3 11.94 C 2.26667 km/h
1140 17-02-2019 17:00:00 11 C 7.26 g/m*3 10.59 C 6.13333 km/h
1141 17-02-2019 18:00:00 8.59167 C 6.56 g/m*3 8.59 C 4.8 km/h
1142 17-02-2019 19:00:00 6.73333 C 6.1 g/m*3 6.73 C 1.86667 km/h
1143 17-02-2019 20:00:00 4.69167 C 5.63 g/m*3 4.69 C 0 km/h
1144 17-02-2019 21:00:00 3.65 C 5.43 g/m*3 3.65 C 0.13333 km/h
1145 17-02-2019 22:00:00 2.375 C 5.11 g/m*3 2.38 C 0 km/h
1146 17-02-2019 23:00:00 1.7 C 4.99 g/m*3 1.7 C 0 km/h
1147 18-02-2019 00:00:00 1.46667 C 4.91 g/m*3 1.47 C 0 km/h
1148 18-02-2019 01:00:00 0.49167 C 4.64 g/m*3 0.49 C 0 km/h
1149 18-02-2019 02:00:00 0.08333 C 4.57 g/m*3 0.08 C 0.13333 km/h
1150 18-02-2019 03:00:00 -0.41667 C 4.43 g/m*3 -0.42 C 0 km/h
Sensor: Nr:Datum:Temp:Abs-Feuchte:Windchill:Wind:
Aussen-T/F 1151 18-02-2019 04:00:00 -0.775 C 4.34 g/m*3 -0.78 C 0 km/h
1152 18-02-2019 05:00:00 -1.21667 C 4.23 g/m*3 -1.22 C 0 km/h
1153 18-02-2019 06:00:00 -1.475 C 4.15 g/m*3 -1.48 C 0 km/h
1154 18-02-2019 07:00:00 -1.65 C 4.11 g/m*3 -1.65 C 0 km/h
1155 18-02-2019 08:00:00 -1.63333 C 4.13 g/m*3 -1.63 C 0.13333 km/h
1156 18-02-2019 09:00:00 -0.56667 C 4.47 g/m*3 -0.57 C 0.66667 km/h
1157 18-02-2019 10:00:00 0.19167 C 4.72 g/m*3 0.19 C 0.8 km/h
1158 18-02-2019 11:00:00 2.84167 C 5.69 g/m*3 2.84 C 0 km/h
1159 18-02-2019 12:00:00 6.04167 C 6.76 g/m*3 6.04 C 0 km/h
1160 18-02-2019 13:00:00 9.59167 C 7.36 g/m*3 9.59 C 0 km/h
1161 18-02-2019 14:00:00 11.34167 C 7.36 g/m*3 11.34 C 0 km/h
1162 18-02-2019 15:00:00 12.05833 C 7.16 g/m*3 12.06 C 0 km/h
1163 18-02-2019 16:00:00 11.84167 C 6.81 g/m*3 11.84 C 0 km/h
1164 18-02-2019 17:00:00 10.425 C 6.72 g/m*3 10.43 C 0 km/h
1165 18-02-2019 18:00:00 8.41667 C 6.35 g/m*3 8.42 C 0 km/h
1166 18-02-2019 19:00:00 7 C 6.2 g/m*3 7 C 0 km/h
1167 18-02-2019 20:00:00 5.65833 C 5.77 g/m*3 5.66 C 0.4 km/h
1168 18-02-2019 21:00:00 4.1 C 5.5 g/m*3 4.1 C 0 km/h
1169 18-02-2019 22:00:00 2.76667 C 5.19 g/m*3 2.77 C 0 km/h
1170 18-02-2019 23:00:00 2.13333 C 5.09 g/m*3 2.13 C 0 km/h
1171 19-02-2019 00:00:00 1.725 C 5.02 g/m*3 1.73 C 0 km/h
1172 19-02-2019 01:00:00 1.83333 C 5.1 g/m*3 1.83 C 0 km/h
1173 19-02-2019 02:00:00 1.85 C 5.13 g/m*3 1.85 C 0 km/h
1174 19-02-2019 03:00:00 2.34167 C 5.37 g/m*3 2.34 C 0.93333 km/h
1175 19-02-2019 04:00:00 3.7 C 5.86 g/m*3 3.7 C 4.41667 km/h
Sensor: Nr:Datum:Temp:Abs-Feuchte:Windchill:Wind:
Aussen-T/F 1176 19-02-2019 05:00:00 4.04167 C 5.79 g/m*3 4.04 C 2.93333 km/h
1177 19-02-2019 06:00:00 4.99167 C 5.96 g/m*3 4.99 C 4.41667 km/h
1178 19-02-2019 07:00:00 5.2 C 6.21 g/m*3 5.2 C 2.93333 km/h
1179 19-02-2019 08:00:00 4.89167 C 6.27 g/m*3 4.89 C 1.06667 km/h
1180 19-02-2019 09:00:00 5.25 C 6.55 g/m*3 4.28 C 5.225 km/h
1181 19-02-2019 10:00:00 6.34167 C 7 g/m*3 4.59 C 8.48333 km/h
1182 19-02-2019 11:00:00 7.28333 C 7.31 g/m*3 5.93 C 7.53333 km/h
1183 19-02-2019 12:00:00 8.71667 C 7.61 g/m*3 8.07 C 5.75833 km/h
1184 19-02-2019 13:00:00 9.94167 C 7.5 g/m*3 8.69 C 9.29167 km/h
1185 19-02-2019 14:00:00 10.65 C 7.29 g/m*3 9.26 C 10.9 km/h
1186 19-02-2019 15:00:00 10.94167 C 7.23 g/m*3 10.05 C 8.34167 km/h
1187 19-02-2019 16:00:00 10.9 C 7.18 g/m*3 10.28 C 6.98333 km/h
1188 19-02-2019 17:00:00 9.69167 C 6.87 g/m*3 9.69 C 4.15833 km/h
1189 19-02-2019 18:00:00 7.28333 C 6.56 g/m*3 7.28 C 4.54167 km/h
1190 19-02-2019 19:00:00 6.225 C 6.41 g/m*3 6.23 C 4.13333 km/h
1191 19-02-2019 20:00:00 5.44167 C 6.24 g/m*3 5.44 C 3.33333 km/h
1192 19-02-2019 21:00:00 4.85 C 6.03 g/m*3 4.85 C 0.53333 km/h
1193 19-02-2019 22:00:00 3.46667 C 5.6 g/m*3 3.47 C 0.66667 km/h
1194 19-02-2019 23:00:00 3.05 C 5.53 g/m*3 3.05 C 0.66667 km/h
1195 20-02-2019 00:00:00 2.6 C 5.4 g/m*3 2.6 C 0.8 km/h
1196 20-02-2019 01:00:00 1.78333 C 5.11 g/m*3 1.78 C 0 km/h
1197 20-02-2019 02:00:00 1.19167 C 4.96 g/m*3 1.19 C 0.13333 km/h
1198 20-02-2019 03:00:00 1.1 C 4.96 g/m*3 1.1 C 1.2 km/h
1199 20-02-2019 04:00:00 0.875 C 4.89 g/m*3 0.88 C 0.66667 km/h
1200 20-02-2019 05:00:00 1 C 4.96 g/m*3 1 C 1.06667 km/h
Sensor: Nr:Datum:Temp:Abs-Feuchte:Windchill:Wind:
Aussen-T/F 1201 20-02-2019 06:00:00 0.86667 C 4.92 g/m*3 0.87 C 0.4 km/h
1202 20-02-2019 07:00:00 0.73333 C 4.89 g/m*3 0.73 C 1.2 km/h
1203 20-02-2019 08:00:00 1.30833 C 5.11 g/m*3 1.31 C 2.41667 km/h
1204 20-02-2019 09:00:00 3.09167 C 5.78 g/m*3 0.06 C 11.43333 km/h
1205 20-02-2019 10:00:00 4.40833 C 6.25 g/m*3 1.7 C 11.16667 km/h
1206 20-02-2019 11:00:00 6.075 C 6.72 g/m*3 3.9 C 10.225 km/h
1207 20-02-2019 12:00:00 7.49167 C 7.04 g/m*3 6.21 C 7.36667 km/h
1208 20-02-2019 13:00:00 9.86667 C 7.29 g/m*3 8.2 C 11.7 km/h
1209 20-02-2019 14:00:00 10.85833 C 7.37 g/m*3 9.95 C 8.325 km/h
1210 20-02-2019 15:00:00 11.08333 C 7.35 g/m*3 11.08 C 6.15833 km/h
1211 20-02-2019 16:00:00 11.375 C 7.3 g/m*3 11.38 C 6.84167 km/h
1212 20-02-2019 17:00:00 10.35 C 7.12 g/m*3 10.35 C 3.875 km/h
1213 20-02-2019 18:00:00 7.29167 C 6.63 g/m*3 7.29 C 3.86667 km/h
1214 20-02-2019 19:00:00 6.16667 C 6.43 g/m*3 6.17 C 2.53333 km/h
1215 20-02-2019 20:00:00 4.86667 C 6.04 g/m*3 4.87 C 0.26667 km/h
1216 20-02-2019 21:00:00 3.775 C 5.73 g/m*3 3.78 C 0 km/h
1217 20-02-2019 22:00:00 2.7 C 5.41 g/m*3 2.7 C 0 km/h
1218 20-02-2019 23:00:00 2.10833 C 5.28 g/m*3 2.11 C 0.13333 km/h
1219 21-02-2019 00:00:00 1.575 C 5.1 g/m*3 1.58 C 0 km/h
1220 21-02-2019 01:00:00 1.58333 C 5.14 g/m*3 1.58 C 0.26667 km/h
1221 21-02-2019 02:00:00 1.06667 C 4.96 g/m*3 1.07 C 0 km/h
1222 21-02-2019 03:00:00 0.74167 C 4.89 g/m*3 0.74 C 0.26667 km/h
1223 21-02-2019 04:00:00 0.91667 C 4.95 g/m*3 0.92 C 1.33333 km/h
1224 21-02-2019 05:00:00 1.06667 C 5.02 g/m*3 1.07 C 1.2 km/h
1225 21-02-2019 06:00:00 1.25 C 5.08 g/m*3 1.25 C 0.93333 km/h
Sensor: Nr:Datum:Temp:Abs-Feuchte:Windchill:Wind:
Aussen-T/F 1226 21-02-2019 07:00:00 1.21667 C 5.08 g/m*3 1.22 C 0.4 km/h
1227 21-02-2019 08:00:00 2.10833 C 5.43 g/m*3 2.11 C 0.4 km/h
1228 21-02-2019 09:00:00 2.84167 C 5.71 g/m*3 2.84 C 0.66667 km/h
1229 21-02-2019 10:00:00 3.91667 C 6.13 g/m*3 3.92 C 1.2 km/h
1230 21-02-2019 11:00:00 5.725 C 6.76 g/m*3 5.73 C 0.93333 km/h
1231 21-02-2019 12:00:00 8.33333 C 7.59 g/m*3 8.33 C 2.94167 km/h
1232 21-02-2019 13:00:00 11.3 C 8.35 g/m*3 11.3 C 6.29167 km/h
1233 21-02-2019 14:00:00 12.6 C 8.52 g/m*3 12.6 C 6.30833 km/h
1234 21-02-2019 15:00:00 13.325 C 8.59 g/m*3 13.33 C 6.44167 km/h
1235 21-02-2019 16:00:00 13.34167 C 8.58 g/m*3 13.34 C 5.49167 km/h
1236 21-02-2019 17:00:00 12.48333 C 8.77 g/m*3 12.48 C 2.13333 km/h
1237 21-02-2019 18:00:00 10.56667 C 8.39 g/m*3 10.57 C 2.4 km/h
1238 21-02-2019 19:00:00 9.74167 C 8.06 g/m*3 9.74 C 3.46667 km/h
1239 21-02-2019 20:00:00 9.18333 C 7.98 g/m*3 9.18 C 0.53333 km/h
1240 21-02-2019 21:00:00 9.325 C 8.15 g/m*3 9.32 C 0.66667 km/h
1241 21-02-2019 22:00:00 9.275 C 8.01 g/m*3 9.28 C 0.13333 km/h
1242 21-02-2019 23:00:00 9.21667 C 7.99 g/m*3 9.22 C 1.6 km/h
1243 22-02-2019 00:00:00 9.575 C 8.12 g/m*3 9.57 C 2.675 km/h
1244 22-02-2019 01:00:00 9.76667 C 8.17 g/m*3 9.77 C 0.4 km/h
1245 22-02-2019 02:00:00 9.325 C 8.12 g/m*3 9.32 C 0.53333 km/h
1246 22-02-2019 03:00:00 9.55 C 8.41 g/m*3 9.55 C 0.53333 km/h
1247 22-02-2019 04:00:00 9.66667 C 8.55 g/m*3 9.67 C 0.53333 km/h
1248 22-02-2019 05:00:00 9.34167 C 8.49 g/m*3 9.34 C 0.53333 km/h
1249 22-02-2019 06:00:00 9.34167 C 8.56 g/m*3 9.34 C 2.13333 km/h
1250 22-02-2019 07:00:00 9.225 C 8.53 g/m*3 9.23 C 0.53333 km/h
Sensor: Nr:Datum:Temp:Abs-Feuchte:Windchill:Wind:
Aussen-T/F 1251 22-02-2019 08:00:00 9.16667 C 8.55 g/m*3 9.17 C 0.66667 km/h
1252 22-02-2019 09:00:00 9.50833 C 8.74 g/m*3 9.51 C 0.13333 km/h
1253 22-02-2019 10:00:00 9.93333 C 8.98 g/m*3 9.93 C 0 km/h
1254 22-02-2019 11:00:00 10.64167 C 9.28 g/m*3 10.64 C 1.86667 km/h
1255 22-02-2019 12:00:00 11.6 C 9.14 g/m*3 11.6 C 5.1 km/h
1256 22-02-2019 13:00:00 12.46667 C 9.01 g/m*3 12.47 C 4.26667 km/h
1257 22-02-2019 14:00:00 12.83333 C 8.75 g/m*3 12.83 C 2.8 km/h
1258 22-02-2019 15:00:00 13.275 C 8.57 g/m*3 13.28 C 1.33333 km/h
1259 22-02-2019 16:00:00 12.84167 C 8.24 g/m*3 12.84 C 1.86667 km/h
1260 22-02-2019 17:00:00 11.825 C 8.03 g/m*3 11.83 C 0.26667 km/h
1261 22-02-2019 18:00:00 9.075 C 7.36 g/m*3 9.07 C 1.73333 km/h
1262 22-02-2019 19:00:00 8.55 C 7.38 g/m*3 8.55 C 4.13333 km/h
1263 22-02-2019 20:00:00 8.99167 C 7.52 g/m*3 8.99 C 1.46667 km/h
1264 22-02-2019 21:00:00 8.475 C 7.35 g/m*3 8.48 C 2.53333 km/h
1265 22-02-2019 22:00:00 6.94167 C 6.86 g/m*3 6.94 C 3.06667 km/h
1266 22-02-2019 23:00:00 5.95 C 6.63 g/m*3 5.95 C 2.66667 km/h
1267 23-02-2019 00:00:00 5.31667 C 6.41 g/m*3 5.32 C 0.8 km/h
1268 23-02-2019 01:00:00 4.55 C 6.15 g/m*3 4.55 C 0 km/h
1269 23-02-2019 02:00:00 4.18333 C 6.05 g/m*3 4.18 C 0 km/h
1270 23-02-2019 03:00:00 3.81667 C 5.96 g/m*3 3.82 C 0.93333 km/h
1271 23-02-2019 04:00:00 4.26667 C 6.15 g/m*3 4.27 C 1.33333 km/h
1272 23-02-2019 05:00:00 4.525 C 6.16 g/m*3 4.53 C 4.025 km/h
1273 23-02-2019 06:00:00 4.83333 C 6.04 g/m*3 4.83 C 0.93333 km/h
1274 23-02-2019 07:00:00 4.79167 C 5.83 g/m*3 4.79 C 1.6 km/h
1275 23-02-2019 08:00:00 4.85 C 5.72 g/m*3 4.85 C 3.74167 km/h
Sensor: Nr:Datum:Temp:Abs-Feuchte:Windchill:Wind:
Aussen-T/F 1276 23-02-2019 09:00:00 4.775 C 5.58 g/m*3 2.75 C 8.48333 km/h
1277 23-02-2019 10:00:00 4.95 C 5.54 g/m*3 3.9 C 5.34167 km/h
1278 23-02-2019 11:00:00 6.125 C 5.78 g/m*3 5.05 C 5.89167 km/h
1279 23-02-2019 12:00:00 7.625 C 5.84 g/m*3 6.17 C 8.20833 km/h
1280 23-02-2019 13:00:00 9.05833 C 5.91 g/m*3 7.61 C 9.41667 km/h
1281 23-02-2019 14:00:00 10.01667 C 5.59 g/m*3 9.38 C 6.43333 km/h
1282 23-02-2019 15:00:00 10.78333 C 4.42 g/m*3 10.58 C 5.21667 km/h
1283 23-02-2019 16:00:00 10.71667 C 4.63 g/m*3 10.72 C 3.2 km/h
1284 23-02-2019 17:00:00 7.99167 C 5.22 g/m*3 7.99 C 2.13333 km/h
1285 23-02-2019 18:00:00 5.45833 C 4.97 g/m*3 5.46 C 0 km/h
1286 23-02-2019 19:00:00 4.36667 C 4.82 g/m*3 4.37 C 0 km/h
1287 23-02-2019 20:00:00 3.38333 C 4.64 g/m*3 3.38 C 0 km/h
1288 23-02-2019 21:00:00 2.03333 C 4.42 g/m*3 2.03 C 0 km/h
1289 23-02-2019 22:00:00 0.98333 C 4.29 g/m*3 0.98 C 0 km/h
1290 23-02-2019 23:00:00 0.45833 C 4.18 g/m*3 0.46 C 0 km/h
1291 24-02-2019 00:00:00 -0.25833 C 4.07 g/m*3 -0.26 C 0 km/h
1292 24-02-2019 01:00:00 -0.66667 C 4.03 g/m*3 -0.67 C 0 km/h
1293 24-02-2019 02:00:00 -1.16667 C 3.93 g/m*3 -1.17 C 0 km/h
1294 24-02-2019 03:00:00 -1.5 C 3.89 g/m*3 -1.5 C 0 km/h
1295 24-02-2019 04:00:00 -1.73333 C 3.87 g/m*3 -1.73 C 0 km/h
1296 24-02-2019 05:00:00 -1.875 C 3.83 g/m*3 -1.88 C 0 km/h
1297 24-02-2019 06:00:00 -2.06667 C 3.8 g/m*3 -2.07 C 0 km/h
1298 24-02-2019 07:00:00 -2.35833 C 3.75 g/m*3 -2.36 C 0 km/h
1299 24-02-2019 08:00:00 -2.10833 C 3.85 g/m*3 -2.11 C 0 km/h
1300 24-02-2019 09:00:00 -1.49167 C 4.01 g/m*3 -1.49 C 0 km/h
Sensor: Nr:Datum:Temp:Abs-Feuchte:Windchill:Wind:
Aussen-T/F 1301 24-02-2019 10:00:00 0.36667 C 4.41 g/m*3 0.37 C 0 km/h
1302 24-02-2019 11:00:00 4.09167 C 4.98 g/m*3 4.09 C 0 km/h
1303 24-02-2019 12:00:00 7.35 C 5.24 g/m*3 7.35 C 0 km/h
1304 24-02-2019 13:00:00 10.45833 C 4.27 g/m*3 10.46 C 4.40833 km/h
1305 24-02-2019 14:00:00 11.89167 C 3.86 g/m*3 11.89 C 6.7 km/h
1306 24-02-2019 15:00:00 12.41667 C 4.27 g/m*3 12.42 C 2.8 km/h
1307 24-02-2019 16:00:00 11.80833 C 4.9 g/m*3 11.81 C 3.2 km/h
1308 24-02-2019 17:00:00 10.3 C 5.02 g/m*3 10.3 C 0.4 km/h
1309 24-02-2019 18:00:00 8.44167 C 4.82 g/m*3 8.44 C 4 km/h
1310 24-02-2019 19:00:00 6.86667 C 4.69 g/m*3 6.87 C 3.73333 km/h
1311 24-02-2019 20:00:00 4.93333 C 4.49 g/m*3 4.93 C 0.26667 km/h
1312 24-02-2019 21:00:00 3.36667 C 4.36 g/m*3 3.37 C 0 km/h
1313 24-02-2019 22:00:00 2.54167 C 4.29 g/m*3 2.54 C 0 km/h
1314 24-02-2019 23:00:00 1.81667 C 4.23 g/m*3 1.82 C 0 km/h
1315 25-02-2019 00:00:00 1.175 C 4.15 g/m*3 1.18 C 0 km/h
1316 25-02-2019 01:00:00 0.925 C 4.18 g/m*3 0.93 C 0 km/h
1317 25-02-2019 02:00:00 0.13333 C 4.09 g/m*3 0.13 C 0 km/h
1318 25-02-2019 03:00:00 -0.00833 C 4.07 g/m*3 -0.01 C 0 km/h
1319 25-02-2019 04:00:00 -0.58333 C 4.01 g/m*3 -0.58 C 0 km/h
1320 25-02-2019 05:00:00 -0.70833 C 4.02 g/m*3 -0.71 C 0.66667 km/h
1321 25-02-2019 06:00:00 -0.86667 C 4.01 g/m*3 -0.87 C 0.13333 km/h
1322 25-02-2019 07:00:00 -1.21667 C 3.93 g/m*3 -1.22 C 0 km/h
1323 25-02-2019 08:00:00 -1.2 C 4 g/m*3 -1.2 C 0 km/h
1324 25-02-2019 09:00:00 -0.69167 C 4.1 g/m*3 -0.69 C 0 km/h
1325 25-02-2019 10:00:00 0.81667 C 4.46 g/m*3 0.82 C 0 km/h
Sensor: Nr:Datum:Temp:Abs-Feuchte:Windchill:Wind:
Aussen-T/F 1326 25-02-2019 11:00:00 4.675 C 5.17 g/m*3 4.68 C 1.06667 km/h
1327 25-02-2019 12:00:00 8.70833 C 5.81 g/m*3 8.71 C 1.06667 km/h
1328 25-02-2019 13:00:00 12.55 C 5.88 g/m*3 12.55 C 0.26667 km/h
1329 25-02-2019 14:00:00 14.74167 C 5.89 g/m*3 14.74 C 1.86667 km/h
1330 25-02-2019 15:00:00 14.175 C 6.05 g/m*3 14.18 C 1.73333 km/h
1331 25-02-2019 16:00:00 14.375 C 6.12 g/m*3 14.38 C 2.13333 km/h
1332 25-02-2019 17:00:00 13.64167 C 6.24 g/m*3 13.64 C 5.6 km/h
1333 25-02-2019 18:00:00 11.1 C 6.03 g/m*3 11.1 C 5.6 km/h
1334 25-02-2019 19:00:00 9.075 C 5.92 g/m*3 9.07 C 0.4 km/h
1335 25-02-2019 20:00:00 7.04167 C 5.67 g/m*3 7.04 C 0 km/h
1336 25-02-2019 21:00:00 5.575 C 5.41 g/m*3 5.58 C 0 km/h
1337 25-02-2019 22:00:00 4.55 C 5.24 g/m*3 4.55 C 0 km/h
1338 25-02-2019 23:00:00 3.25 C 5.05 g/m*3 3.25 C 0 km/h
1339 26-02-2019 00:00:00 2.425 C 4.92 g/m*3 2.42 C 0 km/h
1340 26-02-2019 01:00:00 1.93333 C 4.91 g/m*3 1.93 C 0 km/h
1341 26-02-2019 02:00:00 1.39167 C 4.78 g/m*3 1.39 C 0 km/h
1342 26-02-2019 03:00:00 0.63333 C 4.61 g/m*3 0.63 C 0 km/h
1343 26-02-2019 04:00:00 0.325 C 4.56 g/m*3 0.33 C 0 km/h
1344 26-02-2019 05:00:00 0.21667 C 4.58 g/m*3 0.22 C 0.8 km/h
1345 26-02-2019 06:00:00 -0.31667 C 4.4 g/m*3 -0.32 C 0.13333 km/h
1346 26-02-2019 07:00:00 -0.48333 C 4.39 g/m*3 -0.48 C 0.13333 km/h
1347 26-02-2019 08:00:00 -0.10833 C 4.54 g/m*3 -0.11 C 0.53333 km/h
1348 26-02-2019 09:00:00 0.80833 C 4.85 g/m*3 0.81 C 0.13333 km/h
1349 26-02-2019 10:00:00 2.60833 C 5.47 g/m*3 2.61 C 0.13333 km/h
1350 26-02-2019 11:00:00 5.75 C 6.19 g/m*3 5.75 C 0 km/h
Sensor: Nr:Datum:Temp:Abs-Feuchte:Windchill:Wind:
Aussen-T/F 1351 26-02-2019 12:00:00 9.50833 C 6.6 g/m*3 9.51 C 0 km/h
1352 26-02-2019 13:00:00 13.85833 C 7.8 g/m*3 13.86 C 0 km/h
1353 26-02-2019 14:00:00 16.15833 C 7.61 g/m*3 16.16 C 0 km/h
1354 26-02-2019 15:00:00 15.49167 C 7.3 g/m*3 15.49 C 0 km/h
1355 26-02-2019 16:00:00 15.44167 C 7.31 g/m*3 15.44 C 3.33333 km/h
1356 26-02-2019 17:00:00 14.75833 C 7.39 g/m*3 14.76 C 6.13333 km/h
1357 26-02-2019 18:00:00 12.56667 C 7.02 g/m*3 12.57 C 4.93333 km/h
1358 26-02-2019 19:00:00 10.34167 C 6.85 g/m*3 10.34 C 0.53333 km/h
1359 26-02-2019 20:00:00 8.18333 C 6.39 g/m*3 8.18 C 0 km/h
1360 26-02-2019 21:00:00 6.8 C 6.19 g/m*3 6.8 C 0 km/h
1361 26-02-2019 22:00:00 5.61667 C 5.93 g/m*3 5.62 C 0 km/h
1362 26-02-2019 23:00:00 4.56667 C 5.74 g/m*3 4.57 C 0 km/h
1363 27-02-2019 00:00:00 3.55833 C 5.51 g/m*3 3.56 C 0 km/h
1364 27-02-2019 01:00:00 2.85 C 5.36 g/m*3 2.85 C 0 km/h
1365 27-02-2019 02:00:00 2.25 C 5.22 g/m*3 2.25 C 0 km/h
1366 27-02-2019 03:00:00 1.45833 C 4.98 g/m*3 1.46 C 0 km/h
1367 27-02-2019 04:00:00 0.78333 C 4.8 g/m*3 0.78 C 0 km/h
1368 27-02-2019 05:00:00 0.5 C 4.74 g/m*3 0.5 C 0 km/h
1369 27-02-2019 06:00:00 0.125 C 4.64 g/m*3 0.13 C 0 km/h
1370 27-02-2019 07:00:00 -0.375 C 4.49 g/m*3 -0.38 C 0 km/h
1371 27-02-2019 08:00:00 -0.25833 C 4.55 g/m*3 -0.26 C 0 km/h
1372 27-02-2019 09:00:00 0.41667 C 4.79 g/m*3 0.42 C 0 km/h
1373 27-02-2019 10:00:00 2.4 C 5.52 g/m*3 2.4 C 0 km/h
1374 27-02-2019 11:00:00 5.5 C 6.68 g/m*3 5.5 C 0 km/h
1375 27-02-2019 12:00:00 9.75833 C 7.66 g/m*3 9.76 C 0 km/h
Sensor: Nr:Datum:Temp:Abs-Feuchte:Windchill:Wind:
Aussen-T/F 1376 27-02-2019 13:00:00 14.69167 C 8.26 g/m*3 14.69 C 0 km/h
1377 27-02-2019 14:00:00 17.19167 C 7.64 g/m*3 17.19 C 0 km/h
1378 27-02-2019 15:00:00 16.10833 C 7.05 g/m*3 16.11 C 0.93333 km/h
1379 27-02-2019 16:00:00 16.25 C 7 g/m*3 16.25 C 4.4 km/h
1380 27-02-2019 17:00:00 15.71667 C 6.83 g/m*3 15.72 C 6.13333 km/h
1381 27-02-2019 18:00:00 13.55833 C 6.44 g/m*3 13.56 C 4.55833 km/h
1382 27-02-2019 19:00:00 10.89167 C 6.35 g/m*3 10.89 C 0 km/h
1383 27-02-2019 20:00:00 8.7 C 6.09 g/m*3 8.7 C 0 km/h
1384 27-02-2019 21:00:00 6.8 C 5.79 g/m*3 6.8 C 0 km/h
1385 27-02-2019 22:00:00 5.55 C 5.67 g/m*3 5.55 C 0 km/h
1386 27-02-2019 23:00:00 4.83333 C 5.55 g/m*3 4.83 C 0 km/h
1387 28-02-2019 00:00:00 5.35 C 5.77 g/m*3 5.35 C 2.4 km/h
1388 28-02-2019 01:00:00 4.93333 C 5.54 g/m*3 4.93 C 0.4 km/h
1389 28-02-2019 02:00:00 3.675 C 5.4 g/m*3 3.68 C 3.20833 km/h
1390 28-02-2019 03:00:00 2.94167 C 5.27 g/m*3 2.94 C 2.66667 km/h
1391 28-02-2019 04:00:00 2.275 C 5.11 g/m*3 2.28 C 2.53333 km/h
1392 28-02-2019 05:00:00 2.35833 C 5.18 g/m*3 2.36 C 3.35 km/h
1393 28-02-2019 06:00:00 3.21667 C 5.45 g/m*3 1.38 C 6.85833 km/h
1394 28-02-2019 07:00:00 3.75 C 5.43 g/m*3 2.47 C 5.5 km/h
1395 28-02-2019 08:00:00 3.075 C 5.38 g/m*3 3.08 C 3.075 km/h
1396 28-02-2019 09:00:00 4.68333 C 5.92 g/m*3 4.68 C 3.34167 km/h
1397 28-02-2019 10:00:00 7.65833 C 6.83 g/m*3 6.03 C 9.01667 km/h
1398 28-02-2019 11:00:00 11.56667 C 7.5 g/m*3 11.57 C 12.63333 km/h
1399 28-02-2019 12:00:00 13.26667 C 7.75 g/m*3 13.27 C 11.16667 km/h
1400 28-02-2019 13:00:00 14.95833 C 8.12 g/m*3 14.96 C 11.56667 km/h
Sensor: Nr:Datum:Temp:Abs-Feuchte:Windchill:Wind:
Aussen-T/F 1401 28-02-2019 14:00:00 16.61667 C 8.6 g/m*3 16.62 C 12.89167 km/h
1402 28-02-2019 15:00:00 16.76667 C 8.7 g/m*3 16.77 C 11.15 km/h
1403 28-02-2019 16:00:00 15.20833 C 8.3 g/m*3 15.21 C 17.175 km/h
1404 28-02-2019 17:00:00 12.73333 C 7.56 g/m*3 12.73 C 18.10833 km/h
1405 28-02-2019 18:00:00 12.13333 C 7.68 g/m*3 12.13 C 9.425 km/h
1406 28-02-2019 19:00:00 11.26667 C 7.7 g/m*3 11.27 C 8.86667 km/h
1407 28-02-2019 20:00:00 11.09167 C 7.91 g/m*3 11.09 C 11.43333 km/h
1408 28-02-2019 21:00:00 10.975 C 8.07 g/m*3 9.52 C 11.83333 km/h
1409 28-02-2019 22:00:00 10.84167 C 8.1 g/m*3 9.6 C 10.20833 km/h
1410 28-02-2019 23:00:00 10.26667 C 8.27 g/m*3 9.03 C 9.525 km/h
1411 01-03-2019 00:00:00 9.075 C 8.14 g/m*3 9.07 C 4.68333 km/h
1412 01-03-2019 01:00:00 8.68333 C 8.1 g/m*3 8.68 C 4.675 km/h
1413 01-03-2019 02:00:00 8.69167 C 8.07 g/m*3 7.15 C 9.55 km/h
1414 01-03-2019 03:00:00 8.8 C 7.96 g/m*3 7.33 C 9.275 km/h
1415 01-03-2019 04:00:00 8.75833 C 7.9 g/m*3 8.12 C 5.75 km/h
1416 01-03-2019 05:00:00 8.63333 C 7.9 g/m*3 8.63 C 3.60833 km/h
1417 01-03-2019 06:00:00 8.20833 C 7.84 g/m*3 8.21 C 3.475 km/h
1418 01-03-2019 07:00:00 8.21667 C 7.96 g/m*3 8.22 C 3.60833 km/h
1419 01-03-2019 08:00:00 8.53333 C 8.13 g/m*3 8.53 C 2.8 km/h
1420 01-03-2019 09:00:00 8.68333 C 8.21 g/m*3 8.68 C 0.8 km/h
1421 01-03-2019 10:00:00 8.66667 C 8.28 g/m*3 8.67 C 0.26667 km/h
1422 01-03-2019 11:00:00 8.75833 C 8.25 g/m*3 8.76 C 2.66667 km/h
1423 01-03-2019 12:00:00 9.01667 C 8.07 g/m*3 7.09 C 12.21667 km/h
1424 01-03-2019 13:00:00 8.49167 C 7.81 g/m*3 6.79 C 10.19167 km/h
1425 01-03-2019 14:00:00 8.38333 C 7.66 g/m*3 7 C 8.475 km/h
Sensor: Nr:Datum:Temp:Abs-Feuchte:Windchill:Wind:
Aussen-T/F 1426 01-03-2019 15:00:00 8.325 C 7.57 g/m*3 7.65 C 5.63333 km/h
1427 01-03-2019 16:00:00 8.34167 C 7.65 g/m*3 8.34 C 4.68333 km/h
1428 01-03-2019 17:00:00 8.28333 C 7.66 g/m*3 8.28 C 3.21667 km/h
1429 01-03-2019 18:00:00 7.61667 C 7.21 g/m*3 5.35 C 12.5 km/h
1430 01-03-2019 19:00:00 6.9 C 6.92 g/m*3 5.29 C 8.31667 km/h
1431 01-03-2019 20:00:00 6.625 C 6.88 g/m*3 6.63 C 1.73333 km/h
1432 01-03-2019 21:00:00 6.45 C 6.78 g/m*3 6.45 C 1.2 km/h
1433 01-03-2019 22:00:00 6.375 C 6.71 g/m*3 6.38 C 1.73333 km/h
1434 01-03-2019 23:00:00 6.53333 C 6.66 g/m*3 6.53 C 0.93333 km/h
1435 02-03-2019 00:00:00 6.19167 C 6.55 g/m*3 6.19 C 4.30833 km/h
1436 02-03-2019 01:00:00 5.85 C 6.4 g/m*3 5.85 C 1.6 km/h
1437 02-03-2019 02:00:00 5.64167 C 6.43 g/m*3 5.64 C 0.93333 km/h
1438 02-03-2019 03:00:00 5.65 C 6.43 g/m*3 5.65 C 1.46667 km/h
1439 02-03-2019 04:00:00 5.7 C 6.47 g/m*3 5.7 C 0.26667 km/h
1440 02-03-2019 05:00:00 6.10833 C 6.65 g/m*3 6.11 C 4.80833 km/h
1441 02-03-2019 06:00:00 6.30833 C 6.74 g/m*3 6.31 C 3.73333 km/h
1442 02-03-2019 07:00:00 6.65 C 6.89 g/m*3 6.65 C 4.68333 km/h
1443 02-03-2019 08:00:00 7.01667 C 7.01 g/m*3 7.02 C 4.94167 km/h
1444 02-03-2019 09:00:00 7.66667 C 7.19 g/m*3 5.96 C 9.41667 km/h
1445 02-03-2019 10:00:00 8.05 C 7.28 g/m*3 6.73 C 7.925 km/h
1446 02-03-2019 11:00:00 8.99167 C 7.53 g/m*3 7.61 C 9.025 km/h
1447 02-03-2019 12:00:00 9.94167 C 7.75 g/m*3 8.71 C 9.16667 km/h
1448 02-03-2019 13:00:00 10.63333 C 7.82 g/m*3 9.66 C 8.475 km/h
1449 02-03-2019 14:00:00 11.40833 C 7.76 g/m*3 11.41 C 6.975 km/h
1450 02-03-2019 15:00:00 11.925 C 7.67 g/m*3 11.93 C 8.75 km/h
Sensor: Nr:Datum:Temp:Abs-Feuchte:Windchill:Wind:
Aussen-T/F 1451 02-03-2019 16:00:00 12.35 C 7.67 g/m*3 12.35 C 10.625 km/h
1452 02-03-2019 17:00:00 11.35833 C 7.73 g/m*3 11.36 C 14.5 km/h
1453 02-03-2019 18:00:00 10.55 C 7.84 g/m*3 9.09 C 11.28333 km/h
1454 02-03-2019 19:00:00 9.84167 C 8 g/m*3 8.11 C 12.1 km/h
1455 02-03-2019 20:00:00 9.53333 C 7.96 g/m*3 7.84 C 11.41667 km/h
1456 02-03-2019 21:00:00 9.83333 C 8.13 g/m*3 7.98 C 12.9 km/h
1457 02-03-2019 22:00:00 10.25 C 8.11 g/m*3 8.53 C 12.61667 km/h
1458 02-03-2019 23:00:00 9.96667 C 7.8 g/m*3 8.58 C 10.08333 km/h
1459 03-03-2019 00:00:00 9.05833 C 7.33 g/m*3 8.49 C 5.63333 km/h
1460 03-03-2019 01:00:00 9.175 C 7.6 g/m*3 7.47 C 11.00833 km/h
1461 03-03-2019 02:00:00 9.98333 C 7.63 g/m*3 8.19 C 12.74167 km/h
1462 03-03-2019 03:00:00 10 C 7.61 g/m*3 8.3 C 12.09167 km/h
1463 03-03-2019 04:00:00 10.225 C 7.71 g/m*3 8.5 C 12.63333 km/h
1464 03-03-2019 05:00:00 10.20833 C 7.6 g/m*3 8.39 C 13.28333 km/h
1465 03-03-2019 06:00:00 10.10833 C 7.65 g/m*3 8.51 C 11.55 km/h
1466 03-03-2019 07:00:00 10.13333 C 7.68 g/m*3 8.28 C 13.425 km/h
1467 03-03-2019 08:00:00 10.31667 C 7.81 g/m*3 7.58 C 22.11667 km/h
1468 03-03-2019 09:00:00 10.875 C 8.06 g/m*3 8.13 C 24.125 km/h
1469 03-03-2019 10:00:00 11.15833 C 8.19 g/m*3 11.16 C 26.01667 km/h
1470 03-03-2019 11:00:00 11.00833 C 8.21 g/m*3 11.01 C 15.16667 km/h
1471 03-03-2019 12:00:00 11.225 C 8.33 g/m*3 11.23 C 16.36667 km/h
1472 03-03-2019 13:00:00 11.73333 C 8.44 g/m*3 11.73 C 11.15833 km/h
1473 03-03-2019 14:00:00 11.79167 C 8.42 g/m*3 11.79 C 13.15833 km/h
1474 03-03-2019 15:00:00 11.7 C 8.5 g/m*3 11.7 C 14.625 km/h
1475 03-03-2019 16:00:00 11.7 C 8.52 g/m*3 11.7 C 14.36667 km/h
Sensor: Nr:Datum:Temp:Abs-Feuchte:Windchill:Wind:
Aussen-T/F 1476 03-03-2019 17:00:00 11.9 C 8.41 g/m*3 11.9 C 13.43333 km/h
1477 03-03-2019 18:00:00 12.18333 C 8.35 g/m*3 12.18 C 14.5 km/h
1478 03-03-2019 19:00:00 12.28333 C 8.23 g/m*3 12.28 C 13.83333 km/h
1479 03-03-2019 20:00:00 12.33333 C 8.27 g/m*3 12.33 C 14.36667 km/h
1480 03-03-2019 21:00:00 12.33333 C 8.39 g/m*3 12.33 C 21.05 km/h
1481 03-03-2019 22:00:00 12.525 C 8.43 g/m*3 12.53 C 18.36667 km/h
1482 03-03-2019 23:00:00 12.75833 C 8.24 g/m*3 12.76 C 6.43333 km/h
1483 04-03-2019 00:00:00 13.10833 C 8.13 g/m*3 13.11 C 8.33333 km/h
1484 04-03-2019 01:00:00 13.50833 C 8.02 g/m*3 13.51 C 13.54167 km/h
1485 04-03-2019 02:00:00 12.66667 C 8.38 g/m*3 12.67 C 27.74167 km/h
1486 04-03-2019 03:00:00 11.79167 C 8.46 g/m*3 11.79 C 18.10833 km/h
1487 04-03-2019 04:00:00 11.675 C 8.51 g/m*3 11.68 C 10.75 km/h
1488 04-03-2019 05:00:00 11.63333 C 8.34 g/m*3 11.63 C 9.26667 km/h
1489 04-03-2019 06:00:00 11.45 C 8.13 g/m*3 11.45 C 12.20833 km/h
1490 04-03-2019 07:00:00 12 C 7.87 g/m*3 12 C 16.9 km/h
1491 04-03-2019 08:00:00 11.49167 C 7.55 g/m*3 11.49 C 31.91667 km/h
1492 04-03-2019 09:00:00 9.39167 C 6.9 g/m*3 6.12 C 25.475 km/h
1493 04-03-2019 10:00:00 9.90833 C 7.15 g/m*3 6.92 C 23.85833 km/h
1494 04-03-2019 11:00:00 11.23333 C 7.03 g/m*3 11.23 C 27.36667 km/h
1495 04-03-2019 12:00:00 10.98333 C 7.29 g/m*3 8.02 C 27.63333 km/h
1496 04-03-2019 13:00:00 9.73333 C 7.77 g/m*3 6.6 C 24.925 km/h
1497 04-03-2019 14:00:00 9.44167 C 7.56 g/m*3 6.35 C 23.44167 km/h
1498 04-03-2019 15:00:00 7.1 C 6.58 g/m*3 4.35 C 14.9 km/h
1499 04-03-2019 16:00:00 7.54167 C 6.39 g/m*3 4.79 C 15.7 km/h
1500 04-03-2019 17:00:00 7.4 C 6.26 g/m*3 5.15 C 12.1 km/h
Sensor: Nr:Datum:Temp:Abs-Feuchte:Windchill:Wind:
Aussen-T/F 1501 04-03-2019 18:00:00 6.96667 C 6.22 g/m*3 4.79 C 11.15 km/h
1502 04-03-2019 19:00:00 6.86667 C 6.25 g/m*3 4.1 C 14.63333 km/h
1503 04-03-2019 20:00:00 6.95 C 6.29 g/m*3 4.51 C 12.625 km/h
1504 04-03-2019 21:00:00 6.61667 C 6.29 g/m*3 4.54 C 10.225 km/h
1505 04-03-2019 22:00:00 7.09167 C 6.45 g/m*3 4.2 C 15.96667 km/h
1506 04-03-2019 23:00:00 6.7 C 6.36 g/m*3 4.47 C 11.13333 km/h
1507 05-03-2019 00:00:00 6.875 C 6.26 g/m*3 4.45 C 12.475 km/h
1508 05-03-2019 01:00:00 6.875 C 6.19 g/m*3 4.38 C 12.9 km/h
1509 05-03-2019 02:00:00 6.79167 C 6.11 g/m*3 3.57 C 17.96667 km/h
1510 05-03-2019 03:00:00 6.74167 C 6.13 g/m*3 3.6 C 17.16667 km/h
1511 05-03-2019 04:00:00 6.425 C 6.04 g/m*3 3.58 C 14.49167 km/h
1512 05-03-2019 05:00:00 6.35 C 6.01 g/m*3 3.45 C 14.76667 km/h
1513 05-03-2019 06:00:00 6.24167 C 5.88 g/m*3 3.46 C 13.83333 km/h
1514 05-03-2019 07:00:00 6.475 C 5.93 g/m*3 3.06 C 18.90833 km/h
1515 05-03-2019 08:00:00 6.64167 C 6.07 g/m*3 3.23 C 19.16667 km/h
1516 05-03-2019 09:00:00 6.50833 C 6.25 g/m*3 3.51 C 15.7 km/h
1517 05-03-2019 10:00:00 6.625 C 6.44 g/m*3 4.3 C 11.56667 km/h
1518 05-03-2019 11:00:00 6.99167 C 6.53 g/m*3 4.61 C 12.36667 km/h
1519 05-03-2019 12:00:00 7.3 C 6.45 g/m*3 4.77 C 13.7 km/h
1520 05-03-2019 13:00:00 7.96667 C 6.58 g/m*3 5.81 C 12.23333 km/h
1521 05-03-2019 14:00:00 8.65 C 6.68 g/m*3 6.48 C 13.3 km/h
1522 05-03-2019 15:00:00 8.95833 C 6.59 g/m*3 7.12 C 11.55833 km/h
1523 05-03-2019 16:00:00 9.81667 C 6.76 g/m*3 8.31 C 10.625 km/h
1524 05-03-2019 17:00:00 9.34167 C 6.68 g/m*3 7.93 C 9.54167 km/h
1525 05-03-2019 18:00:00 7.13333 C 6.3 g/m*3 6.21 C 5.89167 km/h
Sensor: Nr:Datum:Temp:Abs-Feuchte:Windchill:Wind:
Aussen-T/F 1526 05-03-2019 19:00:00 6.55 C 6.21 g/m*3 5.54 C 5.88333 km/h
1527 05-03-2019 20:00:00 5.46667 C 5.97 g/m*3 5.47 C 1.46667 km/h
1528 05-03-2019 21:00:00 4.275 C 5.8 g/m*3 4.28 C 0.66667 km/h
1529 05-03-2019 22:00:00 4.70833 C 6.13 g/m*3 4.71 C 0.26667 km/h
1530 05-03-2019 23:00:00 5.26667 C 6.36 g/m*3 5.27 C 0 km/h
1531 06-03-2019 00:00:00 5.65 C 6.5 g/m*3 5.65 C 0.66667 km/h
1532 06-03-2019 01:00:00 6.15 C 6.71 g/m*3 6.15 C 0.4 km/h
1533 06-03-2019 02:00:00 7.03333 C 6.98 g/m*3 7.03 C 3.46667 km/h
1534 06-03-2019 03:00:00 7 C 6.93 g/m*3 7 C 0.26667 km/h
1535 06-03-2019 04:00:00 6.81667 C 6.97 g/m*3 6.82 C 2.675 km/h
1536 06-03-2019 05:00:00 7.175 C 6.99 g/m*3 6.1 C 6.43333 km/h
1537 06-03-2019 06:00:00 6.40833 C 6.68 g/m*3 6.41 C 2.675 km/h
1538 06-03-2019 07:00:00 5.44167 C 6.38 g/m*3 5.44 C 1.2 km/h
1539 06-03-2019 08:00:00 6.43333 C 6.8 g/m*3 6.43 C 2.93333 km/h
1540 06-03-2019 09:00:00 8.15833 C 7.04 g/m*3 8.16 C 2.66667 km/h
1541 06-03-2019 10:00:00 10.00833 C 7.18 g/m*3 10.01 C 4.025 km/h
1542 06-03-2019 11:00:00 12.275 C 7.09 g/m*3 12.28 C 7.24167 km/h
1543 06-03-2019 12:00:00 13.31667 C 6.85 g/m*3 13.32 C 6.58333 km/h
1544 06-03-2019 13:00:00 13.375 C 7.08 g/m*3 13.38 C 5.35 km/h
1545 06-03-2019 14:00:00 13.7 C 7.31 g/m*3 13.7 C 2.66667 km/h
1546 06-03-2019 15:00:00 14.56667 C 7.34 g/m*3 14.57 C 3.875 km/h
1547 06-03-2019 16:00:00 15.19167 C 7.45 g/m*3 15.19 C 4.14167 km/h
1548 06-03-2019 17:00:00 13.93333 C 8.2 g/m*3 13.93 C 3.475 km/h
1549 06-03-2019 18:00:00 13.00833 C 8.24 g/m*3 13.01 C 4.26667 km/h
1550 06-03-2019 19:00:00 11.65833 C 8.48 g/m*3 11.66 C 1.86667 km/h
Sensor: Nr:Datum:Temp:Abs-Feuchte:Windchill:Wind:
Aussen-T/F 1551 06-03-2019 20:00:00 10.65 C 8.31 g/m*3 10.65 C 0.4 km/h
1552 06-03-2019 21:00:00 10.675 C 8.25 g/m*3 10.68 C 0.4 km/h
1553 06-03-2019 22:00:00 10.66667 C 8.25 g/m*3 10.67 C 1.33333 km/h
1554 06-03-2019 23:00:00 11.175 C 8.23 g/m*3 11.18 C 3.475 km/h
1555 07-03-2019 00:00:00 11.05833 C 8.41 g/m*3 11.06 C 3.33333 km/h
1556 07-03-2019 01:00:00 10.93333 C 8.72 g/m*3 10.93 C 2.26667 km/h
1557 07-03-2019 02:00:00 10.025 C 8.63 g/m*3 10.03 C 0.53333 km/h
1558 07-03-2019 03:00:00 9.58333 C 8.47 g/m*3 9.58 C 1.33333 km/h
1559 07-03-2019 04:00:00 10.08333 C 8.37 g/m*3 10.08 C 3.46667 km/h
1560 07-03-2019 05:00:00 11.45 C 8.2 g/m*3 11.45 C 9.40833 km/h
1561 07-03-2019 06:00:00 12.05833 C 7.91 g/m*3 12.06 C 17.16667 km/h
1562 07-03-2019 07:00:00 11.325 C 7.59 g/m*3 11.33 C 24.53333 km/h
1563 07-03-2019 08:00:00 10.69167 C 7.45 g/m*3 7.94 C 23.58333 km/h
1564 07-03-2019 09:00:00 10.06667 C 7.8 g/m*3 7.2 C 22.90833 km/h
1565 07-03-2019 10:00:00 10.225 C 7.83 g/m*3 7.22 C 25.19167 km/h
1566 07-03-2019 11:00:00 9.8 C 7.79 g/m*3 6.61 C 25.88333 km/h
1567 07-03-2019 12:00:00 10.78333 C 7.37 g/m*3 8.11 C 22.94167 km/h
1568 07-03-2019 13:00:00 12 C 7.32 g/m*3 12 C 19.70833 km/h
1569 07-03-2019 14:00:00 10.40833 C 7.53 g/m*3 8.26 C 16.36667 km/h
1570 07-03-2019 15:00:00 10.825 C 7.33 g/m*3 8.72 C 16.9 km/h
1571 07-03-2019 16:00:00 9.88333 C 7.38 g/m*3 7.88 C 14.09167 km/h
1572 07-03-2019 17:00:00 10.14167 C 7.11 g/m*3 8.18 C 14.23333 km/h
1573 07-03-2019 18:00:00 9.45 C 6.57 g/m*3 7.2 C 15.3 km/h
1574 07-03-2019 19:00:00 8.46667 C 6.77 g/m*3 6.09 C 14.5 km/h
1575 07-03-2019 20:00:00 8.64167 C 6.6 g/m*3 5.82 C 18.5 km/h
Sensor: Nr:Datum:Temp:Abs-Feuchte:Windchill:Wind:
Aussen-T/F 1576 07-03-2019 21:00:00 9.23333 C 6.67 g/m*3 6.58 C 18.36667 km/h
1577 07-03-2019 22:00:00 9.2 C 6.67 g/m*3 6.59 C 17.83333 km/h
1578 07-03-2019 23:00:00 8.64167 C 6.63 g/m*3 6.51 C 13.03333 km/h
1579 08-03-2019 00:00:00 7.65833 C 6.81 g/m*3 5.87 C 9.80833 km/h
1580 08-03-2019 01:00:00 7.05833 C 6.68 g/m*3 4.88 C 11.275 km/h
1581 08-03-2019 02:00:00 8.15833 C 6.46 g/m*3 5.35 C 17.3 km/h
1582 08-03-2019 03:00:00 8.15 C 6.27 g/m*3 5.34 C 17.3 km/h
1583 08-03-2019 04:00:00 8.05 C 6.32 g/m*3 5.45 C 15.43333 km/h
1584 08-03-2019 05:00:00 7.8 C 6.38 g/m*3 4.91 C 17.3 km/h
1585 08-03-2019 06:00:00 7.60833 C 6.44 g/m*3 4.49 C 18.775 km/h
1586 08-03-2019 07:00:00 7.7 C 6.52 g/m*3 4.39 C 20.775 km/h
1587 08-03-2019 08:00:00 7.85 C 6.69 g/m*3 5.2 C 15.43333 km/h
1588 08-03-2019 09:00:00 7.68333 C 6.91 g/m*3 5.2 C 13.96667 km/h
1589 08-03-2019 10:00:00 7.75 C 6.92 g/m*3 5.57 C 12.1 km/h
1590 08-03-2019 11:00:00 8.65833 C 6.84 g/m*3 6.53 C 13.03333 km/h
1591 08-03-2019 12:00:00 9.21667 C 6.44 g/m*3 7.03 C 14.36667 km/h
1592 08-03-2019 13:00:00 9.8 C 6.39 g/m*3 7.63 C 15.3 km/h
1593 08-03-2019 14:00:00 10.34167 C 6.17 g/m*3 8.32 C 15.16667 km/h
1594 08-03-2019 15:00:00 11.25 C 6.3 g/m*3 11.25 C 14.5 km/h
1595 08-03-2019 16:00:00 10.26667 C 6.7 g/m*3 8.71 C 11.53333 km/h
1596 08-03-2019 17:00:00 9.15833 C 6.91 g/m*3 7.81 C 9.00833 km/h
1597 08-03-2019 18:00:00 7.425 C 6.79 g/m*3 6.63 C 5.625 km/h
1598 08-03-2019 19:00:00 6.83333 C 6.73 g/m*3 6.83 C 1.06667 km/h
1599 08-03-2019 20:00:00 6.3 C 6.63 g/m*3 6.3 C 0 km/h
1600 08-03-2019 21:00:00 6.525 C 6.71 g/m*3 6.53 C 2.54167 km/h
Sensor: Nr:Datum:Temp:Abs-Feuchte:Windchill:Wind:
Aussen-T/F 1601 08-03-2019 22:00:00 7.025 C 6.63 g/m*3 7.03 C 4.41667 km/h
1602 08-03-2019 23:00:00 8.25833 C 6.55 g/m*3 7.31 C 6.56667 km/h
1603 09-03-2019 00:00:00 8.56667 C 6.47 g/m*3 6.58 C 11.96667 km/h
1604 09-03-2019 01:00:00 9.15833 C 6.47 g/m*3 6.65 C 16.9 km/h
1605 09-03-2019 02:00:00 9.375 C 6.54 g/m*3 6.32 C 22.91667 km/h
1606 09-03-2019 03:00:00 9.03333 C 6.75 g/m*3 5.29 C 30.29167 km/h
1607 09-03-2019 04:00:00 7.95833 C 7 g/m*3 4.14 C 27.08333 km/h
1608 09-03-2019 05:00:00 7.775 C 7.12 g/m*3 4.54 C 20.24167 km/h
1609 09-03-2019 06:00:00 8.08333 C 7.31 g/m*3 5.71 C 13.83333 km/h
1610 09-03-2019 07:00:00 8.63333 C 7.51 g/m*3 6.69 C 11.83333 km/h
1611 09-03-2019 08:00:00 9.45 C 7.73 g/m*3 7.42 C 13.55833 km/h
1612 09-03-2019 09:00:00 10.15833 C 7.94 g/m*3 7.91 C 16.76667 km/h
1613 09-03-2019 10:00:00 10.50833 C 7.9 g/m*3 8.79 C 13.03333 km/h
1614 09-03-2019 11:00:00 10.925 C 7.95 g/m*3 9.07 C 14.9 km/h
1615 09-03-2019 12:00:00 11.71667 C 8.03 g/m*3 11.72 C 19.98333 km/h
1616 09-03-2019 13:00:00 12.525 C 8.21 g/m*3 12.53 C 17.7 km/h
1617 09-03-2019 14:00:00 13.48333 C 8.15 g/m*3 13.48 C 25.86667 km/h
1618 09-03-2019 15:00:00 13.30833 C 7.96 g/m*3 13.31 C 26.675 km/h
1619 09-03-2019 16:00:00 13.39167 C 7.37 g/m*3 13.39 C 29.625 km/h
1620 09-03-2019 17:00:00 13.05833 C 6.9 g/m*3 13.06 C 23.46667 km/h
1621 09-03-2019 18:00:00 12.01667 C 6.68 g/m*3 12.02 C 23.46667 km/h
1622 09-03-2019 19:00:00 10.65833 C 7.27 g/m*3 8.99 C 12.89167 km/h
1623 09-03-2019 20:00:00 9.45 C 7.46 g/m*3 9.45 C 3.89167 km/h
1624 09-03-2019 21:00:00 9.66667 C 7.56 g/m*3 8.81 C 7.11667 km/h
1625 09-03-2019 22:00:00 9.60833 C 7.33 g/m*3 8.74 C 7.125 km/h
Sensor: Nr:Datum:Temp:Abs-Feuchte:Windchill:Wind:
Aussen-T/F 1626 09-03-2019 23:00:00 10.34167 C 6.85 g/m*3 8.48 C 13.83333 km/h
1627 10-03-2019 00:00:00 10.11667 C 6.59 g/m*3 8.44 C 12.08333 km/h
1628 10-03-2019 01:00:00 9.66667 C 6.48 g/m*3 8.91 C 6.70833 km/h
1629 10-03-2019 02:00:00 9.40833 C 6.66 g/m*3 8.71 C 6.29167 km/h
1630 10-03-2019 03:00:00 9.1 C 6.86 g/m*3 9.1 C 1.06667 km/h
1631 10-03-2019 04:00:00 8.325 C 7.18 g/m*3 8.32 C 0 km/h
1632 10-03-2019 05:00:00 7.8 C 7.42 g/m*3 7.8 C 0 km/h
1633 10-03-2019 06:00:00 7.475 C 7.47 g/m*3 7.48 C 0 km/h
1634 10-03-2019 07:00:00 7.675 C 7.68 g/m*3 7.68 C 0 km/h
1635 10-03-2019 08:00:00 8.86667 C 8.38 g/m*3 7.69 C 7.925 km/h
1636 10-03-2019 09:00:00 10.58333 C 9.28 g/m*3 9.25 C 10.475 km/h
1637 10-03-2019 10:00:00 11.95833 C 9.92 g/m*3 11.96 C 9.825 km/h
1638 10-03-2019 11:00:00 13.14167 C 9.01 g/m*3 13.14 C 21.175 km/h
1639 10-03-2019 12:00:00 14.125 C 8.78 g/m*3 14.13 C 24.65833 km/h
1640 10-03-2019 13:00:00 14.4 C 7.98 g/m*3 14.4 C 30.575 km/h
1641 10-03-2019 14:00:00 14.40833 C 6.43 g/m*3 14.41 C 39.13333 km/h
1642 10-03-2019 15:00:00 13.55833 C 5.9 g/m*3 13.56 C 37 km/h
1643 10-03-2019 16:00:00 12.53333 C 5.53 g/m*3 12.53 C 36.475 km/h
1644 10-03-2019 17:00:00 10.38333 C 6.06 g/m*3 7.75 C 21.19167 km/h
1645 10-03-2019 18:00:00 7.69167 C 6.5 g/m*3 4.44 C 20.25 km/h
1646 10-03-2019 19:00:00 6.94167 C 6.07 g/m*3 3.5 C 20.10833 km/h
1647 10-03-2019 20:00:00 6.075 C 5.5 g/m*3 1.97 C 24.26667 km/h
1648 10-03-2019 21:00:00 5.21667 C 5.46 g/m*3 2.27 C 13.43333 km/h
1649 10-03-2019 22:00:00 5.05833 C 5.45 g/m*3 2.79 C 9.7 km/h
1650 10-03-2019 23:00:00 4.85833 C 5.41 g/m*3 2.72 C 8.99167 km/h
Sensor: Nr:Datum:Temp:Abs-Feuchte:Windchill:Wind:
Aussen-T/F 1651 11-03-2019 00:00:00 4.34167 C 5.27 g/m*3 3.1 C 5.61667 km/h
1652 11-03-2019 01:00:00 4.50833 C 5.24 g/m*3 2.11 C 9.80833 km/h
1653 11-03-2019 02:00:00 5.10833 C 5.4 g/m*3 1.94 C 14.63333 km/h
1654 11-03-2019 03:00:00 3.65833 C 5.3 g/m*3 0.78 C 11.26667 km/h
1655 11-03-2019 04:00:00 2.36667 C 5.27 g/m*3 2.37 C 1.86667 km/h
1656 11-03-2019 05:00:00 2.20833 C 5.23 g/m*3 -1.96 C 16.63333 km/h
1657 11-03-2019 06:00:00 1.74167 C 5.05 g/m*3 -0.9 C 8.71667 km/h
1658 11-03-2019 07:00:00 1.525 C 5.07 g/m*3 1.53 C 3.33333 km/h
1659 11-03-2019 08:00:00 2.31667 C 5.39 g/m*3 2.32 C 4.28333 km/h
1660 11-03-2019 09:00:00 3.34167 C 5.44 g/m*3 -0.07 C 13.7 km/h
1661 11-03-2019 10:00:00 3.925 C 5.59 g/m*3 0.76 C 13.03333 km/h
1662 11-03-2019 11:00:00 4.875 C 5.55 g/m*3 1.72 C 14.23333 km/h
1663 11-03-2019 12:00:00 5.60833 C 5.4 g/m*3 2.36 C 15.96667 km/h
1664 11-03-2019 13:00:00 6.575 C 5.41 g/m*3 3.23 C 18.5 km/h
1665 11-03-2019 14:00:00 7.04167 C 5.45 g/m*3 3.75 C 19.04167 km/h
1666 11-03-2019 15:00:00 7.63333 C 5.39 g/m*3 4.12 C 22.64167 km/h
1667 11-03-2019 16:00:00 7.26667 C 5.38 g/m*3 4.04 C 19.03333 km/h
1668 11-03-2019 17:00:00 7.175 C 5.5 g/m*3 4.88 C 12.08333 km/h
1669 11-03-2019 18:00:00 6.93333 C 5.3 g/m*3 4.6 C 11.96667 km/h
1670 11-03-2019 19:00:00 5.83333 C 5.22 g/m*3 2.89 C 14.23333 km/h
1671 11-03-2019 20:00:00 5.68333 C 5.22 g/m*3 2.75 C 13.96667 km/h
1672 11-03-2019 21:00:00 5.28333 C 5.19 g/m*3 3.06 C 9.69167 km/h
1673 11-03-2019 22:00:00 5.34167 C 5.17 g/m*3 3.32 C 8.86667 km/h
1674 11-03-2019 23:00:00 4.75 C 5.08 g/m*3 3.52 C 5.75833 km/h
1675 12-03-2019 00:00:00 4.19167 C 5.16 g/m*3 2.61 C 6.55833 km/h
Sensor: Nr:Datum:Temp:Abs-Feuchte:Windchill:Wind:
Aussen-T/F 1676 12-03-2019 01:00:00 3.225 C 5.08 g/m*3 3.23 C 4.41667 km/h
1677 12-03-2019 02:00:00 2.15833 C 4.89 g/m*3 2.16 C 3.875 km/h
1678 12-03-2019 03:00:00 1.65833 C 4.82 g/m*3 1.66 C 4.41667 km/h
1679 12-03-2019 04:00:00 1.33333 C 4.75 g/m*3 1.33 C 4.40833 km/h
1680 12-03-2019 05:00:00 1.625 C 4.88 g/m*3 1.63 C 3.6 km/h
1681 12-03-2019 06:00:00 1.76667 C 4.9 g/m*3 1.77 C 2.93333 km/h
1682 12-03-2019 07:00:00 1.93333 C 5.02 g/m*3 1.93 C 0 km/h
1683 12-03-2019 08:00:00 3.25 C 5.38 g/m*3 3.25 C 1.33333 km/h
1684 12-03-2019 09:00:00 5.20833 C 5.68 g/m*3 5.21 C 2.28333 km/h
1685 12-03-2019 10:00:00 7.4 C 5.75 g/m*3 5.31 C 11.16667 km/h
1686 12-03-2019 11:00:00 8.78333 C 5.53 g/m*3 6.67 C 13.16667 km/h
1687 12-03-2019 12:00:00 9.40833 C 5.54 g/m*3 7.58 C 12.09167 km/h
1688 12-03-2019 13:00:00 9.74167 C 5.49 g/m*3 8.26 C 10.35 km/h
1689 12-03-2019 14:00:00 10.18333 C 5.48 g/m*3 9.15 C 8.34167 km/h
1690 12-03-2019 15:00:00 10.56667 C 5.26 g/m*3 9.15 C 11.025 km/h
1691 12-03-2019 16:00:00 10.33333 C 4.82 g/m*3 9.47 C 7.65833 km/h
1692 12-03-2019 17:00:00 9.34167 C 5 g/m*3 9.34 C 1.6 km/h
1693 12-03-2019 18:00:00 8.1 C 5.1 g/m*3 8.1 C 2.275 km/h
1694 12-03-2019 19:00:00 8.725 C 4.69 g/m*3 8.73 C 4.01667 km/h
1695 12-03-2019 20:00:00 9.425 C 4.21 g/m*3 8.69 C 6.45 km/h
1696 12-03-2019 21:00:00 10.74167 C 4.5 g/m*3 9.26 C 11.68333 km/h
1697 12-03-2019 22:00:00 11.14167 C 5.45 g/m*3 11.14 C 22.93333 km/h
1698 12-03-2019 23:00:00 8.53333 C 6.56 g/m*3 5.7 C 18.36667 km/h
1699 13-03-2019 00:00:00 6.53333 C 6.06 g/m*3 3.69 C 14.63333 km/h
1700 13-03-2019 01:00:00 5.74167 C 5.67 g/m*3 2.62 C 15.3 km/h
Sensor: Nr:Datum:Temp:Abs-Feuchte:Windchill:Wind:
Aussen-T/F 1701 13-03-2019 02:00:00 5.425 C 5.6 g/m*3 3.01 C 10.75833 km/h
1702 13-03-2019 03:00:00 5.74167 C 5.51 g/m*3 3.16 C 11.95 km/h
1703 13-03-2019 04:00:00 5.53333 C 5.61 g/m*3 3.01 C 11.40833 km/h
1704 13-03-2019 05:00:00 5.34167 C 5.77 g/m*3 2.33 C 13.95833 km/h
1705 13-03-2019 06:00:00 5.16667 C 5.69 g/m*3 1.53 C 17.96667 km/h
1706 13-03-2019 07:00:00 5.46667 C 5.65 g/m*3 1.69 C 19.71667 km/h
1707 13-03-2019 08:00:00 6.08333 C 5.85 g/m*3 2.68 C 17.96667 km/h
1708 13-03-2019 09:00:00 6.5 C 5.84 g/m*3 2.96 C 19.975 km/h
1709 13-03-2019 10:00:00 6.94167 C 5.96 g/m*3 3.09 C 24.125 km/h
1710 13-03-2019 11:00:00 7.81667 C 6.14 g/m*3 4.23 C 23.98333 km/h
1711 13-03-2019 12:00:00 8.15833 C 6.22 g/m*3 4.85 C 21.975 km/h
1712 13-03-2019 13:00:00 7.95833 C 6.31 g/m*3 4.31 C 25.075 km/h
1713 13-03-2019 14:00:00 8.05 C 6.48 g/m*3 4.83 C 20.775 km/h
1714 13-03-2019 15:00:00 7.79167 C 6.54 g/m*3 4.68 C 19.175 km/h
1715 13-03-2019 16:00:00 6.825 C 6.69 g/m*3 4.15 C 13.96667 km/h
1716 13-03-2019 17:00:00 6.65833 C 6.66 g/m*3 3.48 C 17.3 km/h
1717 13-03-2019 18:00:00 6.55 C 6.6 g/m*3 3.45 C 16.5 km/h
1718 13-03-2019 19:00:00 4.95833 C 6.23 g/m*3 2.34 C 11.29167 km/h
1719 13-03-2019 20:00:00 4.94167 C 6.24 g/m*3 1.91 C 13.56667 km/h
1720 13-03-2019 21:00:00 4.94167 C 6.27 g/m*3 2.24 C 11.7 km/h
1721 13-03-2019 22:00:00 5.04167 C 6.34 g/m*3 2.97 C 8.86667 km/h
1722 13-03-2019 23:00:00 4.725 C 6.18 g/m*3 2.91 C 7.65 km/h
1723 14-03-2019 00:00:00 4.65 C 6.14 g/m*3 1.57 C 13.43333 km/h
1724 14-03-2019 01:00:00 5.13333 C 6.21 g/m*3 2.95 C 9.39167 km/h
1725 14-03-2019 02:00:00 4.81667 C 6.17 g/m*3 3.01 C 7.66667 km/h
Sensor: Nr:Datum:Temp:Abs-Feuchte:Windchill:Wind:
Aussen-T/F 1726 14-03-2019 03:00:00 4.46667 C 6.1 g/m*3 2.97 C 6.43333 km/h
1727 14-03-2019 04:00:00 5.05 C 6.36 g/m*3 3.25 C 7.78333 km/h
1728 14-03-2019 05:00:00 5.73333 C 6.54 g/m*3 3.75 C 9 km/h
1729 14-03-2019 06:00:00 6.13333 C 6.53 g/m*3 4.26 C 8.85833 km/h
1730 14-03-2019 07:00:00 6.35 C 6.48 g/m*3 3.55 C 14.1 km/h
1731 14-03-2019 08:00:00 6.70833 C 6.51 g/m*3 4.22 C 12.625 km/h
1732 14-03-2019 09:00:00 6.41667 C 6.63 g/m*3 3.93 C 12.23333 km/h
1733 14-03-2019 10:00:00 6.55 C 6.64 g/m*3 3.62 C 15.3 km/h
1734 14-03-2019 11:00:00 6.55833 C 6.71 g/m*3 3.74 C 14.5 km/h
1735 14-03-2019 12:00:00 7.15 C 6.94 g/m*3 3.89 C 19.03333 km/h
1736 14-03-2019 13:00:00 7.30833 C 7 g/m*3 3.32 C 26.825 km/h
1737 14-03-2019 14:00:00 7.33333 C 6.96 g/m*3 3.57 C 24.39167 km/h
1738 14-03-2019 15:00:00 7.69167 C 7.31 g/m*3 4.45 C 20.1 km/h
1739 14-03-2019 16:00:00 8.875 C 7.54 g/m*3 6.19 C 17.84167 km/h
1740 14-03-2019 17:00:00 9.85833 C 7.88 g/m*3 7.53 C 16.76667 km/h
1741 14-03-2019 18:00:00 9.875 C 7.7 g/m*3 8.54 C 9.68333 km/h
1742 14-03-2019 19:00:00 9.54167 C 7.07 g/m*3 7.4 C 14.61667 km/h
1743 14-03-2019 20:00:00 7.96667 C 7.02 g/m*3 6.37 C 9.13333 km/h
1744 14-03-2019 21:00:00 8.2 C 6.95 g/m*3 7.35 C 6.16667 km/h
1745 14-03-2019 22:00:00 8.38333 C 6.76 g/m*3 6.4 C 11.7 km/h
1746 14-03-2019 23:00:00 8.11667 C 6.6 g/m*3 6.08 C 11.69167 km/h
1747 15-03-2019 00:00:00 7.11667 C 6.48 g/m*3 5.42 C 8.88333 km/h
1748 15-03-2019 01:00:00 6.38333 C 6.39 g/m*3 4.55 C 8.86667 km/h
1749 15-03-2019 02:00:00 6.86667 C 6.57 g/m*3 5.62 C 6.84167 km/h
1750 15-03-2019 03:00:00 6.40833 C 6.49 g/m*3 6.41 C 4.81667 km/h
Sensor: Nr:Datum:Temp:Abs-Feuchte:Windchill:Wind:
Aussen-T/F 1751 15-03-2019 04:00:00 6.04167 C 6.5 g/m*3 6.04 C 4 km/h
1752 15-03-2019 05:00:00 7.00833 C 6.79 g/m*3 5.24 C 9.13333 km/h
1753 15-03-2019 06:00:00 7.225 C 7.08 g/m*3 7.23 C 4.16667 km/h
1754 15-03-2019 07:00:00 7.125 C 7.25 g/m*3 5.43 C 8.85833 km/h
1755 15-03-2019 08:00:00 7.49167 C 7.52 g/m*3 6.02 C 8.19167 km/h
1756 15-03-2019 09:00:00 8.2 C 7.87 g/m*3 5.67 C 15.16667 km/h
1757 15-03-2019 10:00:00 9.375 C 8.49 g/m*3 6.96 C 16.5 km/h
1758 15-03-2019 11:00:00 11.05 C 9.2 g/m*3 11.05 C 18.63333 km/h
1759 15-03-2019 12:00:00 12.38333 C 9.66 g/m*3 12.38 C 17.03333 km/h
1760 15-03-2019 13:00:00 13.11667 C 9.66 g/m*3 13.12 C 18.9 km/h
1761 15-03-2019 14:00:00 13.66667 C 9.56 g/m*3 13.67 C 21.43333 km/h
1762 15-03-2019 15:00:00 13.51667 C 9.69 g/m*3 13.52 C 17.70833 km/h
1763 15-03-2019 16:00:00 13.38333 C 9.52 g/m*3 13.38 C 19.03333 km/h
1764 15-03-2019 17:00:00 13.03333 C 9.4 g/m*3 13.03 C 16.23333 km/h
1765 15-03-2019 18:00:00 12.70833 C 9.38 g/m*3 12.71 C 20.10833 km/h
1766 15-03-2019 19:00:00 12.64167 C 9.38 g/m*3 12.64 C 14.63333 km/h
1767 15-03-2019 20:00:00 12.10833 C 9.45 g/m*3 12.11 C 14.23333 km/h
1768 15-03-2019 21:00:00 12.25 C 9.38 g/m*3 12.25 C 14.23333 km/h
1769 15-03-2019 22:00:00 12.4 C 9.31 g/m*3 12.4 C 12.61667 km/h
1770 15-03-2019 23:00:00 11.85833 C 9.28 g/m*3 11.86 C 7.78333 km/h
1771 16-03-2019 00:00:00 11.575 C 9.18 g/m*3 11.58 C 13.29167 km/h
1772 16-03-2019 01:00:00 9.79167 C 8.51 g/m*3 7.84 C 13.56667 km/h
1773 16-03-2019 02:00:00 8.93333 C 8.09 g/m*3 7.29 C 10.35 km/h
1774 16-03-2019 03:00:00 8.41667 C 7.96 g/m*3 8.42 C 1.86667 km/h
1775 16-03-2019 04:00:00 8.3 C 8.01 g/m*3 8.3 C 0 km/h
Sensor: Nr:Datum:Temp:Abs-Feuchte:Windchill:Wind:
Aussen-T/F 1776 16-03-2019 05:00:00 8.3 C 8.01 g/m*3 8.3 C 0 km/h
1777 16-03-2019 06:00:00 8.73333 C 8.35 g/m*3 8.73 C 4.7 km/h
1778 16-03-2019 07:00:00 9.88333 C 8.87 g/m*3 7.65 C 15.96667 km/h
1779 16-03-2019 08:00:00 10.375 C 8.96 g/m*3 8.85 C 11.41667 km/h
1780 16-03-2019 09:00:00 10.71667 C 9.02 g/m*3 8.87 C 14.35833 km/h
1781 16-03-2019 10:00:00 10.84167 C 8.92 g/m*3 9.04 C 14.23333 km/h
1782 16-03-2019 11:00:00 10.825 C 8.84 g/m*3 8.69 C 17.16667 km/h
1783 16-03-2019 12:00:00 11.46667 C 8.66 g/m*3 11.47 C 19.18333 km/h
1784 16-03-2019 13:00:00 11.75833 C 8.4 g/m*3 11.76 C 17.7 km/h
1785 16-03-2019 14:00:00 11.125 C 8.15 g/m*3 11.13 C 19.30833 km/h
1786 16-03-2019 15:00:00 10.94167 C 7.84 g/m*3 9.32 C 13.025 km/h
1787 16-03-2019 16:00:00 10.99167 C 7.75 g/m*3 9.43 C 12.625 km/h
1788 16-03-2019 17:00:00 10.9 C 7.58 g/m*3 9.28 C 12.9 km/h
1789 16-03-2019 18:00:00 10.69167 C 7.5 g/m*3 9.12 C 12.225 km/h
1790 16-03-2019 19:00:00 10.43333 C 7.34 g/m*3 8.53 C 14.36667 km/h
1791 16-03-2019 20:00:00 10.31667 C 7.24 g/m*3 8.57 C 12.88333 km/h
1792 16-03-2019 21:00:00 10.10833 C 7.39 g/m*3 8 C 15.43333 km/h
1793 16-03-2019 22:00:00 10.09167 C 7.47 g/m*3 7.57 C 19.16667 km/h
1794 16-03-2019 23:00:00 10.11667 C 7.48 g/m*3 7.68 C 18.36667 km/h
1795 17-03-2019 00:00:00 10.29167 C 7.45 g/m*3 7.92 C 18.23333 km/h
1796 17-03-2019 01:00:00 10.425 C 7.43 g/m*3 7.84 C 20.775 km/h
1797 17-03-2019 02:00:00 10.20833 C 7.39 g/m*3 8.06 C 15.96667 km/h
1798 17-03-2019 03:00:00 10.19167 C 7.32 g/m*3 8.37 C 13.3 km/h
1799 17-03-2019 04:00:00 10.11667 C 7.2 g/m*3 7.99 C 15.56667 km/h
1800 17-03-2019 05:00:00 10.28333 C 7.15 g/m*3 7.99 C 17.43333 km/h
Sensor: Nr:Datum:Temp:Abs-Feuchte:Windchill:Wind:
Aussen-T/F 1801 17-03-2019 06:00:00 10.23333 C 7.08 g/m*3 8.12 C 15.69167 km/h
1802 17-03-2019 07:00:00 10.24167 C 7.25 g/m*3 7.88 C 17.975 km/h
1803 17-03-2019 08:00:00 10.2 C 7.5 g/m*3 8.11 C 15.43333 km/h
1804 17-03-2019 09:00:00 10.26667 C 7.61 g/m*3 7.97 C 17.43333 km/h
1805 17-03-2019 10:00:00 9.89167 C 7.71 g/m*3 7.65 C 16.1 km/h
1806 17-03-2019 11:00:00 8.075 C 6.98 g/m*3 5.88 C 12.63333 km/h
1807 17-03-2019 12:00:00 8.78333 C 6.87 g/m*3 6.59 C 13.7 km/h
1808 17-03-2019 13:00:00 9.80833 C 7.03 g/m*3 8.07 C 12.1 km/h
1809 17-03-2019 14:00:00 10.71667 C 6.35 g/m*3 8.59 C 16.9 km/h
1810 17-03-2019 15:00:00 11.01667 C 6.55 g/m*3 11.02 C 15.03333 km/h
1811 17-03-2019 16:00:00 10.05 C 6.09 g/m*3 7.78 C 16.64167 km/h
1812 17-03-2019 17:00:00 7.89167 C 5.7 g/m*3 5.48 C 13.81667 km/h
1813 17-03-2019 18:00:00 7.01667 C 5.86 g/m*3 4.53 C 13.03333 km/h
1814 17-03-2019 19:00:00 5.95833 C 5.83 g/m*3 3.9 C 9.53333 km/h
1815 17-03-2019 20:00:00 4.51667 C 5.85 g/m*3 2.52 C 8.19167 km/h
1816 17-03-2019 21:00:00 4.025 C 5.76 g/m*3 2.33 C 6.825 km/h
1817 17-03-2019 22:00:00 3.875 C 5.66 g/m*3 1.39 C 9.68333 km/h
1818 17-03-2019 23:00:00 3.83333 C 5.53 g/m*3 1.71 C 8.20833 km/h
1819 18-03-2019 00:00:00 2.95 C 5.33 g/m*3 1.35 C 6.04167 km/h
1820 18-03-2019 01:00:00 2.55 C 5.29 g/m*3 0.4 C 7.50833 km/h
1821 18-03-2019 02:00:00 3.225 C 5.49 g/m*3 -0.07 C 12.89167 km/h
1822 18-03-2019 03:00:00 3.61667 C 5.47 g/m*3 1.77 C 7.1 km/h
1823 18-03-2019 04:00:00 3.25 C 5.41 g/m*3 2.02 C 5.2 km/h
1824 18-03-2019 05:00:00 3.10833 C 5.37 g/m*3 0.82 C 8.33333 km/h
1825 18-03-2019 06:00:00 3.95833 C 5.48 g/m*3 0.95 C 12.23333 km/h
Sensor: Nr:Datum:Temp:Abs-Feuchte:Windchill:Wind:
Aussen-T/F 1826 18-03-2019 07:00:00 4.225 C 5.58 g/m*3 1.35 C 11.825 km/h
1827 18-03-2019 08:00:00 5.04167 C 5.84 g/m*3 2.19 C 12.63333 km/h
1828 18-03-2019 09:00:00 5.06667 C 6.11 g/m*3 2.84 C 9.54167 km/h
1829 18-03-2019 10:00:00 6.36667 C 6.37 g/m*3 3.99 C 11.55 km/h
1830 18-03-2019 11:00:00 7.74167 C 6.29 g/m*3 5.14 C 14.9 km/h
1831 18-03-2019 12:00:00 8.06667 C 5.97 g/m*3 5.44 C 15.7 km/h
1832 18-03-2019 13:00:00 6.66667 C 6.43 g/m*3 5.21 C 7.51667 km/h
1833 18-03-2019 14:00:00 8.43333 C 6.18 g/m*3 6.72 C 10.21667 km/h
1834 18-03-2019 15:00:00 6.71667 C 6.54 g/m*3 6.72 C 4.55 km/h
1835 18-03-2019 16:00:00 6.875 C 6.62 g/m*3 6.88 C 3.75 km/h
1836 18-03-2019 17:00:00 7.95833 C 6.13 g/m*3 6.97 C 6.56667 km/h
1837 18-03-2019 18:00:00 7.49167 C 6.03 g/m*3 7.49 C 2.66667 km/h
1838 18-03-2019 19:00:00 5.20833 C 5.88 g/m*3 5.21 C 4.53333 km/h
1839 18-03-2019 20:00:00 4.01667 C 5.47 g/m*3 4.02 C 3.86667 km/h
1840 18-03-2019 21:00:00 3.09167 C 5.26 g/m*3 3.09 C 1.6 km/h
1841 18-03-2019 22:00:00 2.04167 C 5 g/m*3 2.04 C 0.66667 km/h
1842 18-03-2019 23:00:00 1.48333 C 4.93 g/m*3 1.48 C 0 km/h
1843 19-03-2019 00:00:00 0.93333 C 4.77 g/m*3 0.93 C 0 km/h
1844 19-03-2019 01:00:00 0.35833 C 4.62 g/m*3 0.36 C 0 km/h
1845 19-03-2019 02:00:00 -0.04167 C 4.53 g/m*3 -0.04 C 0 km/h
1846 19-03-2019 03:00:00 -0.3 C 4.46 g/m*3 -0.3 C 0 km/h
1847 19-03-2019 04:00:00 -0.70833 C 4.34 g/m*3 -0.71 C 0 km/h
1848 19-03-2019 05:00:00 -1.03333 C 4.25 g/m*3 -1.03 C 0 km/h
1849 19-03-2019 06:00:00 -1.2 C 4.22 g/m*3 -1.2 C 0 km/h
1850 19-03-2019 07:00:00 -0.375 C 4.49 g/m*3 -0.38 C 0.8 km/h
Sensor: Nr:Datum:Temp:Abs-Feuchte:Windchill:Wind:
Aussen-T/F 1851 19-03-2019 08:00:00 -0.04167 C 4.59 g/m*3 -0.04 C 0 km/h
1852 19-03-2019 09:00:00 0.675 C 4.83 g/m*3 0.68 C 0.13333 km/h
1853 19-03-2019 10:00:00 2.36667 C 5.39 g/m*3 2.37 C 0 km/h
1854 19-03-2019 11:00:00 5.125 C 5.92 g/m*3 5.13 C 1.60833 km/h
1855 19-03-2019 12:00:00 7.29167 C 5.42 g/m*3 7.29 C 3.75 km/h
1856 19-03-2019 13:00:00 8.93333 C 5.14 g/m*3 7.8 C 7.78333 km/h
1857 19-03-2019 14:00:00 9.975 C 5.3 g/m*3 9.7 C 5.09167 km/h
1858 19-03-2019 15:00:00 10.15 C 5.05 g/m*3 9.12 C 8.33333 km/h
1859 19-03-2019 16:00:00 11.51667 C 5.01 g/m*3 11.52 C 4.96667 km/h
1860 19-03-2019 17:00:00 12.00833 C 4.83 g/m*3 12.01 C 6.85 km/h
1861 19-03-2019 18:00:00 9.65 C 5.58 g/m*3 9.65 C 0 km/h
1862 19-03-2019 19:00:00 5.6 C 5.46 g/m*3 5.6 C 0 km/h
1863 19-03-2019 20:00:00 4.4 C 5.32 g/m*3 4.4 C 0 km/h
1864 19-03-2019 21:00:00 3.1 C 5.09 g/m*3 3.1 C 0 km/h
1865 19-03-2019 22:00:00 2.025 C 4.84 g/m*3 2.03 C 0 km/h
1866 19-03-2019 23:00:00 1.68333 C 4.77 g/m*3 1.68 C 0.13333 km/h
1867 20-03-2019 00:00:00 0.8 C 4.56 g/m*3 0.8 C 0 km/h
1868 20-03-2019 01:00:00 0.35833 C 4.51 g/m*3 0.36 C 0 km/h
1869 20-03-2019 02:00:00 -0.16667 C 4.38 g/m*3 -0.17 C 0 km/h
1870 20-03-2019 03:00:00 -0.55 C 4.29 g/m*3 -0.55 C 0 km/h
1871 20-03-2019 04:00:00 -0.90833 C 4.22 g/m*3 -0.91 C 0 km/h
1872 20-03-2019 05:00:00 -1.10833 C 4.18 g/m*3 -1.11 C 0 km/h
1873 20-03-2019 06:00:00 -1.225 C 4.17 g/m*3 -1.23 C 0 km/h
1874 20-03-2019 07:00:00 -1.08333 C 4.22 g/m*3 -1.08 C 0 km/h
1875 20-03-2019 08:00:00 -0.675 C 4.37 g/m*3 -0.68 C 0 km/h
Sensor: Nr:Datum:Temp:Abs-Feuchte:Windchill:Wind:
Aussen-T/F 1876 20-03-2019 09:00:00 0.575 C 4.79 g/m*3 0.57 C 0 km/h
1877 20-03-2019 10:00:00 4.26667 C 5.82 g/m*3 4.27 C 0 km/h
1878 20-03-2019 11:00:00 8.875 C 6.06 g/m*3 8.88 C 1.73333 km/h
1879 20-03-2019 12:00:00 11.63333 C 5.89 g/m*3 11.63 C 5.9 km/h
1880 20-03-2019 13:00:00 13.15833 C 5.54 g/m*3 13.16 C 6.70833 km/h
1881 20-03-2019 14:00:00 13.75833 C 5.52 g/m*3 13.76 C 6.55833 km/h
1882 20-03-2019 15:00:00 13.64167 C 5.61 g/m*3 13.64 C 6.85833 km/h
1883 20-03-2019 16:00:00 14.11667 C 5.86 g/m*3 14.12 C 8.075 km/h
1884 20-03-2019 17:00:00 14.83333 C 6.28 g/m*3 14.83 C 1.6 km/h
1885 20-03-2019 18:00:00 11.88333 C 6.7 g/m*3 11.88 C 0 km/h
1886 20-03-2019 19:00:00 8.5 C 6.26 g/m*3 8.5 C 0 km/h
1887 20-03-2019 20:00:00 6.85 C 6.08 g/m*3 6.85 C 0 km/h
1888 20-03-2019 21:00:00 5.43333 C 5.85 g/m*3 5.43 C 0 km/h
1889 20-03-2019 22:00:00 4.725 C 5.7 g/m*3 4.72 C 0 km/h
1890 20-03-2019 23:00:00 3.81667 C 5.49 g/m*3 3.82 C 0 km/h
1891 21-03-2019 00:00:00 3.31667 C 5.39 g/m*3 3.32 C 0.13333 km/h
1892 21-03-2019 01:00:00 2.55 C 5.14 g/m*3 2.55 C 0 km/h
1893 21-03-2019 02:00:00 1.81667 C 4.99 g/m*3 1.82 C 0 km/h
1894 21-03-2019 03:00:00 1.30833 C 4.87 g/m*3 1.31 C 0 km/h
1895 21-03-2019 04:00:00 0.99167 C 4.82 g/m*3 0.99 C 0 km/h
1896 21-03-2019 05:00:00 0.61667 C 4.72 g/m*3 0.62 C 0 km/h
1897 21-03-2019 06:00:00 0.33333 C 4.66 g/m*3 0.33 C 0 km/h
1898 21-03-2019 07:00:00 0.6 C 4.76 g/m*3 0.6 C 0 km/h
1899 21-03-2019 08:00:00 1.24167 C 5.01 g/m*3 1.24 C 0 km/h
1900 21-03-2019 09:00:00 2.50833 C 5.46 g/m*3 2.51 C 0 km/h
Sensor: Nr:Datum:Temp:Abs-Feuchte:Windchill:Wind:
Aussen-T/F 1901 21-03-2019 10:00:00 5.54167 C 6.37 g/m*3 5.54 C 0.13333 km/h
1902 21-03-2019 11:00:00 9.275 C 6.78 g/m*3 9.28 C 0.26667 km/h
1903 21-03-2019 12:00:00 12.99167 C 6.11 g/m*3 12.99 C 7.525 km/h
1904 21-03-2019 13:00:00 15.43333 C 5.73 g/m*3 15.43 C 4.95833 km/h
1905 21-03-2019 14:00:00 16.23333 C 5.45 g/m*3 16.23 C 5.89167 km/h
1906 21-03-2019 15:00:00 16.43333 C 5.45 g/m*3 16.43 C 5.625 km/h
1907 21-03-2019 16:00:00 17.625 C 5.67 g/m*3 17.63 C 7.775 km/h
1908 21-03-2019 17:00:00 18.01667 C 5.84 g/m*3 18.02 C 6.575 km/h
1909 21-03-2019 18:00:00 14.68333 C 6.62 g/m*3 14.68 C 5.2 km/h
1910 21-03-2019 19:00:00 10.96667 C 6.42 g/m*3 10.97 C 3.33333 km/h
1911 21-03-2019 20:00:00 9.20833 C 6.41 g/m*3 9.21 C 0.66667 km/h
1912 21-03-2019 21:00:00 7.65 C 6.05 g/m*3 7.65 C 0 km/h
1913 21-03-2019 22:00:00 6.15833 C 5.77 g/m*3 6.16 C 0 km/h
1914 21-03-2019 23:00:00 5.26667 C 5.67 g/m*3 5.27 C 0 km/h
1915 22-03-2019 00:00:00 4.425 C 5.54 g/m*3 4.43 C 0 km/h
1916 22-03-2019 01:00:00 3.69167 C 5.43 g/m*3 3.69 C 0 km/h
1917 22-03-2019 02:00:00 3.03333 C 5.27 g/m*3 3.03 C 0 km/h
1918 22-03-2019 03:00:00 2.20833 C 5.08 g/m*3 2.21 C 0 km/h
1919 22-03-2019 04:00:00 1.74167 C 5.02 g/m*3 1.74 C 0 km/h
1920 22-03-2019 05:00:00 1.53333 C 5 g/m*3 1.53 C 0 km/h
1921 22-03-2019 06:00:00 1.06667 C 4.86 g/m*3 1.07 C 0 km/h
1922 22-03-2019 07:00:00 1.24167 C 4.96 g/m*3 1.24 C 0 km/h
1923 22-03-2019 08:00:00 1.95833 C 5.26 g/m*3 1.96 C 0 km/h
1924 22-03-2019 09:00:00 3.70833 C 5.94 g/m*3 3.71 C 0 km/h
1925 22-03-2019 10:00:00 7.06667 C 7.02 g/m*3 7.07 C 0 km/h
Sensor: Nr:Datum:Temp:Abs-Feuchte:Windchill:Wind:
Aussen-T/F 1926 22-03-2019 11:00:00 11.70833 C 7.63 g/m*3 11.71 C 0 km/h
1927 22-03-2019 12:00:00 15.65 C 7.08 g/m*3 15.65 C 3.225 km/h
1928 22-03-2019 13:00:00 18.11667 C 6.47 g/m*3 18.12 C 10.20833 km/h
1929 22-03-2019 14:00:00 19.29167 C 5.97 g/m*3 19.29 C 7.38333 km/h
1930 22-03-2019 15:00:00 19.26667 C 6.4 g/m*3 19.27 C 9.55 km/h
1931 22-03-2019 16:00:00 19.83333 C 6.46 g/m*3 19.83 C 5.75833 km/h
1932 22-03-2019 17:00:00 20.95833 C 6.47 g/m*3 20.96 C 6.16667 km/h
1933 22-03-2019 18:00:00 16.7 C 7.19 g/m*3 16.7 C 4.53333 km/h
1934 22-03-2019 19:00:00 12.225 C 6.86 g/m*3 12.23 C 5.46667 km/h
1935 22-03-2019 20:00:00 10.825 C 6.74 g/m*3 10.83 C 4.66667 km/h
1936 22-03-2019 21:00:00 9.1 C 6.45 g/m*3 9.1 C 0.4 km/h
1937 22-03-2019 22:00:00 7.775 C 6.35 g/m*3 7.78 C 1.06667 km/h
1938 22-03-2019 23:00:00 6.66667 C 6.08 g/m*3 6.67 C 0 km/h
1939 23-03-2019 00:00:00 5.5 C 5.83 g/m*3 5.5 C 0 km/h
1940 23-03-2019 01:00:00 4.74167 C 5.71 g/m*3 4.74 C 0 km/h
1941 23-03-2019 02:00:00 4.05 C 5.62 g/m*3 4.05 C 0 km/h
1942 23-03-2019 03:00:00 3.69167 C 5.54 g/m*3 3.69 C 0 km/h
1943 23-03-2019 04:00:00 3.425 C 5.51 g/m*3 3.43 C 0 km/h
1944 23-03-2019 05:00:00 3.28333 C 5.44 g/m*3 3.28 C 0 km/h
1945 23-03-2019 06:00:00 2.525 C 5.25 g/m*3 2.53 C 0 km/h
1946 23-03-2019 07:00:00 4.06667 C 6.02 g/m*3 4.07 C 3.08333 km/h
1947 23-03-2019 08:00:00 6.20833 C 6.99 g/m*3 6.21 C 3.075 km/h
1948 23-03-2019 09:00:00 6.63333 C 7.14 g/m*3 6.63 C 0 km/h
1949 23-03-2019 10:00:00 7.18333 C 7.35 g/m*3 6.31 C 5.75 km/h
1950 23-03-2019 11:00:00 7.53333 C 7.43 g/m*3 6.67 C 5.89167 km/h
Sensor: Nr:Datum:Temp:Abs-Feuchte:Windchill:Wind:
Aussen-T/F 1951 23-03-2019 12:00:00 8.125 C 7.5 g/m*3 7.23 C 6.3 km/h
1952 23-03-2019 13:00:00 8.775 C 7.5 g/m*3 7.74 C 7.25833 km/h
1953 23-03-2019 14:00:00 9.45 C 7.39 g/m*3 8.03 C 9.7 km/h
1954 23-03-2019 15:00:00 10.08333 C 7.32 g/m*3 8.9 C 9.025 km/h
1955 23-03-2019 16:00:00 10.425 C 7.21 g/m*3 9.29 C 9.15833 km/h
1956 23-03-2019 17:00:00 10.425 C 7.16 g/m*3 9.64 C 7.375 km/h
1957 23-03-2019 18:00:00 9.175 C 6.9 g/m*3 9.18 C 2.4 km/h
1958 23-03-2019 19:00:00 6.80833 C 6.51 g/m*3 6.81 C 3.2 km/h
1959 23-03-2019 20:00:00 5.38333 C 6.19 g/m*3 5.38 C 0.13333 km/h
1960 23-03-2019 21:00:00 4.33333 C 5.93 g/m*3 4.33 C 0 km/h
1961 23-03-2019 22:00:00 3.55833 C 5.74 g/m*3 3.56 C 0 km/h
1962 23-03-2019 23:00:00 3.075 C 5.62 g/m*3 3.08 C 0 km/h
1963 24-03-2019 00:00:00 2.4 C 5.39 g/m*3 2.4 C 0 km/h
1964 24-03-2019 01:00:00 1.9 C 5.23 g/m*3 1.9 C 0 km/h
1965 24-03-2019 02:00:00 1.425 C 5.08 g/m*3 1.43 C 0 km/h
1966 24-03-2019 03:00:00 0.96667 C 4.92 g/m*3 0.97 C 0 km/h
1967 24-03-2019 04:00:00 0.89167 C 4.94 g/m*3 0.89 C 0 km/h
1968 24-03-2019 05:00:00 1.725 C 5.24 g/m*3 1.73 C 0.4 km/h
1969 24-03-2019 07:00:00 2.78182 C 5.62 g/m*3 2.78 C 0.29091 km/h
1970 24-03-2019 08:00:00 3.66667 C 6.02 g/m*3 3.67 C 0.13333 km/h
1971 24-03-2019 09:00:00 4.85 C 6.44 g/m*3 4.85 C 2.53333 km/h
1972 24-03-2019 10:00:00 6.875 C 7.1 g/m*3 6.88 C 3.46667 km/h
1973 24-03-2019 11:00:00 9.54167 C 7.8 g/m*3 9.54 C 4.81667 km/h
1974 24-03-2019 12:00:00 11.74167 C 8.07 g/m*3 11.74 C 9.53333 km/h
1975 24-03-2019 13:00:00 10.88333 C 8.07 g/m*3 9.16 C 13.7 km/h
Sensor: Nr:Datum:Temp:Abs-Feuchte:Windchill:Wind:
Aussen-T/F 1976 24-03-2019 14:00:00 10.64167 C 8.08 g/m*3 9.95 C 7.10833 km/h
1977 24-03-2019 15:00:00 11.09167 C 7.88 g/m*3 11.09 C 8.74167 km/h
1978 24-03-2019 16:00:00 12.03333 C 7.65 g/m*3 12.03 C 9.80833 km/h
1979 24-03-2019 17:00:00 12.28333 C 7.05 g/m*3 12.28 C 10.625 km/h
1980 24-03-2019 18:00:00 11.30833 C 6.37 g/m*3 11.31 C 8.6 km/h
1981 24-03-2019 19:00:00 9.075 C 5.77 g/m*3 8.47 C 5.775 km/h
1982 24-03-2019 20:00:00 7.18333 C 5.55 g/m*3 7.18 C 4.4 km/h
1983 24-03-2019 21:00:00 5.59167 C 5.39 g/m*3 5.59 C 0.93333 km/h
1984 24-03-2019 22:00:00 4.23333 C 5.21 g/m*3 4.23 C 0.8 km/h
1985 24-03-2019 23:00:00 3.56667 C 5.11 g/m*3 3.57 C 2.53333 km/h
1986 25-03-2019 00:00:00 3.35 C 5.02 g/m*3 3.35 C 2.93333 km/h
1987 25-03-2019 01:00:00 1.875 C 4.76 g/m*3 1.88 C 0.53333 km/h
1988 25-03-2019 02:00:00 1.89167 C 4.9 g/m*3 0.46 C 5.225 km/h
1989 25-03-2019 03:00:00 2.29167 C 4.99 g/m*3 0.45 C 6.43333 km/h
1990 25-03-2019 04:00:00 2.85833 C 5.07 g/m*3 0.76 C 7.50833 km/h
1991 25-03-2019 05:00:00 3.675 C 5.13 g/m*3 0.61 C 12.23333 km/h
1992 25-03-2019 06:00:00 3.74167 C 5.19 g/m*3 1.46 C 8.75 km/h
1993 25-03-2019 07:00:00 4.38333 C 5.53 g/m*3 2.15 C 9.01667 km/h
1994 25-03-2019 08:00:00 4.56667 C 6.01 g/m*3 2.83 C 7.25 km/h
1995 25-03-2019 09:00:00 6.15 C 6.25 g/m*3 3.41 C 13.43333 km/h
1996 25-03-2019 10:00:00 7.41667 C 5.92 g/m*3 4.58 C 16.1 km/h
1997 25-03-2019 11:00:00 7.375 C 6.01 g/m*3 4.62 C 15.43333 km/h
1998 25-03-2019 12:00:00 7.725 C 6.31 g/m*3 4.41 C 20.90833 km/h
1999 25-03-2019 13:00:00 7.55 C 6.48 g/m*3 4.34 C 19.45 km/h
2000 25-03-2019 14:00:00 7.65833 C 6.21 g/m*3 4.6 C 18.38333 km/h
Sensor: Nr:Datum:Temp:Abs-Feuchte:Windchill:Wind:
Aussen-T/F 2001 25-03-2019 15:00:00 7.18333 C 6.57 g/m*3 4.89 C 12.08333 km/h
2002 25-03-2019 16:00:00 7.29167 C 6.64 g/m*3 5.02 C 12.08333 km/h
2003 25-03-2019 17:00:00 5.71667 C 6.41 g/m*3 3.83 C 8.58333 km/h
2004 25-03-2019 18:00:00 5.3 C 6.46 g/m*3 5.3 C 3.20833 km/h
2005 25-03-2019 19:00:00 5.04167 C 6.39 g/m*3 5.04 C 2.53333 km/h
2006 25-03-2019 20:00:00 5.1 C 6.48 g/m*3 5.1 C 2.26667 km/h
2007 25-03-2019 21:00:00 5.24167 C 6.56 g/m*3 5.24 C 4.29167 km/h
2008 25-03-2019 22:00:00 5.15833 C 6.39 g/m*3 5.16 C 4.675 km/h
2009 25-03-2019 23:00:00 4.65 C 6.2 g/m*3 4.65 C 1.06667 km/h
2010 26-03-2019 00:00:00 4.49167 C 6.21 g/m*3 4.49 C 2 km/h
2011 26-03-2019 01:00:00 4.525 C 6.19 g/m*3 4.53 C 0.53333 km/h
2012 26-03-2019 02:00:00 4.375 C 6.19 g/m*3 4.38 C 0.13333 km/h
2013 26-03-2019 03:00:00 4.64167 C 6.3 g/m*3 4.64 C 0.66667 km/h
2014 26-03-2019 04:00:00 4.91667 C 6.42 g/m*3 4.92 C 1.33333 km/h
2015 26-03-2019 05:00:00 5.00833 C 6.37 g/m*3 5.01 C 2.93333 km/h
2016 26-03-2019 06:00:00 4.99167 C 6.23 g/m*3 4.99 C 2.94167 km/h
2017 26-03-2019 07:00:00 5.06667 C 6.15 g/m*3 5.07 C 2.13333 km/h
2018 26-03-2019 08:00:00 5.55 C 6 g/m*3 5.55 C 4.95 km/h
2019 26-03-2019 09:00:00 6.225 C 5.91 g/m*3 4.69 C 7.53333 km/h
2020 26-03-2019 10:00:00 6.98333 C 5.91 g/m*3 4.78 C 11.29167 km/h
2021 26-03-2019 11:00:00 7.26667 C 5.66 g/m*3 5.69 C 8.46667 km/h
2022 26-03-2019 12:00:00 8.46667 C 5.93 g/m*3 6.59 C 11.16667 km/h
2023 26-03-2019 13:00:00 8.85 C 5.76 g/m*3 7.15 C 10.625 km/h
2024 26-03-2019 14:00:00 8.875 C 5.68 g/m*3 6.88 C 12.49167 km/h
2025 26-03-2019 15:00:00 9.03333 C 5.88 g/m*3 7.8 C 8.34167 km/h
Sensor: Nr:Datum:Temp:Abs-Feuchte:Windchill:Wind:
Aussen-T/F 2026 26-03-2019 16:00:00 9.49167 C 5.89 g/m*3 7.62 C 12.5 km/h
2027 26-03-2019 17:00:00 8.43333 C 6.05 g/m*3 7.16 C 8.05 km/h
2028 26-03-2019 18:00:00 8.11667 C 6.16 g/m*3 7.38 C 5.75833 km/h
2029 26-03-2019 19:00:00 7.59167 C 6.33 g/m*3 7.59 C 0.8 km/h
2030 26-03-2019 20:00:00 7.075 C 6.4 g/m*3 7.08 C 0.4 km/h
2031 26-03-2019 21:00:00 6.81667 C 6.44 g/m*3 6.82 C 0.13333 km/h
2032 26-03-2019 22:00:00 6.51667 C 6.48 g/m*3 6.52 C 0 km/h
2033 26-03-2019 23:00:00 6.24167 C 6.42 g/m*3 6.24 C 0.26667 km/h
2034 27-03-2019 00:00:00 6.10833 C 6.4 g/m*3 6.11 C 0.8 km/h
2035 27-03-2019 01:00:00 5.575 C 6.29 g/m*3 5.58 C 0 km/h
2036 27-03-2019 02:00:00 5.25 C 6.25 g/m*3 5.25 C 0 km/h
2037 27-03-2019 03:00:00 4.9 C 6.12 g/m*3 4.9 C 0 km/h
2038 27-03-2019 04:00:00 4.05833 C 5.81 g/m*3 4.06 C 0.13333 km/h
2039 27-03-2019 05:00:00 2.91667 C 5.43 g/m*3 2.92 C 0.53333 km/h
2040 27-03-2019 06:00:00 2.1 C 5.23 g/m*3 2.1 C 0 km/h
2041 27-03-2019 07:00:00 2.6 C 5.47 g/m*3 2.6 C 0.26667 km/h
2042 27-03-2019 08:00:00 3.88333 C 5.97 g/m*3 3.88 C 0.53333 km/h
2043 27-03-2019 09:00:00 5.8 C 6.58 g/m*3 5.8 C 1.6 km/h
2044 27-03-2019 10:00:00 8.16667 C 7 g/m*3 8.17 C 2.93333 km/h
2045 27-03-2019 11:00:00 9.13333 C 6.8 g/m*3 8.58 C 5.625 km/h
2046 27-03-2019 12:00:00 10.05 C 6.55 g/m*3 9.49 C 6.16667 km/h
2047 27-03-2019 13:00:00 10.8 C 6.28 g/m*3 9.64 C 9.68333 km/h
2048 27-03-2019 14:00:00 11.05 C 6.13 g/m*3 11.05 C 6.44167 km/h
2049 27-03-2019 15:00:00 11.10833 C 6.07 g/m*3 11.11 C 7.51667 km/h
2050 27-03-2019 16:00:00 11.23333 C 6.02 g/m*3 11.23 C 6.3 km/h
Sensor: Nr:Datum:Temp:Abs-Feuchte:Windchill:Wind:
Aussen-T/F 2051 27-03-2019 17:00:00 10.975 C 5.99 g/m*3 10.77 C 5.33333 km/h
2052 27-03-2019 18:00:00 9.83333 C 6.38 g/m*3 9.83 C 0.8 km/h
2053 27-03-2019 19:00:00 7.64167 C 6.24 g/m*3 7.64 C 3.46667 km/h
2054 27-03-2019 20:00:00 6.49167 C 6.12 g/m*3 6.49 C 3.86667 km/h
2055 27-03-2019 21:00:00 5.69167 C 6.04 g/m*3 5.69 C 1.33333 km/h
2056 27-03-2019 22:00:00 4.725 C 5.79 g/m*3 4.72 C 0.4 km/h
2057 27-03-2019 23:00:00 3.475 C 5.52 g/m*3 3.48 C 0 km/h
2058 28-03-2019 00:00:00 2.925 C 5.43 g/m*3 2.93 C 0.53333 km/h
2059 28-03-2019 01:00:00 2.475 C 5.3 g/m*3 2.48 C 0 km/h
2060 28-03-2019 02:00:00 1.975 C 5.16 g/m*3 1.98 C 0 km/h
2061 28-03-2019 03:00:00 1.60833 C 5.07 g/m*3 1.61 C 0 km/h
2062 28-03-2019 04:00:00 1.375 C 5.01 g/m*3 1.38 C 0.13333 km/h
2063 28-03-2019 05:00:00 1.13333 C 4.95 g/m*3 1.13 C 0 km/h
2064 28-03-2019 06:00:00 1.59167 C 5.13 g/m*3 1.59 C 0 km/h
2065 28-03-2019 07:00:00 2.11667 C 5.32 g/m*3 2.12 C 0.26667 km/h
2066 28-03-2019 08:00:00 2.79167 C 5.55 g/m*3 2.79 C 1.33333 km/h
2067 28-03-2019 09:00:00 4.425 C 6.07 g/m*3 4.43 C 2.66667 km/h
2068 28-03-2019 10:00:00 7.30833 C 6.69 g/m*3 7.31 C 0.4 km/h
2069 28-03-2019 11:00:00 10.325 C 7.27 g/m*3 10.33 C 3.475 km/h
2070 28-03-2019 12:00:00 12.53333 C 7.36 g/m*3 12.53 C 8.33333 km/h
2071 28-03-2019 13:00:00 13.21667 C 7.57 g/m*3 13.22 C 8.33333 km/h
2072 28-03-2019 14:00:00 13.5 C 7.52 g/m*3 13.5 C 10.75833 km/h
2073 28-03-2019 15:00:00 13.4 C 7.4 g/m*3 13.4 C 8.60833 km/h
2074 28-03-2019 16:00:00 13.45833 C 7.32 g/m*3 13.46 C 9.01667 km/h
2075 28-03-2019 17:00:00 13.19167 C 7.32 g/m*3 13.19 C 6.70833 km/h
Sensor: Nr:Datum:Temp:Abs-Feuchte:Windchill:Wind:
Aussen-T/F 2076 28-03-2019 18:00:00 12.16667 C 7.58 g/m*3 12.17 C 2.53333 km/h
2077 28-03-2019 19:00:00 10.36667 C 7.52 g/m*3 10.37 C 0.93333 km/h
2078 28-03-2019 20:00:00 10.23333 C 7.49 g/m*3 10.23 C 0.53333 km/h
2079 28-03-2019 21:00:00 9.50833 C 7.27 g/m*3 9.51 C 0 km/h
2080 28-03-2019 22:00:00 7.88333 C 6.88 g/m*3 7.88 C 0.53333 km/h
2081 28-03-2019 23:00:00 6.3 C 6.5 g/m*3 6.3 C 0 km/h
2082 29-03-2019 00:00:00 5.28333 C 6.27 g/m*3 5.28 C 0 km/h
2083 29-03-2019 01:00:00 4.35 C 6 g/m*3 4.35 C 0 km/h
2084 29-03-2019 02:00:00 3.85833 C 5.89 g/m*3 3.86 C 0 km/h
2085 29-03-2019 03:00:00 3.05833 C 5.61 g/m*3 3.06 C 0 km/h
2086 29-03-2019 04:00:00 2.89167 C 5.61 g/m*3 2.89 C 0 km/h
2087 29-03-2019 05:00:00 2.18333 C 5.34 g/m*3 2.18 C 0 km/h
2088 29-03-2019 06:00:00 2.075 C 5.31 g/m*3 2.08 C 0 km/h
2089 29-03-2019 07:00:00 2.175 C 5.39 g/m*3 2.17 C 0 km/h
2090 29-03-2019 08:00:00 2.93333 C 5.69 g/m*3 2.93 C 0 km/h
2091 29-03-2019 09:00:00 4.94167 C 6.56 g/m*3 4.94 C 0 km/h
2092 29-03-2019 10:00:00 8.09167 C 7.98 g/m*3 8.09 C 0.53333 km/h
2093 29-03-2019 11:00:00 12.48333 C 8.54 g/m*3 12.48 C 9.79167 km/h
2094 29-03-2019 12:00:00 14.475 C 8.29 g/m*3 14.48 C 8.46667 km/h
2095 29-03-2019 13:00:00 15.93333 C 8.14 g/m*3 15.93 C 10.225 km/h
2096 29-03-2019 14:00:00 16.83333 C 7.91 g/m*3 16.83 C 10.89167 km/h
2097 29-03-2019 15:00:00 17.475 C 7.8 g/m*3 17.48 C 9.68333 km/h
2098 29-03-2019 16:00:00 18.41667 C 7.82 g/m*3 18.42 C 8.71667 km/h
2099 29-03-2019 17:00:00 18.94167 C 7.7 g/m*3 18.94 C 4.53333 km/h
2100 29-03-2019 18:00:00 16.95833 C 7.77 g/m*3 16.96 C 2.675 km/h
Sensor: Nr:Datum:Temp:Abs-Feuchte:Windchill:Wind:
Aussen-T/F 2101 29-03-2019 19:00:00 11.55 C 7.26 g/m*3 11.55 C 5.46667 km/h
2102 29-03-2019 20:00:00 9.86667 C 7.1 g/m*3 9.87 C 1.6 km/h
2103 29-03-2019 21:00:00 8.10833 C 6.77 g/m*3 8.11 C 0 km/h
2104 29-03-2019 22:00:00 6.7 C 6.42 g/m*3 6.7 C 0 km/h
2105 29-03-2019 23:00:00 5.575 C 6.15 g/m*3 5.58 C 0 km/h
2106 30-03-2019 00:00:00 4.59167 C 5.94 g/m*3 4.59 C 0 km/h
2107 30-03-2019 01:00:00 4 C 5.82 g/m*3 4 C 0 km/h
2108 30-03-2019 02:00:00 3.45 C 5.66 g/m*3 3.45 C 0 km/h
2109 30-03-2019 03:00:00 2.8 C 5.49 g/m*3 2.8 C 0 km/h
2110 30-03-2019 04:00:00 2.48333 C 5.4 g/m*3 2.48 C 0 km/h
2111 30-03-2019 05:00:00 1.875 C 5.19 g/m*3 1.88 C 0 km/h
2112 30-03-2019 06:00:00 1.73333 C 5.18 g/m*3 1.73 C 0 km/h
2113 30-03-2019 07:00:00 2.11667 C 5.36 g/m*3 2.12 C 0.13333 km/h
2114 30-03-2019 08:00:00 3.35833 C 5.85 g/m*3 3.36 C 0.26667 km/h
2115 30-03-2019 09:00:00 5.45 C 6.77 g/m*3 5.45 C 0 km/h
2116 30-03-2019 10:00:00 8.84167 C 7.93 g/m*3 8.84 C 0 km/h
2117 30-03-2019 11:00:00 13.74167 C 8.36 g/m*3 13.74 C 5.225 km/h
2118 30-03-2019 12:00:00 17.6 C 7.5 g/m*3 17.6 C 14.76667 km/h
2119 30-03-2019 13:00:00 19.30833 C 6.85 g/m*3 19.31 C 14.76667 km/h
2120 30-03-2019 14:00:00 19.93333 C 6.57 g/m*3 19.93 C 16.63333 km/h
2121 30-03-2019 15:00:00 20.41667 C 6.55 g/m*3 20.42 C 13.96667 km/h
2122 30-03-2019 16:00:00 20.54167 C 6.94 g/m*3 20.54 C 8.85 km/h
2123 30-03-2019 17:00:00 19.46667 C 7.22 g/m*3 19.47 C 4.29167 km/h
2124 30-03-2019 18:00:00 17.30833 C 7.89 g/m*3 17.31 C 1.86667 km/h
2125 30-03-2019 19:00:00 14.88333 C 7.55 g/m*3 14.88 C 0.8 km/h
Sensor: Nr:Datum:Temp:Abs-Feuchte:Windchill:Wind:
Aussen-T/F 2126 30-03-2019 20:00:00 13.79167 C 7.66 g/m*3 13.79 C 2.66667 km/h
2127 30-03-2019 21:00:00 12.4 C 7.6 g/m*3 12.4 C 0.93333 km/h
2128 30-03-2019 22:00:00 11.125 C 7.57 g/m*3 11.13 C 0 km/h
2129 30-03-2019 23:00:00 10.80833 C 7.47 g/m*3 10.81 C 0 km/h

Maximal/Minimal-Werte vom 01.01.2019 - 30.03.2019

Sensor Min Max Avg
Temp
(Aussen-T/F)
-8.8 °C
22-01-2019  06:35:00
21.7 °C
30-03-2019  16:15:00
4.96 °C
Abs-Feuchte
(Aussen-T/F)
2.41 g/m*3
22-01-2019  06:00:00
9.92 g/m*3
10-03-2019  10:00:00
5.87 g/m*3
Windchill
(Aussen-T/F)
-8.74 C
22-01-2019  06:00:00
20.96 C
22-03-2019  17:00:00
4.07 C

Die Daten stammen von einer Davis Vantage Pro 2 Wetter-Station und werden unter Linux mit der Software wview2wettercgi und aufbereitet. Alle Angaben erfolgen ohne Gewähr für ihre Vollständigkeit oder Richtigkeit.
Kontakt: Rainer Krienke krienke@uni-koblenz.de . Meine Webseiten an der Uni Koblenz oder privat.
Version: $Revision: 0.78 $